<?xml version="1.0" encoding="UTF-8" standalone="no" ?>
<gpx xmlns="http://www.topografix.com/GPX/1/1" xmlns:xsi="http://www.w3.org/2001/XMLSchema-instance" xsi:schemaLocation="http://www.topografix.com/GPX/1/1 http://www.topografix.com/GPX/1/1/gpx.xsd" version="1.1" creator="VisuGPX - https://www.visugpx.com">
  <metadata>
    <name>Circuit Terre mer entre La Cadière et St Cyr</name>
    <desc><![CDATA[Direction le bord de mer en passant par des petites routes offrant un superbe panorama sur la baie des Lecques. Puis vous atteignez les Lecques et ses plages de sable blanc, la Madrague avec sa plage et son petit port. Pour finir le retour vers la Cadière d’Azur vous fera passer par des petites routes serpentant au milieu du vignoble et offrant de jolies vues sur le village perché.
Possibilité de rallonger en continuant sur le chemin du Jas de Clare puis par le chemin des belles pierres.
]]></desc>
  </metadata>
  <trk>
    <name><![CDATA[Terre Mer]]></name>
    <trkseg>
      <trkpt lat="43.19576" lon="5.75744">
        <ele>135.19999694824</ele>
        <time>2017-07-15T16:16:11.000Z</time>
      </trkpt>
      <trkpt lat="43.19578" lon="5.75734">
        <ele>136.60000610352</ele>
        <time>2017-07-15T16:16:54.000Z</time>
      </trkpt>
      <trkpt lat="43.19576" lon="5.75722">
        <ele>137.19999694824</ele>
        <time>2017-07-15T16:16:59.000Z</time>
      </trkpt>
      <trkpt lat="43.19572" lon="5.75703">
        <ele>137</ele>
        <time>2017-07-15T16:17:04.000Z</time>
      </trkpt>
      <trkpt lat="43.19562" lon="5.75668">
        <ele>136.60000610352</ele>
        <time>2017-07-15T16:17:12.000Z</time>
      </trkpt>
      <trkpt lat="43.19554" lon="5.75635">
        <ele>136.60000610352</ele>
        <time>2017-07-15T16:17:19.000Z</time>
      </trkpt>
      <trkpt lat="43.19546" lon="5.75617">
        <ele>135.39999389648</ele>
        <time>2017-07-15T16:17:25.000Z</time>
      </trkpt>
      <trkpt lat="43.19534" lon="5.75619">
        <ele>132.60000610352</ele>
        <time>2017-07-15T16:17:29.000Z</time>
      </trkpt>
      <trkpt lat="43.19523" lon="5.75615">
        <ele>130.19999694824</ele>
        <time>2017-07-15T16:17:33.000Z</time>
      </trkpt>
      <trkpt lat="43.19515" lon="5.75603">
        <ele>128.80000305176</ele>
        <time>2017-07-15T16:17:36.000Z</time>
      </trkpt>
      <trkpt lat="43.19514" lon="5.75598">
        <ele>128.39999389648</ele>
        <time>2017-07-15T16:17:37.000Z</time>
      </trkpt>
      <trkpt lat="43.19512" lon="5.75594">
        <ele>128</ele>
        <time>2017-07-15T16:17:38.000Z</time>
      </trkpt>
      <trkpt lat="43.19509" lon="5.75584">
        <ele>127.80000305176</ele>
        <time>2017-07-15T16:17:40.000Z</time>
      </trkpt>
      <trkpt lat="43.19506" lon="5.7557">
        <ele>127.80000305176</ele>
        <time>2017-07-15T16:17:43.000Z</time>
      </trkpt>
      <trkpt lat="43.19505" lon="5.75567">
        <ele>127.59999847412</ele>
        <time>2017-07-15T16:17:44.000Z</time>
      </trkpt>
      <trkpt lat="43.19503" lon="5.75555">
        <ele>127.80000305176</ele>
        <time>2017-07-15T16:17:47.000Z</time>
      </trkpt>
      <trkpt lat="43.19504" lon="5.75548">
        <ele>128.19999694824</ele>
        <time>2017-07-15T16:17:49.000Z</time>
      </trkpt>
      <trkpt lat="43.19509" lon="5.75519">
        <ele>129</ele>
        <time>2017-07-15T16:17:56.000Z</time>
      </trkpt>
      <trkpt lat="43.19514" lon="5.7548">
        <ele>130.39999389648</ele>
        <time>2017-07-15T16:18:05.000Z</time>
      </trkpt>
      <trkpt lat="43.19517" lon="5.75459">
        <ele>131.60000610352</ele>
        <time>2017-07-15T16:18:10.000Z</time>
      </trkpt>
      <trkpt lat="43.19518" lon="5.75451">
        <ele>132.19999694824</ele>
        <time>2017-07-15T16:18:12.000Z</time>
      </trkpt>
      <trkpt lat="43.19521" lon="5.75424">
        <ele>134</ele>
        <time>2017-07-15T16:18:18.000Z</time>
      </trkpt>
      <trkpt lat="43.19521" lon="5.75419">
        <ele>134.39999389648</ele>
        <time>2017-07-15T16:18:19.000Z</time>
      </trkpt>
      <trkpt lat="43.19523" lon="5.75402">
        <ele>135.39999389648</ele>
        <time>2017-07-15T16:18:23.000Z</time>
      </trkpt>
      <trkpt lat="43.19525" lon="5.75383">
        <ele>136.60000610352</ele>
        <time>2017-07-15T16:18:28.000Z</time>
      </trkpt>
      <trkpt lat="43.19524" lon="5.7537">
        <ele>136.19999694824</ele>
        <time>2017-07-15T16:18:32.000Z</time>
      </trkpt>
      <trkpt lat="43.19522" lon="5.75368">
        <ele>135.80000305176</ele>
        <time>2017-07-15T16:18:33.000Z</time>
      </trkpt>
      <trkpt lat="43.19519" lon="5.75367">
        <ele>135.19999694824</ele>
        <time>2017-07-15T16:18:34.000Z</time>
      </trkpt>
      <trkpt lat="43.19508" lon="5.75368">
        <ele>133.39999389648</ele>
        <time>2017-07-15T16:18:37.000Z</time>
      </trkpt>
      <trkpt lat="43.19504" lon="5.75369">
        <ele>132.80000305176</ele>
        <time>2017-07-15T16:18:38.000Z</time>
      </trkpt>
      <trkpt lat="43.19481" lon="5.7537">
        <ele>129.60000610352</ele>
        <time>2017-07-15T16:18:43.000Z</time>
      </trkpt>
      <trkpt lat="43.19473" lon="5.75369">
        <ele>128.39999389648</ele>
        <time>2017-07-15T16:18:45.000Z</time>
      </trkpt>
      <trkpt lat="43.19468" lon="5.75367">
        <ele>127.59999847412</ele>
        <time>2017-07-15T16:18:48.000Z</time>
      </trkpt>
      <trkpt lat="43.19464" lon="5.75366">
        <ele>127.19999694824</ele>
        <time>2017-07-15T16:18:50.000Z</time>
      </trkpt>
      <trkpt lat="43.19456" lon="5.75365">
        <ele>126</ele>
        <time>2017-07-15T16:18:53.000Z</time>
      </trkpt>
      <trkpt lat="43.19453" lon="5.75365">
        <ele>125.59999847412</ele>
        <time>2017-07-15T16:18:54.000Z</time>
      </trkpt>
      <trkpt lat="43.19448" lon="5.75358">
        <ele>124.80000305176</ele>
        <time>2017-07-15T16:18:57.000Z</time>
      </trkpt>
      <trkpt lat="43.19447" lon="5.75357">
        <ele>124.80000305176</ele>
        <time>2017-07-15T16:18:58.000Z</time>
      </trkpt>
      <trkpt lat="43.19446" lon="5.75356">
        <ele>124.40000152588</ele>
        <time>2017-07-15T16:19:00.000Z</time>
      </trkpt>
      <trkpt lat="43.19443" lon="5.7535">
        <ele>124.19999694824</ele>
        <time>2017-07-15T16:19:02.000Z</time>
      </trkpt>
      <trkpt lat="43.19439" lon="5.75343">
        <ele>123.59999847412</ele>
        <time>2017-07-15T16:19:04.000Z</time>
      </trkpt>
      <trkpt lat="43.19435" lon="5.75335">
        <ele>123</ele>
        <time>2017-07-15T16:19:06.000Z</time>
      </trkpt>
      <trkpt lat="43.19432" lon="5.75331">
        <ele>122.59999847412</ele>
        <time>2017-07-15T16:19:07.000Z</time>
      </trkpt>
      <trkpt lat="43.19422" lon="5.75312">
        <ele>121</ele>
        <time>2017-07-15T16:19:11.000Z</time>
      </trkpt>
      <trkpt lat="43.19417" lon="5.75303">
        <ele>120.19999694824</ele>
        <time>2017-07-15T16:19:13.000Z</time>
      </trkpt>
      <trkpt lat="43.19409" lon="5.75289">
        <ele>119.19999694824</ele>
        <time>2017-07-15T16:19:16.000Z</time>
      </trkpt>
      <trkpt lat="43.19397" lon="5.75271">
        <ele>117.40000152588</ele>
        <time>2017-07-15T16:19:20.000Z</time>
      </trkpt>
      <trkpt lat="43.19393" lon="5.75267">
        <ele>117</ele>
        <time>2017-07-15T16:19:21.000Z</time>
      </trkpt>
      <trkpt lat="43.1939" lon="5.75263">
        <ele>116.40000152588</ele>
        <time>2017-07-15T16:19:22.000Z</time>
      </trkpt>
      <trkpt lat="43.19387" lon="5.75259">
        <ele>116</ele>
        <time>2017-07-15T16:19:23.000Z</time>
      </trkpt>
      <trkpt lat="43.19376" lon="5.75248">
        <ele>114.40000152588</ele>
        <time>2017-07-15T16:19:26.000Z</time>
      </trkpt>
      <trkpt lat="43.19363" lon="5.75231">
        <ele>112.59999847412</ele>
        <time>2017-07-15T16:19:30.000Z</time>
      </trkpt>
      <trkpt lat="43.19359" lon="5.75227">
        <ele>112</ele>
        <time>2017-07-15T16:19:31.000Z</time>
      </trkpt>
      <trkpt lat="43.19355" lon="5.75224">
        <ele>111.40000152588</ele>
        <time>2017-07-15T16:19:32.000Z</time>
      </trkpt>
      <trkpt lat="43.19338" lon="5.75211">
        <ele>110</ele>
        <time>2017-07-15T16:19:36.000Z</time>
      </trkpt>
      <trkpt lat="43.19328" lon="5.75208">
        <ele>109.40000152588</ele>
        <time>2017-07-15T16:19:38.000Z</time>
      </trkpt>
      <trkpt lat="43.19323" lon="5.75207">
        <ele>109</ele>
        <time>2017-07-15T16:19:39.000Z</time>
      </trkpt>
      <trkpt lat="43.19312" lon="5.75201">
        <ele>108.40000152588</ele>
        <time>2017-07-15T16:19:41.000Z</time>
      </trkpt>
      <trkpt lat="43.19301" lon="5.75194">
        <ele>108</ele>
        <time>2017-07-15T16:19:43.000Z</time>
      </trkpt>
      <trkpt lat="43.19296" lon="5.75189">
        <ele>107.80000305176</ele>
        <time>2017-07-15T16:19:44.000Z</time>
      </trkpt>
      <trkpt lat="43.19286" lon="5.75177">
        <ele>107.80000305176</ele>
        <time>2017-07-15T16:19:46.000Z</time>
      </trkpt>
      <trkpt lat="43.19278" lon="5.75163">
        <ele>108</ele>
        <time>2017-07-15T16:19:48.000Z</time>
      </trkpt>
      <trkpt lat="43.19275" lon="5.75155">
        <ele>108</ele>
        <time>2017-07-15T16:19:49.000Z</time>
      </trkpt>
      <trkpt lat="43.19262" lon="5.75133">
        <ele>108.19999694824</ele>
        <time>2017-07-15T16:19:52.000Z</time>
      </trkpt>
      <trkpt lat="43.19249" lon="5.7511">
        <ele>107.19999694824</ele>
        <time>2017-07-15T16:19:55.000Z</time>
      </trkpt>
      <trkpt lat="43.1924" lon="5.75095">
        <ele>106.40000152588</ele>
        <time>2017-07-15T16:19:57.000Z</time>
      </trkpt>
      <trkpt lat="43.19222" lon="5.75064">
        <ele>105</ele>
        <time>2017-07-15T16:20:01.000Z</time>
      </trkpt>
      <trkpt lat="43.19218" lon="5.75057">
        <ele>104.59999847412</ele>
        <time>2017-07-15T16:20:02.000Z</time>
      </trkpt>
      <trkpt lat="43.19204" lon="5.75034">
        <ele>104</ele>
        <time>2017-07-15T16:20:05.000Z</time>
      </trkpt>
      <trkpt lat="43.19188" lon="5.75008">
        <ele>103.40000152588</ele>
        <time>2017-07-15T16:20:09.000Z</time>
      </trkpt>
      <trkpt lat="43.1918" lon="5.74989">
        <ele>103.40000152588</ele>
        <time>2017-07-15T16:20:12.000Z</time>
      </trkpt>
      <trkpt lat="43.19177" lon="5.74978">
        <ele>103.59999847412</ele>
        <time>2017-07-15T16:20:14.000Z</time>
      </trkpt>
      <trkpt lat="43.19175" lon="5.74962">
        <ele>104.40000152588</ele>
        <time>2017-07-15T16:20:17.000Z</time>
      </trkpt>
      <trkpt lat="43.19174" lon="5.74946">
        <ele>105.19999694824</ele>
        <time>2017-07-15T16:20:20.000Z</time>
      </trkpt>
      <trkpt lat="43.19167" lon="5.74912">
        <ele>107</ele>
        <time>2017-07-15T16:20:27.000Z</time>
      </trkpt>
      <trkpt lat="43.19151" lon="5.74884">
        <ele>108.40000152588</ele>
        <time>2017-07-15T16:20:34.000Z</time>
      </trkpt>
      <trkpt lat="43.19132" lon="5.74867">
        <ele>108.80000305176</ele>
        <time>2017-07-15T16:20:40.000Z</time>
      </trkpt>
      <trkpt lat="43.19125" lon="5.74863">
        <ele>109</ele>
        <time>2017-07-15T16:20:42.000Z</time>
      </trkpt>
      <trkpt lat="43.19099" lon="5.74856">
        <ele>109.40000152588</ele>
        <time>2017-07-15T16:20:49.000Z</time>
      </trkpt>
      <trkpt lat="43.19095" lon="5.74855">
        <ele>109.40000152588</ele>
        <time>2017-07-15T16:20:50.000Z</time>
      </trkpt>
      <trkpt lat="43.19063" lon="5.74845">
        <ele>111</ele>
        <time>2017-07-15T16:20:59.000Z</time>
      </trkpt>
      <trkpt lat="43.19056" lon="5.74842">
        <ele>111.40000152588</ele>
        <time>2017-07-15T16:21:01.000Z</time>
      </trkpt>
      <trkpt lat="43.19039" lon="5.74831">
        <ele>112.40000152588</ele>
        <time>2017-07-15T16:21:06.000Z</time>
      </trkpt>
      <trkpt lat="43.19036" lon="5.74828">
        <ele>112.59999847412</ele>
        <time>2017-07-15T16:21:07.000Z</time>
      </trkpt>
      <trkpt lat="43.19028" lon="5.74819">
        <ele>113</ele>
        <time>2017-07-15T16:21:10.000Z</time>
      </trkpt>
      <trkpt lat="43.19019" lon="5.74809">
        <ele>113.59999847412</ele>
        <time>2017-07-15T16:21:13.000Z</time>
      </trkpt>
      <trkpt lat="43.19017" lon="5.74805">
        <ele>113.80000305176</ele>
        <time>2017-07-15T16:21:14.000Z</time>
      </trkpt>
      <trkpt lat="43.19009" lon="5.74795">
        <ele>114</ele>
        <time>2017-07-15T16:21:17.000Z</time>
      </trkpt>
      <trkpt lat="43.19" lon="5.74779">
        <ele>113.59999847412</ele>
        <time>2017-07-15T16:21:21.000Z</time>
      </trkpt>
      <trkpt lat="43.18995" lon="5.74765">
        <ele>113.40000152588</ele>
        <time>2017-07-15T16:21:24.000Z</time>
      </trkpt>
      <trkpt lat="43.18989" lon="5.74747">
        <ele>113.19999694824</ele>
        <time>2017-07-15T16:21:28.000Z</time>
      </trkpt>
      <trkpt lat="43.18987" lon="5.74742">
        <ele>113.19999694824</ele>
        <time>2017-07-15T16:21:29.000Z</time>
      </trkpt>
      <trkpt lat="43.18981" lon="5.74724">
        <ele>113</ele>
        <time>2017-07-15T16:21:33.000Z</time>
      </trkpt>
      <trkpt lat="43.18976" lon="5.74701">
        <ele>113.80000305176</ele>
        <time>2017-07-15T16:21:38.000Z</time>
      </trkpt>
      <trkpt lat="43.18962" lon="5.74676">
        <ele>115</ele>
        <time>2017-07-15T16:21:44.000Z</time>
      </trkpt>
      <trkpt lat="43.18954" lon="5.74666">
        <ele>115.19999694824</ele>
        <time>2017-07-15T16:21:47.000Z</time>
      </trkpt>
      <trkpt lat="43.18944" lon="5.74659">
        <ele>115.19999694824</ele>
        <time>2017-07-15T16:21:50.000Z</time>
      </trkpt>
      <trkpt lat="43.18917" lon="5.74634">
        <ele>116.19999694824</ele>
        <time>2017-07-15T16:21:58.000Z</time>
      </trkpt>
      <trkpt lat="43.18896" lon="5.74619">
        <ele>116.59999847412</ele>
        <time>2017-07-15T16:22:03.000Z</time>
      </trkpt>
      <trkpt lat="43.18889" lon="5.74614">
        <ele>116.80000305176</ele>
        <time>2017-07-15T16:22:05.000Z</time>
      </trkpt>
      <trkpt lat="43.18875" lon="5.74602">
        <ele>117.19999694824</ele>
        <time>2017-07-15T16:22:09.000Z</time>
      </trkpt>
      <trkpt lat="43.1887" lon="5.74594">
        <ele>117.59999847412</ele>
        <time>2017-07-15T16:22:11.000Z</time>
      </trkpt>
      <trkpt lat="43.18854" lon="5.74562">
        <ele>118.59999847412</ele>
        <time>2017-07-15T16:22:18.000Z</time>
      </trkpt>
      <trkpt lat="43.1885" lon="5.74554">
        <ele>118.80000305176</ele>
        <time>2017-07-15T16:22:20.000Z</time>
      </trkpt>
      <trkpt lat="43.18842" lon="5.74535">
        <ele>118.19999694824</ele>
        <time>2017-07-15T16:22:24.000Z</time>
      </trkpt>
      <trkpt lat="43.18834" lon="5.74511">
        <ele>117.40000152588</ele>
        <time>2017-07-15T16:22:28.000Z</time>
      </trkpt>
      <trkpt lat="43.18821" lon="5.7446">
        <ele>115.59999847412</ele>
        <time>2017-07-15T16:22:36.000Z</time>
      </trkpt>
      <trkpt lat="43.18804" lon="5.74424">
        <ele>114.40000152588</ele>
        <time>2017-07-15T16:22:42.000Z</time>
      </trkpt>
      <trkpt lat="43.188" lon="5.74418">
        <ele>114</ele>
        <time>2017-07-15T16:22:43.000Z</time>
      </trkpt>
      <trkpt lat="43.18781" lon="5.74392">
        <ele>113.19999694824</ele>
        <time>2017-07-15T16:22:47.000Z</time>
      </trkpt>
      <trkpt lat="43.1877" lon="5.74379">
        <ele>112.59999847412</ele>
        <time>2017-07-15T16:22:49.000Z</time>
      </trkpt>
      <trkpt lat="43.18753" lon="5.74357">
        <ele>111.59999847412</ele>
        <time>2017-07-15T16:22:52.000Z</time>
      </trkpt>
      <trkpt lat="43.18748" lon="5.7435">
        <ele>111.19999694824</ele>
        <time>2017-07-15T16:22:53.000Z</time>
      </trkpt>
      <trkpt lat="43.18738" lon="5.74338">
        <ele>110.59999847412</ele>
        <time>2017-07-15T16:22:55.000Z</time>
      </trkpt>
      <trkpt lat="43.18722" lon="5.74322">
        <ele>109.80000305176</ele>
        <time>2017-07-15T16:22:58.000Z</time>
      </trkpt>
      <trkpt lat="43.18717" lon="5.74317">
        <ele>109.59999847412</ele>
        <time>2017-07-15T16:22:59.000Z</time>
      </trkpt>
      <trkpt lat="43.18687" lon="5.74289">
        <ele>108.80000305176</ele>
        <time>2017-07-15T16:23:04.000Z</time>
      </trkpt>
      <trkpt lat="43.18675" lon="5.74275">
        <ele>108.80000305176</ele>
        <time>2017-07-15T16:23:06.000Z</time>
      </trkpt>
      <trkpt lat="43.18669" lon="5.74268">
        <ele>109.19999694824</ele>
        <time>2017-07-15T16:23:07.000Z</time>
      </trkpt>
      <trkpt lat="43.18665" lon="5.7426">
        <ele>109.40000152588</ele>
        <time>2017-07-15T16:23:08.000Z</time>
      </trkpt>
      <trkpt lat="43.18659" lon="5.74242">
        <ele>109.59999847412</ele>
        <time>2017-07-15T16:23:10.000Z</time>
      </trkpt>
      <trkpt lat="43.18656" lon="5.74218">
        <ele>109.40000152588</ele>
        <time>2017-07-15T16:23:13.000Z</time>
      </trkpt>
      <trkpt lat="43.18656" lon="5.7421">
        <ele>109.19999694824</ele>
        <time>2017-07-15T16:23:14.000Z</time>
      </trkpt>
      <trkpt lat="43.18655" lon="5.74203">
        <ele>108.80000305176</ele>
        <time>2017-07-15T16:23:15.000Z</time>
      </trkpt>
      <trkpt lat="43.18648" lon="5.74171">
        <ele>108.19999694824</ele>
        <time>2017-07-15T16:23:20.000Z</time>
      </trkpt>
      <trkpt lat="43.18646" lon="5.74165">
        <ele>108.19999694824</ele>
        <time>2017-07-15T16:23:21.000Z</time>
      </trkpt>
      <trkpt lat="43.1863" lon="5.74116">
        <ele>107.59999847412</ele>
        <time>2017-07-15T16:23:30.000Z</time>
      </trkpt>
      <trkpt lat="43.18608" lon="5.74074">
        <ele>107.19999694824</ele>
        <time>2017-07-15T16:23:39.000Z</time>
      </trkpt>
      <trkpt lat="43.1858" lon="5.74041">
        <ele>107</ele>
        <time>2017-07-15T16:23:48.000Z</time>
      </trkpt>
      <trkpt lat="43.18547" lon="5.74006">
        <ele>107</ele>
        <time>2017-07-15T16:23:58.000Z</time>
      </trkpt>
      <trkpt lat="43.18517" lon="5.73969">
        <ele>106.80000305176</ele>
        <time>2017-07-15T16:24:08.000Z</time>
      </trkpt>
      <trkpt lat="43.18483" lon="5.73927">
        <ele>107</ele>
        <time>2017-07-15T16:24:20.000Z</time>
      </trkpt>
      <trkpt lat="43.18461" lon="5.73905">
        <ele>107.19999694824</ele>
        <time>2017-07-15T16:24:28.000Z</time>
      </trkpt>
      <trkpt lat="43.18451" lon="5.73914">
        <ele>107.80000305176</ele>
        <time>2017-07-15T16:24:32.000Z</time>
      </trkpt>
      <trkpt lat="43.18448" lon="5.73921">
        <ele>108.40000152588</ele>
        <time>2017-07-15T16:24:34.000Z</time>
      </trkpt>
      <trkpt lat="43.18437" lon="5.73943">
        <ele>110.19999694824</ele>
        <time>2017-07-15T16:24:40.000Z</time>
      </trkpt>
      <trkpt lat="43.18423" lon="5.7397">
        <ele>112.40000152588</ele>
        <time>2017-07-15T16:24:48.000Z</time>
      </trkpt>
      <trkpt lat="43.18419" lon="5.73977">
        <ele>113.19999694824</ele>
        <time>2017-07-15T16:24:50.000Z</time>
      </trkpt>
      <trkpt lat="43.18406" lon="5.73997">
        <ele>115.40000152588</ele>
        <time>2017-07-15T16:24:57.000Z</time>
      </trkpt>
      <trkpt lat="43.18403" lon="5.73995">
        <ele>115.59999847412</ele>
        <time>2017-07-15T16:24:58.000Z</time>
      </trkpt>
      <trkpt lat="43.18398" lon="5.7399">
        <ele>115.80000305176</ele>
        <time>2017-07-15T16:25:00.000Z</time>
      </trkpt>
      <trkpt lat="43.18392" lon="5.73979">
        <ele>115.59999847412</ele>
        <time>2017-07-15T16:25:03.000Z</time>
      </trkpt>
      <trkpt lat="43.1839" lon="5.73976">
        <ele>115.40000152588</ele>
        <time>2017-07-15T16:25:04.000Z</time>
      </trkpt>
      <trkpt lat="43.18388" lon="5.73973">
        <ele>115.40000152588</ele>
        <time>2017-07-15T16:25:05.000Z</time>
      </trkpt>
      <trkpt lat="43.18383" lon="5.73966">
        <ele>115.40000152588</ele>
        <time>2017-07-15T16:25:07.000Z</time>
      </trkpt>
      <trkpt lat="43.18371" lon="5.73943">
        <ele>115.19999694824</ele>
        <time>2017-07-15T16:25:13.000Z</time>
      </trkpt>
      <trkpt lat="43.18366" lon="5.73935">
        <ele>115</ele>
        <time>2017-07-15T16:25:15.000Z</time>
      </trkpt>
      <trkpt lat="43.18347" lon="5.73909">
        <ele>115</ele>
        <time>2017-07-15T16:25:22.000Z</time>
      </trkpt>
      <trkpt lat="43.18322" lon="5.73879">
        <ele>114.40000152588</ele>
        <time>2017-07-15T16:25:31.000Z</time>
      </trkpt>
      <trkpt lat="43.18299" lon="5.73861">
        <ele>114.40000152588</ele>
        <time>2017-07-15T16:25:37.000Z</time>
      </trkpt>
      <trkpt lat="43.1828" lon="5.73849">
        <ele>114.40000152588</ele>
        <time>2017-07-15T16:25:41.000Z</time>
      </trkpt>
      <trkpt lat="43.18264" lon="5.73845">
        <ele>114.80000305176</ele>
        <time>2017-07-15T16:25:44.000Z</time>
      </trkpt>
      <trkpt lat="43.18249" lon="5.73843">
        <ele>116.80000305176</ele>
        <time>2017-07-15T16:25:47.000Z</time>
      </trkpt>
      <trkpt lat="43.18237" lon="5.73837">
        <ele>118.19999694824</ele>
        <time>2017-07-15T16:25:50.000Z</time>
      </trkpt>
      <trkpt lat="43.18219" lon="5.73823">
        <ele>120</ele>
        <time>2017-07-15T16:25:56.000Z</time>
      </trkpt>
      <trkpt lat="43.18199" lon="5.73807">
        <ele>122</ele>
        <time>2017-07-15T16:26:03.000Z</time>
      </trkpt>
      <trkpt lat="43.18184" lon="5.73789">
        <ele>122.40000152588</ele>
        <time>2017-07-15T16:26:09.000Z</time>
      </trkpt>
      <trkpt lat="43.18169" lon="5.73769">
        <ele>122.40000152588</ele>
        <time>2017-07-15T16:26:14.000Z</time>
      </trkpt>
      <trkpt lat="43.1816" lon="5.73758">
        <ele>122.59999847412</ele>
        <time>2017-07-15T16:26:17.000Z</time>
      </trkpt>
      <trkpt lat="43.18153" lon="5.73751">
        <ele>122.80000305176</ele>
        <time>2017-07-15T16:26:19.000Z</time>
      </trkpt>
      <trkpt lat="43.18146" lon="5.73745">
        <ele>123.19999694824</ele>
        <time>2017-07-15T16:26:21.000Z</time>
      </trkpt>
      <trkpt lat="43.18142" lon="5.73742">
        <ele>123.59999847412</ele>
        <time>2017-07-15T16:26:22.000Z</time>
      </trkpt>
      <trkpt lat="43.1813" lon="5.73738">
        <ele>125</ele>
        <time>2017-07-15T16:26:25.000Z</time>
      </trkpt>
      <trkpt lat="43.18118" lon="5.73734">
        <ele>126.59999847412</ele>
        <time>2017-07-15T16:26:28.000Z</time>
      </trkpt>
      <trkpt lat="43.18115" lon="5.73733">
        <ele>127</ele>
        <time>2017-07-15T16:26:29.000Z</time>
      </trkpt>
      <trkpt lat="43.18103" lon="5.73729">
        <ele>128.60000610352</ele>
        <time>2017-07-15T16:26:32.000Z</time>
      </trkpt>
      <trkpt lat="43.18092" lon="5.73726">
        <ele>130.19999694824</ele>
        <time>2017-07-15T16:26:35.000Z</time>
      </trkpt>
      <trkpt lat="43.18088" lon="5.73725">
        <ele>130.39999389648</ele>
        <time>2017-07-15T16:26:36.000Z</time>
      </trkpt>
      <trkpt lat="43.1808" lon="5.73725">
        <ele>130.80000305176</ele>
        <time>2017-07-15T16:26:38.000Z</time>
      </trkpt>
      <trkpt lat="43.18069" lon="5.73725">
        <ele>131.80000305176</ele>
        <time>2017-07-15T16:26:41.000Z</time>
      </trkpt>
      <trkpt lat="43.18058" lon="5.73724">
        <ele>132.80000305176</ele>
        <time>2017-07-15T16:26:44.000Z</time>
      </trkpt>
      <trkpt lat="43.18041" lon="5.73722">
        <ele>133.60000610352</ele>
        <time>2017-07-15T16:26:49.000Z</time>
      </trkpt>
      <trkpt lat="43.18035" lon="5.73718">
        <ele>133.60000610352</ele>
        <time>2017-07-15T16:26:51.000Z</time>
      </trkpt>
      <trkpt lat="43.18011" lon="5.73703">
        <ele>133.60000610352</ele>
        <time>2017-07-15T16:26:58.000Z</time>
      </trkpt>
      <trkpt lat="43.17993" lon="5.7369">
        <ele>134</ele>
        <time>2017-07-15T16:27:03.000Z</time>
      </trkpt>
      <trkpt lat="43.17983" lon="5.73683">
        <ele>134.19999694824</ele>
        <time>2017-07-15T16:27:06.000Z</time>
      </trkpt>
      <trkpt lat="43.17972" lon="5.73678">
        <ele>134.60000610352</ele>
        <time>2017-07-15T16:27:09.000Z</time>
      </trkpt>
      <trkpt lat="43.1796" lon="5.73678">
        <ele>135.80000305176</ele>
        <time>2017-07-15T16:27:12.000Z</time>
      </trkpt>
      <trkpt lat="43.17942" lon="5.73685">
        <ele>138.39999389648</ele>
        <time>2017-07-15T16:27:17.000Z</time>
      </trkpt>
      <trkpt lat="43.17934" lon="5.73688">
        <ele>139.39999389648</ele>
        <time>2017-07-15T16:27:19.000Z</time>
      </trkpt>
      <trkpt lat="43.17931" lon="5.73689">
        <ele>139.80000305176</ele>
        <time>2017-07-15T16:27:20.000Z</time>
      </trkpt>
      <trkpt lat="43.17921" lon="5.7369">
        <ele>140.80000305176</ele>
        <time>2017-07-15T16:27:23.000Z</time>
      </trkpt>
      <trkpt lat="43.17914" lon="5.73691">
        <ele>141.39999389648</ele>
        <time>2017-07-15T16:27:25.000Z</time>
      </trkpt>
      <trkpt lat="43.1791" lon="5.7369">
        <ele>141.60000610352</ele>
        <time>2017-07-15T16:27:26.000Z</time>
      </trkpt>
      <trkpt lat="43.17907" lon="5.73691">
        <ele>142</ele>
        <time>2017-07-15T16:27:27.000Z</time>
      </trkpt>
      <trkpt lat="43.179" lon="5.73693">
        <ele>142.60000610352</ele>
        <time>2017-07-15T16:27:29.000Z</time>
      </trkpt>
      <trkpt lat="43.17894" lon="5.73695">
        <ele>143.80000305176</ele>
        <time>2017-07-15T16:27:31.000Z</time>
      </trkpt>
      <trkpt lat="43.17891" lon="5.73697">
        <ele>144.39999389648</ele>
        <time>2017-07-15T16:27:32.000Z</time>
      </trkpt>
      <trkpt lat="43.17888" lon="5.73699">
        <ele>144.80000305176</ele>
        <time>2017-07-15T16:27:33.000Z</time>
      </trkpt>
      <trkpt lat="43.1788" lon="5.73698">
        <ele>145.80000305176</ele>
        <time>2017-07-15T16:27:36.000Z</time>
      </trkpt>
      <trkpt lat="43.17878" lon="5.73698">
        <ele>145.80000305176</ele>
        <time>2017-07-15T16:27:37.000Z</time>
      </trkpt>
      <trkpt lat="43.17871" lon="5.73696">
        <ele>146.39999389648</ele>
        <time>2017-07-15T16:27:40.000Z</time>
      </trkpt>
      <trkpt lat="43.17862" lon="5.73694">
        <ele>147</ele>
        <time>2017-07-15T16:27:43.000Z</time>
      </trkpt>
      <trkpt lat="43.17857" lon="5.73692">
        <ele>147.39999389648</ele>
        <time>2017-07-15T16:27:45.000Z</time>
      </trkpt>
      <trkpt lat="43.1784" lon="5.73683">
        <ele>147.19999694824</ele>
        <time>2017-07-15T16:27:51.000Z</time>
      </trkpt>
      <trkpt lat="43.17826" lon="5.73677">
        <ele>146.60000610352</ele>
        <time>2017-07-15T16:27:56.000Z</time>
      </trkpt>
      <trkpt lat="43.17819" lon="5.73674">
        <ele>146.19999694824</ele>
        <time>2017-07-15T16:27:59.000Z</time>
      </trkpt>
      <trkpt lat="43.17816" lon="5.73673">
        <ele>146.19999694824</ele>
        <time>2017-07-15T16:28:00.000Z</time>
      </trkpt>
      <trkpt lat="43.17797" lon="5.73673">
        <ele>146.80000305176</ele>
        <time>2017-07-15T16:28:07.000Z</time>
      </trkpt>
      <trkpt lat="43.17788" lon="5.73679">
        <ele>148.19999694824</ele>
        <time>2017-07-15T16:28:10.000Z</time>
      </trkpt>
      <trkpt lat="43.17777" lon="5.73683">
        <ele>149.60000610352</ele>
        <time>2017-07-15T16:28:14.000Z</time>
      </trkpt>
      <trkpt lat="43.17771" lon="5.73685">
        <ele>150.19999694824</ele>
        <time>2017-07-15T16:28:18.000Z</time>
      </trkpt>
      <trkpt lat="43.17767" lon="5.73687">
        <ele>150.60000610352</ele>
        <time>2017-07-15T16:28:20.000Z</time>
      </trkpt>
      <trkpt lat="43.17762" lon="5.73689">
        <ele>151.19999694824</ele>
        <time>2017-07-15T16:30:22.000Z</time>
      </trkpt>
      <trkpt lat="43.17757" lon="5.7369">
        <ele>151.60000610352</ele>
        <time>2017-07-15T16:30:25.000Z</time>
      </trkpt>
      <trkpt lat="43.17742" lon="5.73693">
        <ele>152.19999694824</ele>
        <time>2017-07-15T16:30:31.000Z</time>
      </trkpt>
      <trkpt lat="43.17732" lon="5.73688">
        <ele>151.39999389648</ele>
        <time>2017-07-15T16:30:34.000Z</time>
      </trkpt>
      <trkpt lat="43.17725" lon="5.7368">
        <ele>150.19999694824</ele>
        <time>2017-07-15T16:30:36.000Z</time>
      </trkpt>
      <trkpt lat="43.17707" lon="5.73664">
        <ele>147.39999389648</ele>
        <time>2017-07-15T16:30:40.000Z</time>
      </trkpt>
      <trkpt lat="43.17702" lon="5.73661">
        <ele>147</ele>
        <time>2017-07-15T16:30:41.000Z</time>
      </trkpt>
      <trkpt lat="43.17685" lon="5.73658">
        <ele>147</ele>
        <time>2017-07-15T16:30:44.000Z</time>
      </trkpt>
      <trkpt lat="43.17679" lon="5.73658">
        <ele>147.19999694824</ele>
        <time>2017-07-15T16:30:45.000Z</time>
      </trkpt>
      <trkpt lat="43.17674" lon="5.73657">
        <ele>147.19999694824</ele>
        <time>2017-07-15T16:30:46.000Z</time>
      </trkpt>
      <trkpt lat="43.17664" lon="5.73656">
        <ele>147</ele>
        <time>2017-07-15T16:30:48.000Z</time>
      </trkpt>
      <trkpt lat="43.17648" lon="5.73653">
        <ele>146.60000610352</ele>
        <time>2017-07-15T16:30:52.000Z</time>
      </trkpt>
      <trkpt lat="43.17622" lon="5.73657">
        <ele>147.60000610352</ele>
        <time>2017-07-15T16:30:59.000Z</time>
      </trkpt>
      <trkpt lat="43.17595" lon="5.73663">
        <ele>147.80000305176</ele>
        <time>2017-07-15T16:31:06.000Z</time>
      </trkpt>
      <trkpt lat="43.1759" lon="5.73664">
        <ele>148</ele>
        <time>2017-07-15T16:31:07.000Z</time>
      </trkpt>
      <trkpt lat="43.17579" lon="5.73663">
        <ele>148</ele>
        <time>2017-07-15T16:31:09.000Z</time>
      </trkpt>
      <trkpt lat="43.17568" lon="5.73662">
        <ele>147.80000305176</ele>
        <time>2017-07-15T16:31:11.000Z</time>
      </trkpt>
      <trkpt lat="43.17556" lon="5.73659">
        <ele>147.60000610352</ele>
        <time>2017-07-15T16:31:14.000Z</time>
      </trkpt>
      <trkpt lat="43.17549" lon="5.73657">
        <ele>147.39999389648</ele>
        <time>2017-07-15T16:31:16.000Z</time>
      </trkpt>
      <trkpt lat="43.17521" lon="5.73659">
        <ele>147.80000305176</ele>
        <time>2017-07-15T16:31:23.000Z</time>
      </trkpt>
      <trkpt lat="43.17503" lon="5.73662">
        <ele>149</ele>
        <time>2017-07-15T16:31:27.000Z</time>
      </trkpt>
      <trkpt lat="43.17491" lon="5.73662">
        <ele>150.60000610352</ele>
        <time>2017-07-15T16:31:30.000Z</time>
      </trkpt>
      <trkpt lat="43.17479" lon="5.73659">
        <ele>151.80000305176</ele>
        <time>2017-07-15T16:31:33.000Z</time>
      </trkpt>
      <trkpt lat="43.17472" lon="5.73655">
        <ele>152.19999694824</ele>
        <time>2017-07-15T16:31:35.000Z</time>
      </trkpt>
      <trkpt lat="43.17466" lon="5.73652">
        <ele>152.80000305176</ele>
        <time>2017-07-15T16:31:37.000Z</time>
      </trkpt>
      <trkpt lat="43.17462" lon="5.7365">
        <ele>153</ele>
        <time>2017-07-15T16:31:38.000Z</time>
      </trkpt>
      <trkpt lat="43.17453" lon="5.73646">
        <ele>153.80000305176</ele>
        <time>2017-07-15T16:31:41.000Z</time>
      </trkpt>
      <trkpt lat="43.17442" lon="5.73645">
        <ele>155.19999694824</ele>
        <time>2017-07-15T16:31:44.000Z</time>
      </trkpt>
      <trkpt lat="43.17423" lon="5.73646">
        <ele>157.39999389648</ele>
        <time>2017-07-15T16:31:49.000Z</time>
      </trkpt>
      <trkpt lat="43.17416" lon="5.73645">
        <ele>157.80000305176</ele>
        <time>2017-07-15T16:31:51.000Z</time>
      </trkpt>
      <trkpt lat="43.1741" lon="5.73644">
        <ele>158.19999694824</ele>
        <time>2017-07-15T16:31:53.000Z</time>
      </trkpt>
      <trkpt lat="43.17402" lon="5.73642">
        <ele>158.39999389648</ele>
        <time>2017-07-15T16:31:55.000Z</time>
      </trkpt>
      <trkpt lat="43.17395" lon="5.73641">
        <ele>158.80000305176</ele>
        <time>2017-07-15T16:31:57.000Z</time>
      </trkpt>
      <trkpt lat="43.17392" lon="5.73641">
        <ele>159</ele>
        <time>2017-07-15T16:31:58.000Z</time>
      </trkpt>
      <trkpt lat="43.17384" lon="5.73637">
        <ele>159.19999694824</ele>
        <time>2017-07-15T16:32:00.000Z</time>
      </trkpt>
      <trkpt lat="43.17374" lon="5.73632">
        <ele>158.80000305176</ele>
        <time>2017-07-15T16:32:03.000Z</time>
      </trkpt>
      <trkpt lat="43.17371" lon="5.73629">
        <ele>158.60000610352</ele>
        <time>2017-07-15T16:32:04.000Z</time>
      </trkpt>
      <trkpt lat="43.17356" lon="5.73626">
        <ele>159</ele>
        <time>2017-07-15T16:32:08.000Z</time>
      </trkpt>
      <trkpt lat="43.17344" lon="5.73623">
        <ele>159.39999389648</ele>
        <time>2017-07-15T16:32:11.000Z</time>
      </trkpt>
      <trkpt lat="43.17336" lon="5.7362">
        <ele>159.19999694824</ele>
        <time>2017-07-15T16:32:13.000Z</time>
      </trkpt>
      <trkpt lat="43.17332" lon="5.73618">
        <ele>158.80000305176</ele>
        <time>2017-07-15T16:32:14.000Z</time>
      </trkpt>
      <trkpt lat="43.17326" lon="5.73615">
        <ele>158.39999389648</ele>
        <time>2017-07-15T16:32:15.000Z</time>
      </trkpt>
      <trkpt lat="43.17322" lon="5.73611">
        <ele>157.80000305176</ele>
        <time>2017-07-15T16:32:16.000Z</time>
      </trkpt>
      <trkpt lat="43.17313" lon="5.73595">
        <ele>155.19999694824</ele>
        <time>2017-07-15T16:32:19.000Z</time>
      </trkpt>
      <trkpt lat="43.17311" lon="5.73589">
        <ele>154</ele>
        <time>2017-07-15T16:32:20.000Z</time>
      </trkpt>
      <trkpt lat="43.17309" lon="5.73583">
        <ele>153</ele>
        <time>2017-07-15T16:32:21.000Z</time>
      </trkpt>
      <trkpt lat="43.17308" lon="5.73577">
        <ele>152</ele>
        <time>2017-07-15T16:32:22.000Z</time>
      </trkpt>
      <trkpt lat="43.17305" lon="5.73565">
        <ele>150</ele>
        <time>2017-07-15T16:32:24.000Z</time>
      </trkpt>
      <trkpt lat="43.17299" lon="5.73554">
        <ele>148</ele>
        <time>2017-07-15T16:32:26.000Z</time>
      </trkpt>
      <trkpt lat="43.17295" lon="5.7355">
        <ele>147.80000305176</ele>
        <time>2017-07-15T16:32:27.000Z</time>
      </trkpt>
      <trkpt lat="43.1729" lon="5.73547">
        <ele>147.60000610352</ele>
        <time>2017-07-15T16:32:28.000Z</time>
      </trkpt>
      <trkpt lat="43.17282" lon="5.73542">
        <ele>147.19999694824</ele>
        <time>2017-07-15T16:32:30.000Z</time>
      </trkpt>
      <trkpt lat="43.17273" lon="5.73538">
        <ele>147</ele>
        <time>2017-07-15T16:32:32.000Z</time>
      </trkpt>
      <trkpt lat="43.17269" lon="5.73535">
        <ele>146.80000305176</ele>
        <time>2017-07-15T16:32:33.000Z</time>
      </trkpt>
      <trkpt lat="43.17265" lon="5.73532">
        <ele>146.60000610352</ele>
        <time>2017-07-15T16:32:34.000Z</time>
      </trkpt>
      <trkpt lat="43.17262" lon="5.73527">
        <ele>146.19999694824</ele>
        <time>2017-07-15T16:32:35.000Z</time>
      </trkpt>
      <trkpt lat="43.17258" lon="5.73511">
        <ele>144.19999694824</ele>
        <time>2017-07-15T16:32:38.000Z</time>
      </trkpt>
      <trkpt lat="43.17262" lon="5.73493">
        <ele>142.39999389648</ele>
        <time>2017-07-15T16:32:41.000Z</time>
      </trkpt>
      <trkpt lat="43.17264" lon="5.73487">
        <ele>141.60000610352</ele>
        <time>2017-07-15T16:32:42.000Z</time>
      </trkpt>
      <trkpt lat="43.17268" lon="5.73476">
        <ele>140.39999389648</ele>
        <time>2017-07-15T16:32:44.000Z</time>
      </trkpt>
      <trkpt lat="43.1727" lon="5.73466">
        <ele>138.80000305176</ele>
        <time>2017-07-15T16:32:46.000Z</time>
      </trkpt>
      <trkpt lat="43.17269" lon="5.73457">
        <ele>138</ele>
        <time>2017-07-15T16:32:48.000Z</time>
      </trkpt>
      <trkpt lat="43.17266" lon="5.73453">
        <ele>137.80000305176</ele>
        <time>2017-07-15T16:32:49.000Z</time>
      </trkpt>
      <trkpt lat="43.17255" lon="5.73442">
        <ele>137</ele>
        <time>2017-07-15T16:32:52.000Z</time>
      </trkpt>
      <trkpt lat="43.17249" lon="5.73435">
        <ele>136</ele>
        <time>2017-07-15T16:32:54.000Z</time>
      </trkpt>
      <trkpt lat="43.17241" lon="5.7342">
        <ele>134.19999694824</ele>
        <time>2017-07-15T16:32:58.000Z</time>
      </trkpt>
      <trkpt lat="43.17242" lon="5.73415">
        <ele>133.60000610352</ele>
        <time>2017-07-15T16:32:59.000Z</time>
      </trkpt>
      <trkpt lat="43.17246" lon="5.73403">
        <ele>132.80000305176</ele>
        <time>2017-07-15T16:33:01.000Z</time>
      </trkpt>
      <trkpt lat="43.17261" lon="5.73376">
        <ele>131</ele>
        <time>2017-07-15T16:33:06.000Z</time>
      </trkpt>
      <trkpt lat="43.17264" lon="5.73371">
        <ele>130.19999694824</ele>
        <time>2017-07-15T16:33:07.000Z</time>
      </trkpt>
      <trkpt lat="43.17275" lon="5.73355">
        <ele>127.19999694824</ele>
        <time>2017-07-15T16:33:11.000Z</time>
      </trkpt>
      <trkpt lat="43.17277" lon="5.73346">
        <ele>126</ele>
        <time>2017-07-15T16:33:13.000Z</time>
      </trkpt>
      <trkpt lat="43.17276" lon="5.73341">
        <ele>125.80000305176</ele>
        <time>2017-07-15T16:33:14.000Z</time>
      </trkpt>
      <trkpt lat="43.17271" lon="5.73333">
        <ele>126</ele>
        <time>2017-07-15T16:33:16.000Z</time>
      </trkpt>
      <trkpt lat="43.17266" lon="5.73331">
        <ele>126.59999847412</ele>
        <time>2017-07-15T16:33:17.000Z</time>
      </trkpt>
      <trkpt lat="43.17262" lon="5.73329">
        <ele>127</ele>
        <time>2017-07-15T16:33:18.000Z</time>
      </trkpt>
      <trkpt lat="43.17252" lon="5.73324">
        <ele>126</ele>
        <time>2017-07-15T16:33:20.000Z</time>
      </trkpt>
      <trkpt lat="43.17248" lon="5.73322">
        <ele>125.40000152588</ele>
        <time>2017-07-15T16:33:21.000Z</time>
      </trkpt>
      <trkpt lat="43.17238" lon="5.73316">
        <ele>124</ele>
        <time>2017-07-15T16:33:24.000Z</time>
      </trkpt>
      <trkpt lat="43.17234" lon="5.73308">
        <ele>123</ele>
        <time>2017-07-15T16:33:26.000Z</time>
      </trkpt>
      <trkpt lat="43.17235" lon="5.73299">
        <ele>122.19999694824</ele>
        <time>2017-07-15T16:33:28.000Z</time>
      </trkpt>
      <trkpt lat="43.17238" lon="5.7329">
        <ele>121.40000152588</ele>
        <time>2017-07-15T16:33:30.000Z</time>
      </trkpt>
      <trkpt lat="43.1724" lon="5.73285">
        <ele>121</ele>
        <time>2017-07-15T16:33:31.000Z</time>
      </trkpt>
      <trkpt lat="43.17245" lon="5.7327">
        <ele>119.19999694824</ele>
        <time>2017-07-15T16:33:34.000Z</time>
      </trkpt>
      <trkpt lat="43.1725" lon="5.73253">
        <ele>117</ele>
        <time>2017-07-15T16:33:37.000Z</time>
      </trkpt>
      <trkpt lat="43.17252" lon="5.73248">
        <ele>116.40000152588</ele>
        <time>2017-07-15T16:33:38.000Z</time>
      </trkpt>
      <trkpt lat="43.17254" lon="5.73235">
        <ele>114.59999847412</ele>
        <time>2017-07-15T16:33:41.000Z</time>
      </trkpt>
      <trkpt lat="43.17249" lon="5.73229">
        <ele>113.40000152588</ele>
        <time>2017-07-15T16:33:44.000Z</time>
      </trkpt>
      <trkpt lat="43.17244" lon="5.73229">
        <ele>113.19999694824</ele>
        <time>2017-07-15T16:33:46.000Z</time>
      </trkpt>
      <trkpt lat="43.17235" lon="5.73231">
        <ele>113</ele>
        <time>2017-07-15T16:33:48.000Z</time>
      </trkpt>
      <trkpt lat="43.17227" lon="5.73235">
        <ele>113.19999694824</ele>
        <time>2017-07-15T16:33:50.000Z</time>
      </trkpt>
      <trkpt lat="43.17217" lon="5.73245">
        <ele>113.80000305176</ele>
        <time>2017-07-15T16:33:53.000Z</time>
      </trkpt>
      <trkpt lat="43.17208" lon="5.7326">
        <ele>115.19999694824</ele>
        <time>2017-07-15T16:33:56.000Z</time>
      </trkpt>
      <trkpt lat="43.17203" lon="5.73267">
        <ele>115.80000305176</ele>
        <time>2017-07-15T16:33:58.000Z</time>
      </trkpt>
      <trkpt lat="43.17196" lon="5.73264">
        <ele>114.80000305176</ele>
        <time>2017-07-15T16:34:01.000Z</time>
      </trkpt>
      <trkpt lat="43.17198" lon="5.73252">
        <ele>113.40000152588</ele>
        <time>2017-07-15T16:34:04.000Z</time>
      </trkpt>
      <trkpt lat="43.172" lon="5.73249">
        <ele>113.19999694824</ele>
        <time>2017-07-15T16:34:05.000Z</time>
      </trkpt>
      <trkpt lat="43.17203" lon="5.73242">
        <ele>112.59999847412</ele>
        <time>2017-07-15T16:34:07.000Z</time>
      </trkpt>
      <trkpt lat="43.1721" lon="5.73228">
        <ele>111</ele>
        <time>2017-07-15T16:34:11.000Z</time>
      </trkpt>
      <trkpt lat="43.17212" lon="5.73224">
        <ele>110.40000152588</ele>
        <time>2017-07-15T16:34:12.000Z</time>
      </trkpt>
      <trkpt lat="43.17216" lon="5.73209">
        <ele>109.80000305176</ele>
        <time>2017-07-15T16:34:15.000Z</time>
      </trkpt>
      <trkpt lat="43.1722" lon="5.73194">
        <ele>109.59999847412</ele>
        <time>2017-07-15T16:34:18.000Z</time>
      </trkpt>
      <trkpt lat="43.17228" lon="5.73176">
        <ele>108.40000152588</ele>
        <time>2017-07-15T16:34:22.000Z</time>
      </trkpt>
      <trkpt lat="43.17233" lon="5.73162">
        <ele>106.59999847412</ele>
        <time>2017-07-15T16:34:25.000Z</time>
      </trkpt>
      <trkpt lat="43.17235" lon="5.73156">
        <ele>105.80000305176</ele>
        <time>2017-07-15T16:34:26.000Z</time>
      </trkpt>
      <trkpt lat="43.17238" lon="5.73145">
        <ele>104.59999847412</ele>
        <time>2017-07-15T16:34:28.000Z</time>
      </trkpt>
      <trkpt lat="43.17242" lon="5.73131">
        <ele>103.40000152588</ele>
        <time>2017-07-15T16:34:31.000Z</time>
      </trkpt>
      <trkpt lat="43.17245" lon="5.73123">
        <ele>103.19999694824</ele>
        <time>2017-07-15T16:34:33.000Z</time>
      </trkpt>
      <trkpt lat="43.17247" lon="5.73118">
        <ele>103</ele>
        <time>2017-07-15T16:34:34.000Z</time>
      </trkpt>
      <trkpt lat="43.17254" lon="5.73097">
        <ele>101.59999847412</ele>
        <time>2017-07-15T16:34:38.000Z</time>
      </trkpt>
      <trkpt lat="43.17255" lon="5.73092">
        <ele>101.19999694824</ele>
        <time>2017-07-15T16:34:39.000Z</time>
      </trkpt>
      <trkpt lat="43.1726" lon="5.73079">
        <ele>100.19999694824</ele>
        <time>2017-07-15T16:34:42.000Z</time>
      </trkpt>
      <trkpt lat="43.17264" lon="5.73066">
        <ele>99.599998474121</ele>
        <time>2017-07-15T16:34:45.000Z</time>
      </trkpt>
      <trkpt lat="43.17266" lon="5.73062">
        <ele>99.199996948242</ele>
        <time>2017-07-15T16:34:46.000Z</time>
      </trkpt>
      <trkpt lat="43.17271" lon="5.73046">
        <ele>97.599998474121</ele>
        <time>2017-07-15T16:34:49.000Z</time>
      </trkpt>
      <trkpt lat="43.17274" lon="5.73034">
        <ele>96.400001525879</ele>
        <time>2017-07-15T16:34:51.000Z</time>
      </trkpt>
      <trkpt lat="43.17276" lon="5.73022">
        <ele>95</ele>
        <time>2017-07-15T16:34:53.000Z</time>
      </trkpt>
      <trkpt lat="43.17281" lon="5.73011">
        <ele>93.800003051758</ele>
        <time>2017-07-15T16:34:55.000Z</time>
      </trkpt>
      <trkpt lat="43.17284" lon="5.73001">
        <ele>92.599998474121</ele>
        <time>2017-07-15T16:34:57.000Z</time>
      </trkpt>
      <trkpt lat="43.17286" lon="5.72996">
        <ele>92</ele>
        <time>2017-07-15T16:34:58.000Z</time>
      </trkpt>
      <trkpt lat="43.17288" lon="5.72973">
        <ele>89</ele>
        <time>2017-07-15T16:35:03.000Z</time>
      </trkpt>
      <trkpt lat="43.1729" lon="5.7295">
        <ele>86</ele>
        <time>2017-07-15T16:35:07.000Z</time>
      </trkpt>
      <trkpt lat="43.17293" lon="5.72933">
        <ele>83.800003051758</ele>
        <time>2017-07-15T16:35:10.000Z</time>
      </trkpt>
      <trkpt lat="43.17298" lon="5.72908">
        <ele>81</ele>
        <time>2017-07-15T16:35:14.000Z</time>
      </trkpt>
      <trkpt lat="43.17301" lon="5.7289">
        <ele>79.800003051758</ele>
        <time>2017-07-15T16:35:17.000Z</time>
      </trkpt>
      <trkpt lat="43.17306" lon="5.72866">
        <ele>78.599998474121</ele>
        <time>2017-07-15T16:35:21.000Z</time>
      </trkpt>
      <trkpt lat="43.17312" lon="5.72842">
        <ele>77.199996948242</ele>
        <time>2017-07-15T16:35:25.000Z</time>
      </trkpt>
      <trkpt lat="43.17324" lon="5.72812">
        <ele>74.800003051758</ele>
        <time>2017-07-15T16:35:30.000Z</time>
      </trkpt>
      <trkpt lat="43.17327" lon="5.72805">
        <ele>74.400001525879</ele>
        <time>2017-07-15T16:35:31.000Z</time>
      </trkpt>
      <trkpt lat="43.17346" lon="5.72771">
        <ele>71.800003051758</ele>
        <time>2017-07-15T16:35:36.000Z</time>
      </trkpt>
      <trkpt lat="43.17355" lon="5.72755">
        <ele>70.800003051758</ele>
        <time>2017-07-15T16:35:39.000Z</time>
      </trkpt>
      <trkpt lat="43.17359" lon="5.72745">
        <ele>70.400001525879</ele>
        <time>2017-07-15T16:35:41.000Z</time>
      </trkpt>
      <trkpt lat="43.17366" lon="5.72735">
        <ele>69.599998474121</ele>
        <time>2017-07-15T16:35:44.000Z</time>
      </trkpt>
      <trkpt lat="43.17372" lon="5.72725">
        <ele>69</ele>
        <time>2017-07-15T16:35:47.000Z</time>
      </trkpt>
      <trkpt lat="43.17376" lon="5.7272">
        <ele>68.599998474121</ele>
        <time>2017-07-15T16:35:50.000Z</time>
      </trkpt>
      <trkpt lat="43.17379" lon="5.72714">
        <ele>68.400001525879</ele>
        <time>2017-07-15T16:35:52.000Z</time>
      </trkpt>
      <trkpt lat="43.17382" lon="5.72696">
        <ele>68.199996948242</ele>
        <time>2017-07-15T16:35:55.000Z</time>
      </trkpt>
      <trkpt lat="43.17385" lon="5.72681">
        <ele>68</ele>
        <time>2017-07-15T16:35:57.000Z</time>
      </trkpt>
      <trkpt lat="43.17391" lon="5.72615">
        <ele>66.800003051758</ele>
        <time>2017-07-15T16:36:05.000Z</time>
      </trkpt>
      <trkpt lat="43.1739" lon="5.72563">
        <ele>64.599998474121</ele>
        <time>2017-07-15T16:36:12.000Z</time>
      </trkpt>
      <trkpt lat="43.17388" lon="5.72556">
        <ele>64.400001525879</ele>
        <time>2017-07-15T16:36:13.000Z</time>
      </trkpt>
      <trkpt lat="43.17381" lon="5.72528">
        <ele>62.400001525879</ele>
        <time>2017-07-15T16:36:18.000Z</time>
      </trkpt>
      <trkpt lat="43.17375" lon="5.7251">
        <ele>61.200000762939</ele>
        <time>2017-07-15T16:36:21.000Z</time>
      </trkpt>
      <trkpt lat="43.17366" lon="5.72493">
        <ele>60.400001525879</ele>
        <time>2017-07-15T16:36:24.000Z</time>
      </trkpt>
      <trkpt lat="43.17341" lon="5.72469">
        <ele>60.599998474121</ele>
        <time>2017-07-15T16:36:30.000Z</time>
      </trkpt>
      <trkpt lat="43.17309" lon="5.7244">
        <ele>66.199996948242</ele>
        <time>2017-07-15T16:36:36.000Z</time>
      </trkpt>
      <trkpt lat="43.17289" lon="5.72414">
        <ele>69.800003051758</ele>
        <time>2017-07-15T16:36:40.000Z</time>
      </trkpt>
      <trkpt lat="43.17286" lon="5.72408">
        <ele>70.199996948242</ele>
        <time>2017-07-15T16:36:41.000Z</time>
      </trkpt>
      <trkpt lat="43.1728" lon="5.72388">
        <ele>70.400001525879</ele>
        <time>2017-07-15T16:36:44.000Z</time>
      </trkpt>
      <trkpt lat="43.17277" lon="5.72377">
        <ele>70.599998474121</ele>
        <time>2017-07-15T16:36:46.000Z</time>
      </trkpt>
      <trkpt lat="43.17271" lon="5.72354">
        <ele>70.800003051758</ele>
        <time>2017-07-15T16:36:50.000Z</time>
      </trkpt>
      <trkpt lat="43.17263" lon="5.72333">
        <ele>71.400001525879</ele>
        <time>2017-07-15T16:36:54.000Z</time>
      </trkpt>
      <trkpt lat="43.17261" lon="5.72328">
        <ele>71.599998474121</ele>
        <time>2017-07-15T16:36:55.000Z</time>
      </trkpt>
      <trkpt lat="43.17243" lon="5.72285">
        <ele>71.199996948242</ele>
        <time>2017-07-15T16:37:03.000Z</time>
      </trkpt>
      <trkpt lat="43.1724" lon="5.7228">
        <ele>71.199996948242</ele>
        <time>2017-07-15T16:37:04.000Z</time>
      </trkpt>
      <trkpt lat="43.1722" lon="5.72247">
        <ele>71</ele>
        <time>2017-07-15T16:37:11.000Z</time>
      </trkpt>
      <trkpt lat="43.17197" lon="5.72205">
        <ele>69.400001525879</ele>
        <time>2017-07-15T16:37:19.000Z</time>
      </trkpt>
      <trkpt lat="43.17178" lon="5.72163">
        <ele>65.599998474121</ele>
        <time>2017-07-15T16:37:26.000Z</time>
      </trkpt>
      <trkpt lat="43.17155" lon="5.72111">
        <ele>62</ele>
        <time>2017-07-15T16:37:33.000Z</time>
      </trkpt>
      <trkpt lat="43.17151" lon="5.72104">
        <ele>62</ele>
        <time>2017-07-15T16:37:34.000Z</time>
      </trkpt>
      <trkpt lat="43.17132" lon="5.72076">
        <ele>62.599998474121</ele>
        <time>2017-07-15T16:37:39.000Z</time>
      </trkpt>
      <trkpt lat="43.17104" lon="5.72028">
        <ele>63</ele>
        <time>2017-07-15T16:37:48.000Z</time>
      </trkpt>
      <trkpt lat="43.17077" lon="5.71975">
        <ele>61.599998474121</ele>
        <time>2017-07-15T16:37:58.000Z</time>
      </trkpt>
      <trkpt lat="43.17074" lon="5.71971">
        <ele>61.400001525879</ele>
        <time>2017-07-15T16:37:59.000Z</time>
      </trkpt>
      <trkpt lat="43.17062" lon="5.71959">
        <ele>60.799999237061</ele>
        <time>2017-07-15T16:38:02.000Z</time>
      </trkpt>
      <trkpt lat="43.17058" lon="5.71956">
        <ele>60.599998474121</ele>
        <time>2017-07-15T16:38:03.000Z</time>
      </trkpt>
      <trkpt lat="43.17044" lon="5.71951">
        <ele>60.599998474121</ele>
        <time>2017-07-15T16:38:06.000Z</time>
      </trkpt>
      <trkpt lat="43.17035" lon="5.71949">
        <ele>60.599998474121</ele>
        <time>2017-07-15T16:38:08.000Z</time>
      </trkpt>
      <trkpt lat="43.17001" lon="5.71944">
        <ele>61</ele>
        <time>2017-07-15T16:38:16.000Z</time>
      </trkpt>
      <trkpt lat="43.16983" lon="5.71936">
        <ele>60.799999237061</ele>
        <time>2017-07-15T16:38:22.000Z</time>
      </trkpt>
      <trkpt lat="43.16981" lon="5.71934">
        <ele>60.799999237061</ele>
        <time>2017-07-15T16:38:23.000Z</time>
      </trkpt>
      <trkpt lat="43.16978" lon="5.71932">
        <ele>60.599998474121</ele>
        <time>2017-07-15T16:38:43.000Z</time>
      </trkpt>
      <trkpt lat="43.16973" lon="5.7193">
        <ele>60.400001525879</ele>
        <time>2017-07-15T16:38:45.000Z</time>
      </trkpt>
      <trkpt lat="43.16963" lon="5.71936">
        <ele>61.799999237061</ele>
        <time>2017-07-15T16:38:48.000Z</time>
      </trkpt>
      <trkpt lat="43.16958" lon="5.71939">
        <ele>62.400001525879</ele>
        <time>2017-07-15T16:38:49.000Z</time>
      </trkpt>
      <trkpt lat="43.16944" lon="5.71944">
        <ele>63.799999237061</ele>
        <time>2017-07-15T16:38:52.000Z</time>
      </trkpt>
      <trkpt lat="43.1694" lon="5.71945">
        <ele>64.199996948242</ele>
        <time>2017-07-15T16:38:53.000Z</time>
      </trkpt>
      <trkpt lat="43.16923" lon="5.71944">
        <ele>65.800003051758</ele>
        <time>2017-07-15T16:38:57.000Z</time>
      </trkpt>
      <trkpt lat="43.16919" lon="5.71943">
        <ele>66.599998474121</ele>
        <time>2017-07-15T16:38:58.000Z</time>
      </trkpt>
      <trkpt lat="43.16897" lon="5.71941">
        <ele>71</ele>
        <time>2017-07-15T16:39:04.000Z</time>
      </trkpt>
      <trkpt lat="43.16876" lon="5.71931">
        <ele>73.599998474121</ele>
        <time>2017-07-15T16:39:10.000Z</time>
      </trkpt>
      <trkpt lat="43.1687" lon="5.71925">
        <ele>74.199996948242</ele>
        <time>2017-07-15T16:39:12.000Z</time>
      </trkpt>
      <trkpt lat="43.16859" lon="5.71909">
        <ele>75</ele>
        <time>2017-07-15T16:39:16.000Z</time>
      </trkpt>
      <trkpt lat="43.16845" lon="5.71878">
        <ele>75.599998474121</ele>
        <time>2017-07-15T16:39:22.000Z</time>
      </trkpt>
      <trkpt lat="43.16837" lon="5.71839">
        <ele>76.599998474121</ele>
        <time>2017-07-15T16:39:29.000Z</time>
      </trkpt>
      <trkpt lat="43.16836" lon="5.71833">
        <ele>76.599998474121</ele>
        <time>2017-07-15T16:39:30.000Z</time>
      </trkpt>
      <trkpt lat="43.16838" lon="5.71813">
        <ele>75.400001525879</ele>
        <time>2017-07-15T16:39:34.000Z</time>
      </trkpt>
      <trkpt lat="43.1684" lon="5.71808">
        <ele>74.800003051758</ele>
        <time>2017-07-15T16:39:35.000Z</time>
      </trkpt>
      <trkpt lat="43.16851" lon="5.71781">
        <ele>71.599998474121</ele>
        <time>2017-07-15T16:39:40.000Z</time>
      </trkpt>
      <trkpt lat="43.16859" lon="5.7175">
        <ele>69.800003051758</ele>
        <time>2017-07-15T16:39:44.000Z</time>
      </trkpt>
      <trkpt lat="43.16862" lon="5.71733">
        <ele>69.199996948242</ele>
        <time>2017-07-15T16:39:46.000Z</time>
      </trkpt>
      <trkpt lat="43.16865" lon="5.71708">
        <ele>69</ele>
        <time>2017-07-15T16:39:49.000Z</time>
      </trkpt>
      <trkpt lat="43.16867" lon="5.71694">
        <ele>69.400001525879</ele>
        <time>2017-07-15T16:39:51.000Z</time>
      </trkpt>
      <trkpt lat="43.16866" lon="5.71651">
        <ele>71.400001525879</ele>
        <time>2017-07-15T16:39:58.000Z</time>
      </trkpt>
      <trkpt lat="43.16863" lon="5.7164">
        <ele>72</ele>
        <time>2017-07-15T16:40:00.000Z</time>
      </trkpt>
      <trkpt lat="43.16855" lon="5.71625">
        <ele>74</ele>
        <time>2017-07-15T16:40:03.000Z</time>
      </trkpt>
      <trkpt lat="43.16853" lon="5.71616">
        <ele>74.800003051758</ele>
        <time>2017-07-15T16:40:05.000Z</time>
      </trkpt>
      <trkpt lat="43.16852" lon="5.71606">
        <ele>74.800003051758</ele>
        <time>2017-07-15T16:40:07.000Z</time>
      </trkpt>
      <trkpt lat="43.16855" lon="5.71578">
        <ele>73</ele>
        <time>2017-07-15T16:40:12.000Z</time>
      </trkpt>
      <trkpt lat="43.16861" lon="5.71569">
        <ele>70.800003051758</ele>
        <time>2017-07-15T16:40:14.000Z</time>
      </trkpt>
      <trkpt lat="43.16866" lon="5.71566">
        <ele>69</ele>
        <time>2017-07-15T16:40:15.000Z</time>
      </trkpt>
      <trkpt lat="43.16879" lon="5.71564">
        <ele>65</ele>
        <time>2017-07-15T16:40:17.000Z</time>
      </trkpt>
      <trkpt lat="43.16886" lon="5.71565">
        <ele>62.799999237061</ele>
        <time>2017-07-15T16:40:18.000Z</time>
      </trkpt>
      <trkpt lat="43.16899" lon="5.71568">
        <ele>58.599998474121</ele>
        <time>2017-07-15T16:40:20.000Z</time>
      </trkpt>
      <trkpt lat="43.16911" lon="5.7157">
        <ele>54.599998474121</ele>
        <time>2017-07-15T16:40:22.000Z</time>
      </trkpt>
      <trkpt lat="43.16924" lon="5.71571">
        <ele>50.400001525879</ele>
        <time>2017-07-15T16:40:24.000Z</time>
      </trkpt>
      <trkpt lat="43.16936" lon="5.71573">
        <ele>48.799999237061</ele>
        <time>2017-07-15T16:40:26.000Z</time>
      </trkpt>
      <trkpt lat="43.16941" lon="5.71574">
        <ele>48.400001525879</ele>
        <time>2017-07-15T16:40:27.000Z</time>
      </trkpt>
      <trkpt lat="43.16947" lon="5.71573">
        <ele>48</ele>
        <time>2017-07-15T16:40:28.000Z</time>
      </trkpt>
      <trkpt lat="43.16959" lon="5.71569">
        <ele>47.200000762939</ele>
        <time>2017-07-15T16:40:30.000Z</time>
      </trkpt>
      <trkpt lat="43.16965" lon="5.71565">
        <ele>46.599998474121</ele>
        <time>2017-07-15T16:40:31.000Z</time>
      </trkpt>
      <trkpt lat="43.16971" lon="5.7156">
        <ele>46</ele>
        <time>2017-07-15T16:40:32.000Z</time>
      </trkpt>
      <trkpt lat="43.16977" lon="5.71556">
        <ele>45.599998474121</ele>
        <time>2017-07-15T16:40:33.000Z</time>
      </trkpt>
      <trkpt lat="43.16989" lon="5.71546">
        <ele>45</ele>
        <time>2017-07-15T16:40:35.000Z</time>
      </trkpt>
      <trkpt lat="43.17006" lon="5.71531">
        <ele>45</ele>
        <time>2017-07-15T16:40:38.000Z</time>
      </trkpt>
      <trkpt lat="43.17023" lon="5.71515">
        <ele>45.599998474121</ele>
        <time>2017-07-15T16:40:41.000Z</time>
      </trkpt>
      <trkpt lat="43.1705" lon="5.71492">
        <ele>46</ele>
        <time>2017-07-15T16:40:46.000Z</time>
      </trkpt>
      <trkpt lat="43.17055" lon="5.71488">
        <ele>45.599998474121</ele>
        <time>2017-07-15T16:40:47.000Z</time>
      </trkpt>
      <trkpt lat="43.17087" lon="5.71467">
        <ele>43.799999237061</ele>
        <time>2017-07-15T16:40:53.000Z</time>
      </trkpt>
      <trkpt lat="43.17097" lon="5.71461">
        <ele>44</ele>
        <time>2017-07-15T16:40:55.000Z</time>
      </trkpt>
      <trkpt lat="43.17115" lon="5.7145">
        <ele>44.400001525879</ele>
        <time>2017-07-15T16:40:59.000Z</time>
      </trkpt>
      <trkpt lat="43.17121" lon="5.71442">
        <ele>45.200000762939</ele>
        <time>2017-07-15T16:41:01.000Z</time>
      </trkpt>
      <trkpt lat="43.17124" lon="5.71438">
        <ele>45.400001525879</ele>
        <time>2017-07-15T16:41:02.000Z</time>
      </trkpt>
      <trkpt lat="43.17133" lon="5.71419">
        <ele>46.599998474121</ele>
        <time>2017-07-15T16:41:06.000Z</time>
      </trkpt>
      <trkpt lat="43.17133" lon="5.71412">
        <ele>46.400001525879</ele>
        <time>2017-07-15T16:41:07.000Z</time>
      </trkpt>
      <trkpt lat="43.17141" lon="5.71366">
        <ele>46.200000762939</ele>
        <time>2017-07-15T16:41:15.000Z</time>
      </trkpt>
      <trkpt lat="43.1715" lon="5.71328">
        <ele>46.200000762939</ele>
        <time>2017-07-15T16:41:22.000Z</time>
      </trkpt>
      <trkpt lat="43.17157" lon="5.71298">
        <ele>45.599998474121</ele>
        <time>2017-07-15T16:41:27.000Z</time>
      </trkpt>
      <trkpt lat="43.17164" lon="5.71271">
        <ele>44</ele>
        <time>2017-07-15T16:41:31.000Z</time>
      </trkpt>
      <trkpt lat="43.17166" lon="5.71256">
        <ele>43</ele>
        <time>2017-07-15T16:41:33.000Z</time>
      </trkpt>
      <trkpt lat="43.17167" lon="5.71247">
        <ele>42.599998474121</ele>
        <time>2017-07-15T16:41:34.000Z</time>
      </trkpt>
      <trkpt lat="43.17168" lon="5.7123">
        <ele>41.799999237061</ele>
        <time>2017-07-15T16:41:36.000Z</time>
      </trkpt>
      <trkpt lat="43.1717" lon="5.71212">
        <ele>41.400001525879</ele>
        <time>2017-07-15T16:41:38.000Z</time>
      </trkpt>
      <trkpt lat="43.17172" lon="5.71194">
        <ele>40.400001525879</ele>
        <time>2017-07-15T16:41:40.000Z</time>
      </trkpt>
      <trkpt lat="43.17172" lon="5.71186">
        <ele>39.799999237061</ele>
        <time>2017-07-15T16:41:41.000Z</time>
      </trkpt>
      <trkpt lat="43.17176" lon="5.71152">
        <ele>38</ele>
        <time>2017-07-15T16:41:45.000Z</time>
      </trkpt>
      <trkpt lat="43.17177" lon="5.71128">
        <ele>37.400001525879</ele>
        <time>2017-07-15T16:41:48.000Z</time>
      </trkpt>
      <trkpt lat="43.17177" lon="5.7112">
        <ele>37.400001525879</ele>
        <time>2017-07-15T16:41:49.000Z</time>
      </trkpt>
      <trkpt lat="43.17179" lon="5.71106">
        <ele>37.200000762939</ele>
        <time>2017-07-15T16:41:51.000Z</time>
      </trkpt>
      <trkpt lat="43.17183" lon="5.71092">
        <ele>36.799999237061</ele>
        <time>2017-07-15T16:41:53.000Z</time>
      </trkpt>
      <trkpt lat="43.17193" lon="5.71062">
        <ele>35.799999237061</ele>
        <time>2017-07-15T16:41:57.000Z</time>
      </trkpt>
      <trkpt lat="43.17196" lon="5.71053">
        <ele>35.599998474121</ele>
        <time>2017-07-15T16:41:58.000Z</time>
      </trkpt>
      <trkpt lat="43.17203" lon="5.71028">
        <ele>35</ele>
        <time>2017-07-15T16:42:01.000Z</time>
      </trkpt>
      <trkpt lat="43.17208" lon="5.71005">
        <ele>34.599998474121</ele>
        <time>2017-07-15T16:42:04.000Z</time>
      </trkpt>
      <trkpt lat="43.1721" lon="5.70997">
        <ele>34.400001525879</ele>
        <time>2017-07-15T16:42:05.000Z</time>
      </trkpt>
      <trkpt lat="43.17212" lon="5.70991">
        <ele>34.200000762939</ele>
        <time>2017-07-15T16:42:06.000Z</time>
      </trkpt>
      <trkpt lat="43.17217" lon="5.70972">
        <ele>33.799999237061</ele>
        <time>2017-07-15T16:42:09.000Z</time>
      </trkpt>
      <trkpt lat="43.17219" lon="5.70957">
        <ele>34</ele>
        <time>2017-07-15T16:42:12.000Z</time>
      </trkpt>
      <trkpt lat="43.1722" lon="5.70953">
        <ele>34</ele>
        <time>2017-07-15T16:42:13.000Z</time>
      </trkpt>
      <trkpt lat="43.17219" lon="5.70937">
        <ele>34.799999237061</ele>
        <time>2017-07-15T16:42:17.000Z</time>
      </trkpt>
      <trkpt lat="43.17219" lon="5.70929">
        <ele>35</ele>
        <time>2017-07-15T16:42:19.000Z</time>
      </trkpt>
      <trkpt lat="43.1722" lon="5.70897">
        <ele>34.599998474121</ele>
        <time>2017-07-15T16:42:27.000Z</time>
      </trkpt>
      <trkpt lat="43.17221" lon="5.70884">
        <ele>34.200000762939</ele>
        <time>2017-07-15T16:42:30.000Z</time>
      </trkpt>
      <trkpt lat="43.17221" lon="5.70864">
        <ele>34.799999237061</ele>
        <time>2017-07-15T16:42:34.000Z</time>
      </trkpt>
      <trkpt lat="43.17225" lon="5.70827">
        <ele>33.599998474121</ele>
        <time>2017-07-15T16:42:41.000Z</time>
      </trkpt>
      <trkpt lat="43.17226" lon="5.70785">
        <ele>31.799999237061</ele>
        <time>2017-07-15T16:42:48.000Z</time>
      </trkpt>
      <trkpt lat="43.17226" lon="5.70773">
        <ele>31.39999961853</ele>
        <time>2017-07-15T16:42:50.000Z</time>
      </trkpt>
      <trkpt lat="43.17227" lon="5.70742">
        <ele>30.60000038147</ele>
        <time>2017-07-15T16:42:55.000Z</time>
      </trkpt>
      <trkpt lat="43.1723" lon="5.70689">
        <ele>28.60000038147</ele>
        <time>2017-07-15T16:43:02.000Z</time>
      </trkpt>
      <trkpt lat="43.17233" lon="5.70618">
        <ele>28</ele>
        <time>2017-07-15T16:43:11.000Z</time>
      </trkpt>
      <trkpt lat="43.17233" lon="5.70611">
        <ele>27.799999237061</ele>
        <time>2017-07-15T16:43:12.000Z</time>
      </trkpt>
      <trkpt lat="43.17235" lon="5.70551">
        <ele>26</ele>
        <time>2017-07-15T16:43:20.000Z</time>
      </trkpt>
      <trkpt lat="43.17236" lon="5.70536">
        <ele>25.39999961853</ele>
        <time>2017-07-15T16:43:22.000Z</time>
      </trkpt>
      <trkpt lat="43.17237" lon="5.70522">
        <ele>25.200000762939</ele>
        <time>2017-07-15T16:43:24.000Z</time>
      </trkpt>
      <trkpt lat="43.17237" lon="5.7051">
        <ele>25.200000762939</ele>
        <time>2017-07-15T16:43:26.000Z</time>
      </trkpt>
      <trkpt lat="43.17237" lon="5.70504">
        <ele>25</ele>
        <time>2017-07-15T16:43:27.000Z</time>
      </trkpt>
      <trkpt lat="43.1724" lon="5.70468">
        <ele>24.60000038147</ele>
        <time>2017-07-15T16:43:33.000Z</time>
      </trkpt>
      <trkpt lat="43.17244" lon="5.70456">
        <ele>23.799999237061</ele>
        <time>2017-07-15T16:43:35.000Z</time>
      </trkpt>
      <trkpt lat="43.17252" lon="5.70438">
        <ele>23</ele>
        <time>2017-07-15T16:43:38.000Z</time>
      </trkpt>
      <trkpt lat="43.17265" lon="5.70393">
        <ele>22.799999237061</ele>
        <time>2017-07-15T16:43:45.000Z</time>
      </trkpt>
      <trkpt lat="43.17266" lon="5.70387">
        <ele>22.799999237061</ele>
        <time>2017-07-15T16:43:46.000Z</time>
      </trkpt>
      <trkpt lat="43.17264" lon="5.70364">
        <ele>23.39999961853</ele>
        <time>2017-07-15T16:43:50.000Z</time>
      </trkpt>
      <trkpt lat="43.17262" lon="5.70358">
        <ele>23.60000038147</ele>
        <time>2017-07-15T16:43:51.000Z</time>
      </trkpt>
      <trkpt lat="43.17254" lon="5.7034">
        <ele>24.799999237061</ele>
        <time>2017-07-15T16:43:54.000Z</time>
      </trkpt>
      <trkpt lat="43.17252" lon="5.70334">
        <ele>25</ele>
        <time>2017-07-15T16:43:55.000Z</time>
      </trkpt>
      <trkpt lat="43.17252" lon="5.7031">
        <ele>25.60000038147</ele>
        <time>2017-07-15T16:43:59.000Z</time>
      </trkpt>
      <trkpt lat="43.17256" lon="5.703">
        <ele>25.39999961853</ele>
        <time>2017-07-15T16:44:01.000Z</time>
      </trkpt>
      <trkpt lat="43.17267" lon="5.7028">
        <ele>25.39999961853</ele>
        <time>2017-07-15T16:44:05.000Z</time>
      </trkpt>
      <trkpt lat="43.1727" lon="5.70275">
        <ele>25.39999961853</ele>
        <time>2017-07-15T16:44:06.000Z</time>
      </trkpt>
      <trkpt lat="43.17277" lon="5.7025">
        <ele>25.60000038147</ele>
        <time>2017-07-15T16:44:10.000Z</time>
      </trkpt>
      <trkpt lat="43.17278" lon="5.70236">
        <ele>26.200000762939</ele>
        <time>2017-07-15T16:44:12.000Z</time>
      </trkpt>
      <trkpt lat="43.17282" lon="5.70204">
        <ele>25</ele>
        <time>2017-07-15T16:44:17.000Z</time>
      </trkpt>
      <trkpt lat="43.17282" lon="5.70198">
        <ele>24.60000038147</ele>
        <time>2017-07-15T16:44:18.000Z</time>
      </trkpt>
      <trkpt lat="43.17287" lon="5.70156">
        <ele>22.799999237061</ele>
        <time>2017-07-15T16:44:25.000Z</time>
      </trkpt>
      <trkpt lat="43.1729" lon="5.70132">
        <ele>22.799999237061</ele>
        <time>2017-07-15T16:44:29.000Z</time>
      </trkpt>
      <trkpt lat="43.17292" lon="5.70121">
        <ele>22.60000038147</ele>
        <time>2017-07-15T16:44:31.000Z</time>
      </trkpt>
      <trkpt lat="43.17293" lon="5.70099">
        <ele>22</ele>
        <time>2017-07-15T16:44:35.000Z</time>
      </trkpt>
      <trkpt lat="43.17292" lon="5.70087">
        <ele>22.200000762939</ele>
        <time>2017-07-15T16:44:38.000Z</time>
      </trkpt>
      <trkpt lat="43.17292" lon="5.70083">
        <ele>22</ele>
        <time>2017-07-15T16:44:39.000Z</time>
      </trkpt>
      <trkpt lat="43.17296" lon="5.70076">
        <ele>21.60000038147</ele>
        <time>2017-07-15T16:44:41.000Z</time>
      </trkpt>
      <trkpt lat="43.17299" lon="5.70072">
        <ele>21.39999961853</ele>
        <time>2017-07-15T16:44:42.000Z</time>
      </trkpt>
      <trkpt lat="43.17305" lon="5.70063">
        <ele>20.799999237061</ele>
        <time>2017-07-15T16:44:44.000Z</time>
      </trkpt>
      <trkpt lat="43.1731" lon="5.70053">
        <ele>20.200000762939</ele>
        <time>2017-07-15T16:44:46.000Z</time>
      </trkpt>
      <trkpt lat="43.17314" lon="5.70043">
        <ele>19.200000762939</ele>
        <time>2017-07-15T16:44:48.000Z</time>
      </trkpt>
      <trkpt lat="43.17319" lon="5.70034">
        <ele>18</ele>
        <time>2017-07-15T16:44:51.000Z</time>
      </trkpt>
      <trkpt lat="43.17322" lon="5.70025">
        <ele>17.39999961853</ele>
        <time>2017-07-15T16:44:57.000Z</time>
      </trkpt>
      <trkpt lat="43.17321" lon="5.70022">
        <ele>17.39999961853</ele>
        <time>2017-07-15T16:44:58.000Z</time>
      </trkpt>
      <trkpt lat="43.17313" lon="5.70012">
        <ele>17.60000038147</ele>
        <time>2017-07-15T16:45:01.000Z</time>
      </trkpt>
      <trkpt lat="43.17309" lon="5.70009">
        <ele>17.799999237061</ele>
        <time>2017-07-15T16:45:02.000Z</time>
      </trkpt>
      <trkpt lat="43.173" lon="5.69996">
        <ele>18</ele>
        <time>2017-07-15T16:45:05.000Z</time>
      </trkpt>
      <trkpt lat="43.17295" lon="5.69983">
        <ele>18</ele>
        <time>2017-07-15T16:45:07.000Z</time>
      </trkpt>
      <trkpt lat="43.17292" lon="5.69975">
        <ele>18</ele>
        <time>2017-07-15T16:45:08.000Z</time>
      </trkpt>
      <trkpt lat="43.17289" lon="5.69946">
        <ele>16.799999237061</ele>
        <time>2017-07-15T16:45:11.000Z</time>
      </trkpt>
      <trkpt lat="43.17289" lon="5.69896">
        <ele>14</ele>
        <time>2017-07-15T16:45:16.000Z</time>
      </trkpt>
      <trkpt lat="43.17287" lon="5.69866">
        <ele>13.60000038147</ele>
        <time>2017-07-15T16:45:19.000Z</time>
      </trkpt>
      <trkpt lat="43.17286" lon="5.69838">
        <ele>14.199999809265</ele>
        <time>2017-07-15T16:45:22.000Z</time>
      </trkpt>
      <trkpt lat="43.17285" lon="5.69829">
        <ele>14.199999809265</ele>
        <time>2017-07-15T16:45:23.000Z</time>
      </trkpt>
      <trkpt lat="43.17281" lon="5.69792">
        <ele>14.39999961853</ele>
        <time>2017-07-15T16:45:27.000Z</time>
      </trkpt>
      <trkpt lat="43.17278" lon="5.69756">
        <ele>15.199999809265</ele>
        <time>2017-07-15T16:45:31.000Z</time>
      </trkpt>
      <trkpt lat="43.17276" lon="5.69739">
        <ele>15.60000038147</ele>
        <time>2017-07-15T16:45:33.000Z</time>
      </trkpt>
      <trkpt lat="43.17271" lon="5.69691">
        <ele>15.199999809265</ele>
        <time>2017-07-15T16:45:39.000Z</time>
      </trkpt>
      <trkpt lat="43.17266" lon="5.69641">
        <ele>14.60000038147</ele>
        <time>2017-07-15T16:45:46.000Z</time>
      </trkpt>
      <trkpt lat="43.17265" lon="5.69634">
        <ele>14.39999961853</ele>
        <time>2017-07-15T16:45:47.000Z</time>
      </trkpt>
      <trkpt lat="43.17259" lon="5.69592">
        <ele>11.39999961853</ele>
        <time>2017-07-15T16:45:53.000Z</time>
      </trkpt>
      <trkpt lat="43.17258" lon="5.69586">
        <ele>10.800000190735</ele>
        <time>2017-07-15T16:45:54.000Z</time>
      </trkpt>
      <trkpt lat="43.17258" lon="5.69562">
        <ele>8.8000001907349</ele>
        <time>2017-07-15T16:45:58.000Z</time>
      </trkpt>
      <trkpt lat="43.17255" lon="5.69554">
        <ele>8.1999998092651</ele>
        <time>2017-07-15T16:46:00.000Z</time>
      </trkpt>
      <trkpt lat="43.17251" lon="5.69553">
        <ele>8.1999998092651</ele>
        <time>2017-07-15T16:46:01.000Z</time>
      </trkpt>
      <trkpt lat="43.17238" lon="5.69555">
        <ele>8.8000001907349</ele>
        <time>2017-07-15T16:46:05.000Z</time>
      </trkpt>
      <trkpt lat="43.17234" lon="5.69555">
        <ele>8.8000001907349</ele>
        <time>2017-07-15T16:46:06.000Z</time>
      </trkpt>
      <trkpt lat="43.17213" lon="5.69548">
        <ele>8.8000001907349</ele>
        <time>2017-07-15T16:46:13.000Z</time>
      </trkpt>
      <trkpt lat="43.17197" lon="5.69543">
        <ele>8.8000001907349</ele>
        <time>2017-07-15T16:46:19.000Z</time>
      </trkpt>
      <trkpt lat="43.17178" lon="5.69535">
        <ele>8.6000003814697</ele>
        <time>2017-07-15T16:46:26.000Z</time>
      </trkpt>
      <trkpt lat="43.1716" lon="5.69532">
        <ele>9.1999998092651</ele>
        <time>2017-07-15T16:46:32.000Z</time>
      </trkpt>
      <trkpt lat="43.17152" lon="5.69531">
        <ele>9.6000003814697</ele>
        <time>2017-07-15T16:46:35.000Z</time>
      </trkpt>
      <trkpt lat="43.17132" lon="5.69529">
        <ele>11</ele>
        <time>2017-07-15T16:46:41.000Z</time>
      </trkpt>
      <trkpt lat="43.17122" lon="5.69529">
        <ele>11.800000190735</ele>
        <time>2017-07-15T16:46:44.000Z</time>
      </trkpt>
      <trkpt lat="43.171" lon="5.69532">
        <ele>13.60000038147</ele>
        <time>2017-07-15T16:46:50.000Z</time>
      </trkpt>
      <trkpt lat="43.17067" lon="5.69533">
        <ele>12.60000038147</ele>
        <time>2017-07-15T16:46:59.000Z</time>
      </trkpt>
      <trkpt lat="43.17063" lon="5.69533">
        <ele>12.60000038147</ele>
        <time>2017-07-15T16:47:00.000Z</time>
      </trkpt>
      <trkpt lat="43.17041" lon="5.69539">
        <ele>13.199999809265</ele>
        <time>2017-07-15T16:47:06.000Z</time>
      </trkpt>
      <trkpt lat="43.17031" lon="5.69548">
        <ele>14.39999961853</ele>
        <time>2017-07-15T16:47:09.000Z</time>
      </trkpt>
      <trkpt lat="43.17018" lon="5.6956">
        <ele>15.800000190735</ele>
        <time>2017-07-15T16:47:13.000Z</time>
      </trkpt>
      <trkpt lat="43.17011" lon="5.69566">
        <ele>18.200000762939</ele>
        <time>2017-07-15T16:47:15.000Z</time>
      </trkpt>
      <trkpt lat="43.16991" lon="5.69583">
        <ele>22.39999961853</ele>
        <time>2017-07-15T16:47:21.000Z</time>
      </trkpt>
      <trkpt lat="43.16985" lon="5.69587">
        <ele>23.39999961853</ele>
        <time>2017-07-15T16:47:23.000Z</time>
      </trkpt>
      <trkpt lat="43.16979" lon="5.6959">
        <ele>24.200000762939</ele>
        <time>2017-07-15T16:47:25.000Z</time>
      </trkpt>
      <trkpt lat="43.16973" lon="5.69589">
        <ele>24</ele>
        <time>2017-07-15T16:47:27.000Z</time>
      </trkpt>
      <trkpt lat="43.1697" lon="5.69588">
        <ele>24</ele>
        <time>2017-07-15T16:47:28.000Z</time>
      </trkpt>
      <trkpt lat="43.16955" lon="5.69579">
        <ele>21.799999237061</ele>
        <time>2017-07-15T16:47:32.000Z</time>
      </trkpt>
      <trkpt lat="43.16951" lon="5.69576">
        <ele>21.200000762939</ele>
        <time>2017-07-15T16:47:33.000Z</time>
      </trkpt>
      <trkpt lat="43.1693" lon="5.69566">
        <ele>19.39999961853</ele>
        <time>2017-07-15T16:47:39.000Z</time>
      </trkpt>
      <trkpt lat="43.16919" lon="5.69567">
        <ele>19.39999961853</ele>
        <time>2017-07-15T16:47:42.000Z</time>
      </trkpt>
      <trkpt lat="43.16912" lon="5.6957">
        <ele>19.799999237061</ele>
        <time>2017-07-15T16:47:44.000Z</time>
      </trkpt>
      <trkpt lat="43.169" lon="5.69576">
        <ele>21</ele>
        <time>2017-07-15T16:47:48.000Z</time>
      </trkpt>
      <trkpt lat="43.1689" lon="5.69584">
        <ele>22.60000038147</ele>
        <time>2017-07-15T16:47:52.000Z</time>
      </trkpt>
      <trkpt lat="43.16879" lon="5.69595">
        <ele>25</ele>
        <time>2017-07-15T16:49:43.000Z</time>
      </trkpt>
      <trkpt lat="43.16876" lon="5.69601">
        <ele>25.799999237061</ele>
        <time>2017-07-15T16:49:45.000Z</time>
      </trkpt>
      <trkpt lat="43.16865" lon="5.69616">
        <ele>28.200000762939</ele>
        <time>2017-07-15T16:49:52.000Z</time>
      </trkpt>
      <trkpt lat="43.16846" lon="5.69621">
        <ele>27.39999961853</ele>
        <time>2017-07-15T16:49:58.000Z</time>
      </trkpt>
      <trkpt lat="43.16827" lon="5.6962">
        <ele>28.60000038147</ele>
        <time>2017-07-15T16:50:03.000Z</time>
      </trkpt>
      <trkpt lat="43.16821" lon="5.69618">
        <ele>28</ele>
        <time>2017-07-15T16:50:04.000Z</time>
      </trkpt>
      <trkpt lat="43.1679" lon="5.69611">
        <ele>25.200000762939</ele>
        <time>2017-07-15T16:50:09.000Z</time>
      </trkpt>
      <trkpt lat="43.16784" lon="5.6961">
        <ele>24.60000038147</ele>
        <time>2017-07-15T16:50:10.000Z</time>
      </trkpt>
      <trkpt lat="43.16771" lon="5.69604">
        <ele>23.39999961853</ele>
        <time>2017-07-15T16:50:12.000Z</time>
      </trkpt>
      <trkpt lat="43.16765" lon="5.69599">
        <ele>22.60000038147</ele>
        <time>2017-07-15T16:50:13.000Z</time>
      </trkpt>
      <trkpt lat="43.16752" lon="5.69581">
        <ele>20.799999237061</ele>
        <time>2017-07-15T16:50:16.000Z</time>
      </trkpt>
      <trkpt lat="43.16748" lon="5.69574">
        <ele>20.39999961853</ele>
        <time>2017-07-15T16:50:17.000Z</time>
      </trkpt>
      <trkpt lat="43.16744" lon="5.69566">
        <ele>19.60000038147</ele>
        <time>2017-07-15T16:50:18.000Z</time>
      </trkpt>
      <trkpt lat="43.16737" lon="5.69551">
        <ele>18.60000038147</ele>
        <time>2017-07-15T16:50:20.000Z</time>
      </trkpt>
      <trkpt lat="43.1673" lon="5.6954">
        <ele>17.39999961853</ele>
        <time>2017-07-15T16:50:22.000Z</time>
      </trkpt>
      <trkpt lat="43.16717" lon="5.6953">
        <ele>16.60000038147</ele>
        <time>2017-07-15T16:50:25.000Z</time>
      </trkpt>
      <trkpt lat="43.16712" lon="5.69529">
        <ele>16.39999961853</ele>
        <time>2017-07-15T16:50:26.000Z</time>
      </trkpt>
      <trkpt lat="43.16703" lon="5.69529">
        <ele>16.200000762939</ele>
        <time>2017-07-15T16:50:28.000Z</time>
      </trkpt>
      <trkpt lat="43.1669" lon="5.69529">
        <ele>16.200000762939</ele>
        <time>2017-07-15T16:50:31.000Z</time>
      </trkpt>
      <trkpt lat="43.16686" lon="5.69528">
        <ele>16</ele>
        <time>2017-07-15T16:50:32.000Z</time>
      </trkpt>
      <trkpt lat="43.16674" lon="5.69519">
        <ele>15</ele>
        <time>2017-07-15T16:50:35.000Z</time>
      </trkpt>
      <trkpt lat="43.1667" lon="5.69514">
        <ele>14.60000038147</ele>
        <time>2017-07-15T16:50:36.000Z</time>
      </trkpt>
      <trkpt lat="43.1666" lon="5.69501">
        <ele>13.39999961853</ele>
        <time>2017-07-15T16:50:39.000Z</time>
      </trkpt>
      <trkpt lat="43.16658" lon="5.69496">
        <ele>13</ele>
        <time>2017-07-15T16:50:40.000Z</time>
      </trkpt>
      <trkpt lat="43.16656" lon="5.69491">
        <ele>12.39999961853</ele>
        <time>2017-07-15T16:50:41.000Z</time>
      </trkpt>
      <trkpt lat="43.16654" lon="5.69486">
        <ele>12</ele>
        <time>2017-07-15T16:50:42.000Z</time>
      </trkpt>
      <trkpt lat="43.16649" lon="5.6947">
        <ele>10.60000038147</ele>
        <time>2017-07-15T16:50:45.000Z</time>
      </trkpt>
      <trkpt lat="43.1665" lon="5.69466">
        <ele>10.199999809265</ele>
        <time>2017-07-15T16:50:46.000Z</time>
      </trkpt>
      <trkpt lat="43.16652" lon="5.69461">
        <ele>9.8000001907349</ele>
        <time>2017-07-15T16:50:47.000Z</time>
      </trkpt>
      <trkpt lat="43.16662" lon="5.69449">
        <ele>8.8000001907349</ele>
        <time>2017-07-15T16:50:51.000Z</time>
      </trkpt>
      <trkpt lat="43.16665" lon="5.69448">
        <ele>8.6000003814697</ele>
        <time>2017-07-15T16:50:52.000Z</time>
      </trkpt>
      <trkpt lat="43.16669" lon="5.69447">
        <ele>8.3999996185303</ele>
        <time>2017-07-15T16:50:53.000Z</time>
      </trkpt>
      <trkpt lat="43.1668" lon="5.69438">
        <ele>7.5999999046326</ele>
        <time>2017-07-15T16:50:57.000Z</time>
      </trkpt>
      <trkpt lat="43.16683" lon="5.69428">
        <ele>6.4000000953674</ele>
        <time>2017-07-15T16:51:01.000Z</time>
      </trkpt>
      <trkpt lat="43.16681" lon="5.69426">
        <ele>6.1999998092651</ele>
        <time>2017-07-15T16:51:03.000Z</time>
      </trkpt>
      <trkpt lat="43.16676" lon="5.69429">
        <ele>6.5999999046326</ele>
        <time>2017-07-15T16:51:30.000Z</time>
      </trkpt>
      <trkpt lat="43.16667" lon="5.69435">
        <ele>7.1999998092651</ele>
        <time>2017-07-15T16:51:37.000Z</time>
      </trkpt>
      <trkpt lat="43.16654" lon="5.69435">
        <ele>7.1999998092651</ele>
        <time>2017-07-15T16:51:42.000Z</time>
      </trkpt>
      <trkpt lat="43.16634" lon="5.69431">
        <ele>6.8000001907349</ele>
        <time>2017-07-15T16:51:49.000Z</time>
      </trkpt>
      <trkpt lat="43.16619" lon="5.69427">
        <ele>6.1999998092651</ele>
        <time>2017-07-15T16:51:55.000Z</time>
      </trkpt>
      <trkpt lat="43.16605" lon="5.69425">
        <ele>5.8000001907349</ele>
        <time>2017-07-15T16:52:03.000Z</time>
      </trkpt>
      <trkpt lat="43.16604" lon="5.69425">
        <ele>5.8000001907349</ele>
        <time>2017-07-15T16:52:04.000Z</time>
      </trkpt>
      <trkpt lat="43.16597" lon="5.69421">
        <ele>5.4000000953674</ele>
        <time>2017-07-15T16:52:18.000Z</time>
      </trkpt>
      <trkpt lat="43.16595" lon="5.69422">
        <ele>5.4000000953674</ele>
        <time>2017-07-15T16:52:19.000Z</time>
      </trkpt>
      <trkpt lat="43.16597" lon="5.6943">
        <ele>6.1999998092651</ele>
        <time>2017-07-15T16:52:23.000Z</time>
      </trkpt>
      <trkpt lat="43.16603" lon="5.69432">
        <ele>6.5999999046326</ele>
        <time>2017-07-15T16:52:26.000Z</time>
      </trkpt>
      <trkpt lat="43.16608" lon="5.69434">
        <ele>6.5999999046326</ele>
        <time>2017-07-15T16:52:28.000Z</time>
      </trkpt>
      <trkpt lat="43.1662" lon="5.69443">
        <ele>7.5999999046326</ele>
        <time>2017-07-15T16:52:34.000Z</time>
      </trkpt>
      <trkpt lat="43.16621" lon="5.69448">
        <ele>8.1999998092651</ele>
        <time>2017-07-15T16:52:43.000Z</time>
      </trkpt>
      <trkpt lat="43.1663" lon="5.69453">
        <ele>8.8000001907349</ele>
        <time>2017-07-15T16:52:47.000Z</time>
      </trkpt>
      <trkpt lat="43.16649" lon="5.69464">
        <ele>10</ele>
        <time>2017-07-15T16:52:54.000Z</time>
      </trkpt>
      <trkpt lat="43.16657" lon="5.69481">
        <ele>11.800000190735</ele>
        <time>2017-07-15T16:52:58.000Z</time>
      </trkpt>
      <trkpt lat="43.16662" lon="5.69492">
        <ele>12.60000038147</ele>
        <time>2017-07-15T16:53:00.000Z</time>
      </trkpt>
      <trkpt lat="43.1667" lon="5.69506">
        <ele>14</ele>
        <time>2017-07-15T16:53:03.000Z</time>
      </trkpt>
      <trkpt lat="43.16673" lon="5.69511">
        <ele>14.39999961853</ele>
        <time>2017-07-15T16:53:04.000Z</time>
      </trkpt>
      <trkpt lat="43.16681" lon="5.69523">
        <ele>15.60000038147</ele>
        <time>2017-07-15T16:53:07.000Z</time>
      </trkpt>
      <trkpt lat="43.16691" lon="5.69532">
        <ele>16.39999961853</ele>
        <time>2017-07-15T16:53:10.000Z</time>
      </trkpt>
      <trkpt lat="43.16696" lon="5.69533">
        <ele>16.60000038147</ele>
        <time>2017-07-15T16:53:11.000Z</time>
      </trkpt>
      <trkpt lat="43.167" lon="5.69533">
        <ele>16.60000038147</ele>
        <time>2017-07-15T16:53:12.000Z</time>
      </trkpt>
      <trkpt lat="43.16712" lon="5.69533">
        <ele>16.799999237061</ele>
        <time>2017-07-15T16:53:15.000Z</time>
      </trkpt>
      <trkpt lat="43.1672" lon="5.69535">
        <ele>17</ele>
        <time>2017-07-15T16:53:17.000Z</time>
      </trkpt>
      <trkpt lat="43.16727" lon="5.69539">
        <ele>17.39999961853</ele>
        <time>2017-07-15T16:53:19.000Z</time>
      </trkpt>
      <trkpt lat="43.16733" lon="5.69547">
        <ele>18.200000762939</ele>
        <time>2017-07-15T16:53:21.000Z</time>
      </trkpt>
      <trkpt lat="43.16739" lon="5.69556">
        <ele>19</ele>
        <time>2017-07-15T16:53:23.000Z</time>
      </trkpt>
      <trkpt lat="43.16741" lon="5.69561">
        <ele>19.39999961853</ele>
        <time>2017-07-15T16:53:24.000Z</time>
      </trkpt>
      <trkpt lat="43.16747" lon="5.69575">
        <ele>20.39999961853</ele>
        <time>2017-07-15T16:53:27.000Z</time>
      </trkpt>
      <trkpt lat="43.16749" lon="5.6958">
        <ele>20.799999237061</ele>
        <time>2017-07-15T16:53:28.000Z</time>
      </trkpt>
      <trkpt lat="43.16759" lon="5.69596">
        <ele>22</ele>
        <time>2017-07-15T16:53:32.000Z</time>
      </trkpt>
      <trkpt lat="43.16767" lon="5.69601">
        <ele>22.799999237061</ele>
        <time>2017-07-15T16:53:34.000Z</time>
      </trkpt>
      <trkpt lat="43.16776" lon="5.69605">
        <ele>23.799999237061</ele>
        <time>2017-07-15T16:53:36.000Z</time>
      </trkpt>
      <trkpt lat="43.16784" lon="5.69607">
        <ele>24.60000038147</ele>
        <time>2017-07-15T16:53:38.000Z</time>
      </trkpt>
      <trkpt lat="43.16793" lon="5.69609">
        <ele>25.200000762939</ele>
        <time>2017-07-15T16:53:40.000Z</time>
      </trkpt>
      <trkpt lat="43.16823" lon="5.69616">
        <ele>28</ele>
        <time>2017-07-15T16:53:47.000Z</time>
      </trkpt>
      <trkpt lat="43.16827" lon="5.69617">
        <ele>28</ele>
        <time>2017-07-15T16:53:48.000Z</time>
      </trkpt>
      <trkpt lat="43.16839" lon="5.69618">
        <ele>27.200000762939</ele>
        <time>2017-07-15T16:53:51.000Z</time>
      </trkpt>
      <trkpt lat="43.16843" lon="5.69617">
        <ele>26.799999237061</ele>
        <time>2017-07-15T16:53:52.000Z</time>
      </trkpt>
      <trkpt lat="43.16847" lon="5.69617">
        <ele>26.799999237061</ele>
        <time>2017-07-15T16:53:53.000Z</time>
      </trkpt>
      <trkpt lat="43.16868" lon="5.69614">
        <ele>28.200000762939</ele>
        <time>2017-07-15T16:53:58.000Z</time>
      </trkpt>
      <trkpt lat="43.16872" lon="5.69613">
        <ele>28.200000762939</ele>
        <time>2017-07-15T16:53:59.000Z</time>
      </trkpt>
      <trkpt lat="43.16876" lon="5.6961">
        <ele>28</ele>
        <time>2017-07-15T16:54:00.000Z</time>
      </trkpt>
      <trkpt lat="43.16894" lon="5.69589">
        <ele>24.200000762939</ele>
        <time>2017-07-15T16:54:06.000Z</time>
      </trkpt>
      <trkpt lat="43.16913" lon="5.69574">
        <ele>21</ele>
        <time>2017-07-15T16:54:12.000Z</time>
      </trkpt>
      <trkpt lat="43.16924" lon="5.69568">
        <ele>20</ele>
        <time>2017-07-15T16:54:15.000Z</time>
      </trkpt>
      <trkpt lat="43.16933" lon="5.69569">
        <ele>20</ele>
        <time>2017-07-15T16:54:17.000Z</time>
      </trkpt>
      <trkpt lat="43.16948" lon="5.69576">
        <ele>21.200000762939</ele>
        <time>2017-07-15T16:54:20.000Z</time>
      </trkpt>
      <trkpt lat="43.16958" lon="5.69582">
        <ele>22.39999961853</ele>
        <time>2017-07-15T16:54:22.000Z</time>
      </trkpt>
      <trkpt lat="43.16964" lon="5.69584">
        <ele>23</ele>
        <time>2017-07-15T16:54:23.000Z</time>
      </trkpt>
      <trkpt lat="43.16976" lon="5.69588">
        <ele>23.799999237061</ele>
        <time>2017-07-15T16:54:25.000Z</time>
      </trkpt>
      <trkpt lat="43.16988" lon="5.69587">
        <ele>23.200000762939</ele>
        <time>2017-07-15T16:54:27.000Z</time>
      </trkpt>
      <trkpt lat="43.17" lon="5.69579">
        <ele>21.39999961853</ele>
        <time>2017-07-15T16:54:29.000Z</time>
      </trkpt>
      <trkpt lat="43.17006" lon="5.69575">
        <ele>20.200000762939</ele>
        <time>2017-07-15T16:54:30.000Z</time>
      </trkpt>
      <trkpt lat="43.17011" lon="5.6957">
        <ele>18.799999237061</ele>
        <time>2017-07-15T16:54:31.000Z</time>
      </trkpt>
      <trkpt lat="43.17024" lon="5.69559">
        <ele>15.60000038147</ele>
        <time>2017-07-15T16:54:33.000Z</time>
      </trkpt>
      <trkpt lat="43.17048" lon="5.69538">
        <ele>13</ele>
        <time>2017-07-15T16:54:37.000Z</time>
      </trkpt>
      <trkpt lat="43.17055" lon="5.69534">
        <ele>12.60000038147</ele>
        <time>2017-07-15T16:54:38.000Z</time>
      </trkpt>
      <trkpt lat="43.17061" lon="5.69532">
        <ele>12.39999961853</ele>
        <time>2017-07-15T16:54:39.000Z</time>
      </trkpt>
      <trkpt lat="43.17073" lon="5.69531">
        <ele>12.39999961853</ele>
        <time>2017-07-15T16:54:41.000Z</time>
      </trkpt>
      <trkpt lat="43.17092" lon="5.6953">
        <ele>13.60000038147</ele>
        <time>2017-07-15T16:54:44.000Z</time>
      </trkpt>
      <trkpt lat="43.1711" lon="5.6953">
        <ele>12.60000038147</ele>
        <time>2017-07-15T16:54:47.000Z</time>
      </trkpt>
      <trkpt lat="43.17115" lon="5.6953">
        <ele>12.199999809265</ele>
        <time>2017-07-15T16:54:48.000Z</time>
      </trkpt>
      <trkpt lat="43.17152" lon="5.69532">
        <ele>9.8000001907349</ele>
        <time>2017-07-15T16:54:54.000Z</time>
      </trkpt>
      <trkpt lat="43.17164" lon="5.69533">
        <ele>9.1999998092651</ele>
        <time>2017-07-15T16:54:56.000Z</time>
      </trkpt>
      <trkpt lat="43.17187" lon="5.69539">
        <ele>8.8000001907349</ele>
        <time>2017-07-15T16:55:00.000Z</time>
      </trkpt>
      <trkpt lat="43.17203" lon="5.69543">
        <ele>8.6000003814697</ele>
        <time>2017-07-15T16:55:03.000Z</time>
      </trkpt>
      <trkpt lat="43.17218" lon="5.69549">
        <ele>8.8000001907349</ele>
        <time>2017-07-15T16:55:06.000Z</time>
      </trkpt>
      <trkpt lat="43.17235" lon="5.69558">
        <ele>9</ele>
        <time>2017-07-15T16:55:10.000Z</time>
      </trkpt>
      <trkpt lat="43.17239" lon="5.69562">
        <ele>9.1999998092651</ele>
        <time>2017-07-15T16:55:11.000Z</time>
      </trkpt>
      <trkpt lat="43.17254" lon="5.69574">
        <ele>10</ele>
        <time>2017-07-15T16:55:16.000Z</time>
      </trkpt>
      <trkpt lat="43.17258" lon="5.69572">
        <ele>9.6000003814697</ele>
        <time>2017-07-15T16:55:17.000Z</time>
      </trkpt>
      <trkpt lat="43.17263" lon="5.69564">
        <ele>8.8000001907349</ele>
        <time>2017-07-15T16:55:19.000Z</time>
      </trkpt>
      <trkpt lat="43.17264" lon="5.69558">
        <ele>8.1999998092651</ele>
        <time>2017-07-15T16:55:20.000Z</time>
      </trkpt>
      <trkpt lat="43.17267" lon="5.69553">
        <ele>8</ele>
        <time>2017-07-15T16:55:21.000Z</time>
      </trkpt>
      <trkpt lat="43.17275" lon="5.6954">
        <ele>6.8000001907349</ele>
        <time>2017-07-15T16:55:24.000Z</time>
      </trkpt>
      <trkpt lat="43.17293" lon="5.6952">
        <ele>5.1999998092651</ele>
        <time>2017-07-15T16:55:30.000Z</time>
      </trkpt>
      <trkpt lat="43.17317" lon="5.69497">
        <ele>4.4000000953674</ele>
        <time>2017-07-15T16:55:37.000Z</time>
      </trkpt>
      <trkpt lat="43.17346" lon="5.6947">
        <ele>4</ele>
        <time>2017-07-15T16:55:45.000Z</time>
      </trkpt>
      <trkpt lat="43.17382" lon="5.69434">
        <ele>5</ele>
        <time>2017-07-15T16:55:57.000Z</time>
      </trkpt>
      <trkpt lat="43.17414" lon="5.69403">
        <ele>5.8000001907349</ele>
        <time>2017-07-15T16:56:07.000Z</time>
      </trkpt>
      <trkpt lat="43.17443" lon="5.69376">
        <ele>5.1999998092651</ele>
        <time>2017-07-15T16:56:16.000Z</time>
      </trkpt>
      <trkpt lat="43.17471" lon="5.69348">
        <ele>2.7999999523163</ele>
        <time>2017-07-15T16:56:25.000Z</time>
      </trkpt>
      <trkpt lat="43.17495" lon="5.69324">
        <ele>4</ele>
        <time>2017-07-15T16:56:33.000Z</time>
      </trkpt>
      <trkpt lat="43.17528" lon="5.69294">
        <ele>4.8000001907349</ele>
        <time>2017-07-15T16:56:43.000Z</time>
      </trkpt>
      <trkpt lat="43.17546" lon="5.69288">
        <ele>4.8000001907349</ele>
        <time>2017-07-15T16:56:48.000Z</time>
      </trkpt>
      <trkpt lat="43.17562" lon="5.69296">
        <ele>5.4000000953674</ele>
        <time>2017-07-15T16:56:52.000Z</time>
      </trkpt>
      <trkpt lat="43.17577" lon="5.693">
        <ele>5.5999999046326</ele>
        <time>2017-07-15T16:56:56.000Z</time>
      </trkpt>
      <trkpt lat="43.17602" lon="5.69299">
        <ele>5.8000001907349</ele>
        <time>2017-07-15T16:57:03.000Z</time>
      </trkpt>
      <trkpt lat="43.17617" lon="5.69286">
        <ele>5</ele>
        <time>2017-07-15T16:57:08.000Z</time>
      </trkpt>
      <trkpt lat="43.17642" lon="5.69259">
        <ele>4.1999998092651</ele>
        <time>2017-07-15T16:57:16.000Z</time>
      </trkpt>
      <trkpt lat="43.17664" lon="5.69238">
        <ele>5.1999998092651</ele>
        <time>2017-07-15T16:57:23.000Z</time>
      </trkpt>
      <trkpt lat="43.17689" lon="5.69211">
        <ele>5.5999999046326</ele>
        <time>2017-07-15T16:57:31.000Z</time>
      </trkpt>
      <trkpt lat="43.1771" lon="5.69191">
        <ele>5</ele>
        <time>2017-07-15T16:57:38.000Z</time>
      </trkpt>
      <trkpt lat="43.17729" lon="5.69172">
        <ele>5</ele>
        <time>2017-07-15T16:57:45.000Z</time>
      </trkpt>
      <trkpt lat="43.17748" lon="5.69151">
        <ele>6.1999998092651</ele>
        <time>2017-07-15T16:57:52.000Z</time>
      </trkpt>
      <trkpt lat="43.17776" lon="5.69122">
        <ele>6.1999998092651</ele>
        <time>2017-07-15T16:58:00.000Z</time>
      </trkpt>
      <trkpt lat="43.17806" lon="5.69093">
        <ele>5</ele>
        <time>2017-07-15T16:58:07.000Z</time>
      </trkpt>
      <trkpt lat="43.17836" lon="5.69064">
        <ele>5</ele>
        <time>2017-07-15T16:58:15.000Z</time>
      </trkpt>
      <trkpt lat="43.17857" lon="5.69043">
        <ele>5.4000000953674</ele>
        <time>2017-07-15T16:58:22.000Z</time>
      </trkpt>
      <trkpt lat="43.17884" lon="5.69017">
        <ele>6</ele>
        <time>2017-07-15T16:58:30.000Z</time>
      </trkpt>
      <trkpt lat="43.17907" lon="5.68992">
        <ele>7.4000000953674</ele>
        <time>2017-07-15T16:58:37.000Z</time>
      </trkpt>
      <trkpt lat="43.17917" lon="5.68972">
        <ele>8.1999998092651</ele>
        <time>2017-07-15T16:58:42.000Z</time>
      </trkpt>
      <trkpt lat="43.17921" lon="5.68959">
        <ele>8.3999996185303</ele>
        <time>2017-07-15T16:58:45.000Z</time>
      </trkpt>
      <trkpt lat="43.17923" lon="5.6895">
        <ele>8.6000003814697</ele>
        <time>2017-07-15T16:58:48.000Z</time>
      </trkpt>
      <trkpt lat="43.17927" lon="5.68942">
        <ele>8.8000001907349</ele>
        <time>2017-07-15T16:59:01.000Z</time>
      </trkpt>
      <trkpt lat="43.17928" lon="5.6893">
        <ele>9</ele>
        <time>2017-07-15T16:59:05.000Z</time>
      </trkpt>
      <trkpt lat="43.17928" lon="5.68918">
        <ele>9</ele>
        <time>2017-07-15T16:59:09.000Z</time>
      </trkpt>
      <trkpt lat="43.17928" lon="5.68915">
        <ele>9</ele>
        <time>2017-07-15T16:59:10.000Z</time>
      </trkpt>
      <trkpt lat="43.17932" lon="5.68896">
        <ele>9</ele>
        <time>2017-07-15T16:59:15.000Z</time>
      </trkpt>
      <trkpt lat="43.17945" lon="5.68872">
        <ele>7.8000001907349</ele>
        <time>2017-07-15T16:59:22.000Z</time>
      </trkpt>
      <trkpt lat="43.17955" lon="5.68857">
        <ele>6.5999999046326</ele>
        <time>2017-07-15T16:59:27.000Z</time>
      </trkpt>
      <trkpt lat="43.17963" lon="5.68844">
        <ele>5.5999999046326</ele>
        <time>2017-07-15T16:59:31.000Z</time>
      </trkpt>
      <trkpt lat="43.17984" lon="5.6881">
        <ele>4.1999998092651</ele>
        <time>2017-07-15T16:59:40.000Z</time>
      </trkpt>
      <trkpt lat="43.18006" lon="5.68778">
        <ele>4.4000000953674</ele>
        <time>2017-07-15T16:59:49.000Z</time>
      </trkpt>
      <trkpt lat="43.18016" lon="5.68759">
        <ele>5.5999999046326</ele>
        <time>2017-07-15T16:59:55.000Z</time>
      </trkpt>
      <trkpt lat="43.18024" lon="5.68737">
        <ele>7</ele>
        <time>2017-07-15T17:00:02.000Z</time>
      </trkpt>
      <trkpt lat="43.18031" lon="5.68712">
        <ele>7.4000000953674</ele>
        <time>2017-07-15T17:00:08.000Z</time>
      </trkpt>
      <trkpt lat="43.18038" lon="5.68679">
        <ele>8.3999996185303</ele>
        <time>2017-07-15T17:00:15.000Z</time>
      </trkpt>
      <trkpt lat="43.18047" lon="5.68642">
        <ele>8</ele>
        <time>2017-07-15T17:00:22.000Z</time>
      </trkpt>
      <trkpt lat="43.18057" lon="5.68602">
        <ele>6.8000001907349</ele>
        <time>2017-07-15T17:00:30.000Z</time>
      </trkpt>
      <trkpt lat="43.18067" lon="5.68572">
        <ele>6.4000000953674</ele>
        <time>2017-07-15T17:00:36.000Z</time>
      </trkpt>
      <trkpt lat="43.18072" lon="5.68554">
        <ele>6.1999998092651</ele>
        <time>2017-07-15T17:00:39.000Z</time>
      </trkpt>
      <trkpt lat="43.18073" lon="5.68534">
        <ele>6.4000000953674</ele>
        <time>2017-07-15T17:00:42.000Z</time>
      </trkpt>
      <trkpt lat="43.18071" lon="5.68523">
        <ele>6.5999999046326</ele>
        <time>2017-07-15T17:00:44.000Z</time>
      </trkpt>
      <trkpt lat="43.18073" lon="5.68516">
        <ele>6.5999999046326</ele>
        <time>2017-07-15T17:00:46.000Z</time>
      </trkpt>
      <trkpt lat="43.18079" lon="5.68514">
        <ele>6.8000001907349</ele>
        <time>2017-07-15T17:00:49.000Z</time>
      </trkpt>
      <trkpt lat="43.18087" lon="5.68513">
        <ele>7.1999998092651</ele>
        <time>2017-07-15T17:00:53.000Z</time>
      </trkpt>
      <trkpt lat="43.18092" lon="5.68515">
        <ele>7.4000000953674</ele>
        <time>2017-07-15T17:00:55.000Z</time>
      </trkpt>
      <trkpt lat="43.18108" lon="5.68523">
        <ele>7.5999999046326</ele>
        <time>2017-07-15T17:01:01.000Z</time>
      </trkpt>
      <trkpt lat="43.18116" lon="5.68527">
        <ele>7.8000001907349</ele>
        <time>2017-07-15T17:01:04.000Z</time>
      </trkpt>
      <trkpt lat="43.18119" lon="5.68526">
        <ele>8</ele>
        <time>2017-07-15T17:01:05.000Z</time>
      </trkpt>
      <trkpt lat="43.18134" lon="5.68522">
        <ele>8.3999996185303</ele>
        <time>2017-07-15T17:01:10.000Z</time>
      </trkpt>
      <trkpt lat="43.18145" lon="5.68524">
        <ele>8.6000003814697</ele>
        <time>2017-07-15T17:01:14.000Z</time>
      </trkpt>
      <trkpt lat="43.18153" lon="5.68525">
        <ele>8.8000001907349</ele>
        <time>2017-07-15T17:01:17.000Z</time>
      </trkpt>
      <trkpt lat="43.18172" lon="5.6853">
        <ele>9.3999996185303</ele>
        <time>2017-07-15T17:01:23.000Z</time>
      </trkpt>
      <trkpt lat="43.18175" lon="5.6853">
        <ele>9.3999996185303</ele>
        <time>2017-07-15T17:01:24.000Z</time>
      </trkpt>
      <trkpt lat="43.18191" lon="5.68536">
        <ele>10.199999809265</ele>
        <time>2017-07-15T17:01:30.000Z</time>
      </trkpt>
      <trkpt lat="43.18197" lon="5.6854">
        <ele>10.39999961853</ele>
        <time>2017-07-15T17:01:32.000Z</time>
      </trkpt>
      <trkpt lat="43.1822" lon="5.6856">
        <ele>11.60000038147</ele>
        <time>2017-07-15T17:01:39.000Z</time>
      </trkpt>
      <trkpt lat="43.18234" lon="5.6857">
        <ele>12.39999961853</ele>
        <time>2017-07-15T17:01:43.000Z</time>
      </trkpt>
      <trkpt lat="43.18242" lon="5.68573">
        <ele>12.800000190735</ele>
        <time>2017-07-15T17:01:45.000Z</time>
      </trkpt>
      <trkpt lat="43.18257" lon="5.68578">
        <ele>13.800000190735</ele>
        <time>2017-07-15T17:01:49.000Z</time>
      </trkpt>
      <trkpt lat="43.18267" lon="5.68579">
        <ele>14.199999809265</ele>
        <time>2017-07-15T17:01:52.000Z</time>
      </trkpt>
      <trkpt lat="43.1827" lon="5.68577">
        <ele>14.199999809265</ele>
        <time>2017-07-15T17:01:53.000Z</time>
      </trkpt>
      <trkpt lat="43.18275" lon="5.68572">
        <ele>14.39999961853</ele>
        <time>2017-07-15T17:01:55.000Z</time>
      </trkpt>
      <trkpt lat="43.18278" lon="5.68565">
        <ele>14.60000038147</ele>
        <time>2017-07-15T17:01:57.000Z</time>
      </trkpt>
      <trkpt lat="43.18282" lon="5.68558">
        <ele>15</ele>
        <time>2017-07-15T17:02:00.000Z</time>
      </trkpt>
      <trkpt lat="43.18284" lon="5.68555">
        <ele>15.199999809265</ele>
        <time>2017-07-15T17:02:02.000Z</time>
      </trkpt>
      <trkpt lat="43.18288" lon="5.68549">
        <ele>15.60000038147</ele>
        <time>2017-07-15T17:02:11.000Z</time>
      </trkpt>
      <trkpt lat="43.1829" lon="5.68548">
        <ele>15.60000038147</ele>
        <time>2017-07-15T17:02:12.000Z</time>
      </trkpt>
      <trkpt lat="43.18301" lon="5.68541">
        <ele>16.39999961853</ele>
        <time>2017-07-15T17:02:16.000Z</time>
      </trkpt>
      <trkpt lat="43.18306" lon="5.68528">
        <ele>16.60000038147</ele>
        <time>2017-07-15T17:02:19.000Z</time>
      </trkpt>
      <trkpt lat="43.18312" lon="5.68509">
        <ele>17.60000038147</ele>
        <time>2017-07-15T17:02:23.000Z</time>
      </trkpt>
      <trkpt lat="43.18314" lon="5.68505">
        <ele>18</ele>
        <time>2017-07-15T17:02:24.000Z</time>
      </trkpt>
      <trkpt lat="43.18322" lon="5.68492">
        <ele>19.39999961853</ele>
        <time>2017-07-15T17:02:27.000Z</time>
      </trkpt>
      <trkpt lat="43.18327" lon="5.68483">
        <ele>20.39999961853</ele>
        <time>2017-07-15T17:02:29.000Z</time>
      </trkpt>
      <trkpt lat="43.18329" lon="5.68479">
        <ele>20.799999237061</ele>
        <time>2017-07-15T17:02:30.000Z</time>
      </trkpt>
      <trkpt lat="43.18335" lon="5.68468">
        <ele>22.200000762939</ele>
        <time>2017-07-15T17:02:33.000Z</time>
      </trkpt>
      <trkpt lat="43.18339" lon="5.68459">
        <ele>22.799999237061</ele>
        <time>2017-07-15T17:02:35.000Z</time>
      </trkpt>
      <trkpt lat="43.18345" lon="5.68446">
        <ele>23.60000038147</ele>
        <time>2017-07-15T17:02:38.000Z</time>
      </trkpt>
      <trkpt lat="43.18351" lon="5.68435">
        <ele>24.200000762939</ele>
        <time>2017-07-15T17:02:41.000Z</time>
      </trkpt>
      <trkpt lat="43.18356" lon="5.68428">
        <ele>24.60000038147</ele>
        <time>2017-07-15T17:02:43.000Z</time>
      </trkpt>
      <trkpt lat="43.18363" lon="5.68422">
        <ele>25</ele>
        <time>2017-07-15T17:02:45.000Z</time>
      </trkpt>
      <trkpt lat="43.18371" lon="5.68405">
        <ele>25.799999237061</ele>
        <time>2017-07-15T17:02:49.000Z</time>
      </trkpt>
      <trkpt lat="43.18376" lon="5.68393">
        <ele>26.39999961853</ele>
        <time>2017-07-15T17:02:52.000Z</time>
      </trkpt>
      <trkpt lat="43.18385" lon="5.68382">
        <ele>27</ele>
        <time>2017-07-15T17:02:56.000Z</time>
      </trkpt>
      <trkpt lat="43.18387" lon="5.68379">
        <ele>27.200000762939</ele>
        <time>2017-07-15T17:02:57.000Z</time>
      </trkpt>
      <trkpt lat="43.18397" lon="5.68366">
        <ele>28.200000762939</ele>
        <time>2017-07-15T17:03:01.000Z</time>
      </trkpt>
      <trkpt lat="43.18409" lon="5.68349">
        <ele>29.60000038147</ele>
        <time>2017-07-15T17:03:06.000Z</time>
      </trkpt>
      <trkpt lat="43.18411" lon="5.68346">
        <ele>30</ele>
        <time>2017-07-15T17:03:07.000Z</time>
      </trkpt>
      <trkpt lat="43.18419" lon="5.68336">
        <ele>30.799999237061</ele>
        <time>2017-07-15T17:03:10.000Z</time>
      </trkpt>
      <trkpt lat="43.1843" lon="5.68321">
        <ele>32.200000762939</ele>
        <time>2017-07-15T17:03:14.000Z</time>
      </trkpt>
      <trkpt lat="43.18435" lon="5.68315">
        <ele>32.599998474121</ele>
        <time>2017-07-15T17:03:16.000Z</time>
      </trkpt>
      <trkpt lat="43.18443" lon="5.68304">
        <ele>34</ele>
        <time>2017-07-15T17:03:19.000Z</time>
      </trkpt>
      <trkpt lat="43.18452" lon="5.68291">
        <ele>35.599998474121</ele>
        <time>2017-07-15T17:03:23.000Z</time>
      </trkpt>
      <trkpt lat="43.18454" lon="5.68287">
        <ele>36</ele>
        <time>2017-07-15T17:03:24.000Z</time>
      </trkpt>
      <trkpt lat="43.18468" lon="5.68266">
        <ele>38</ele>
        <time>2017-07-15T17:03:30.000Z</time>
      </trkpt>
      <trkpt lat="43.18475" lon="5.68257">
        <ele>39.400001525879</ele>
        <time>2017-07-15T17:03:33.000Z</time>
      </trkpt>
      <trkpt lat="43.18482" lon="5.68247">
        <ele>40.799999237061</ele>
        <time>2017-07-15T17:03:36.000Z</time>
      </trkpt>
      <trkpt lat="43.18487" lon="5.68241">
        <ele>41.799999237061</ele>
        <time>2017-07-15T17:03:38.000Z</time>
      </trkpt>
      <trkpt lat="43.18495" lon="5.6823">
        <ele>43.599998474121</ele>
        <time>2017-07-15T17:03:41.000Z</time>
      </trkpt>
      <trkpt lat="43.18504" lon="5.68219">
        <ele>45.200000762939</ele>
        <time>2017-07-15T17:03:44.000Z</time>
      </trkpt>
      <trkpt lat="43.18509" lon="5.68211">
        <ele>46.200000762939</ele>
        <time>2017-07-15T17:03:46.000Z</time>
      </trkpt>
      <trkpt lat="43.18517" lon="5.682">
        <ele>47</ele>
        <time>2017-07-15T17:03:49.000Z</time>
      </trkpt>
      <trkpt lat="43.18523" lon="5.68193">
        <ele>47.599998474121</ele>
        <time>2017-07-15T17:03:51.000Z</time>
      </trkpt>
      <trkpt lat="43.18525" lon="5.68189">
        <ele>48</ele>
        <time>2017-07-15T17:03:52.000Z</time>
      </trkpt>
      <trkpt lat="43.18534" lon="5.68179">
        <ele>48.799999237061</ele>
        <time>2017-07-15T17:03:55.000Z</time>
      </trkpt>
      <trkpt lat="43.18543" lon="5.68169">
        <ele>49.799999237061</ele>
        <time>2017-07-15T17:03:58.000Z</time>
      </trkpt>
      <trkpt lat="43.18552" lon="5.68158">
        <ele>51</ele>
        <time>2017-07-15T17:04:01.000Z</time>
      </trkpt>
      <trkpt lat="43.18564" lon="5.68143">
        <ele>53</ele>
        <time>2017-07-15T17:04:05.000Z</time>
      </trkpt>
      <trkpt lat="43.18577" lon="5.6813">
        <ele>54.799999237061</ele>
        <time>2017-07-15T17:04:09.000Z</time>
      </trkpt>
      <trkpt lat="43.1858" lon="5.68126">
        <ele>55.200000762939</ele>
        <time>2017-07-15T17:04:10.000Z</time>
      </trkpt>
      <trkpt lat="43.18592" lon="5.68113">
        <ele>56.200000762939</ele>
        <time>2017-07-15T17:04:14.000Z</time>
      </trkpt>
      <trkpt lat="43.18603" lon="5.681">
        <ele>56.599998474121</ele>
        <time>2017-07-15T17:04:18.000Z</time>
      </trkpt>
      <trkpt lat="43.18611" lon="5.6809">
        <ele>56.799999237061</ele>
        <time>2017-07-15T17:04:21.000Z</time>
      </trkpt>
      <trkpt lat="43.18617" lon="5.68083">
        <ele>56.799999237061</ele>
        <time>2017-07-15T17:04:23.000Z</time>
      </trkpt>
      <trkpt lat="43.18631" lon="5.68067">
        <ele>58</ele>
        <time>2017-07-15T17:04:28.000Z</time>
      </trkpt>
      <trkpt lat="43.18634" lon="5.68064">
        <ele>58.400001525879</ele>
        <time>2017-07-15T17:04:29.000Z</time>
      </trkpt>
      <trkpt lat="43.18646" lon="5.68051">
        <ele>59.599998474121</ele>
        <time>2017-07-15T17:04:33.000Z</time>
      </trkpt>
      <trkpt lat="43.1866" lon="5.68034">
        <ele>60.599998474121</ele>
        <time>2017-07-15T17:04:38.000Z</time>
      </trkpt>
      <trkpt lat="43.18675" lon="5.68023">
        <ele>62.599998474121</ele>
        <time>2017-07-15T17:04:43.000Z</time>
      </trkpt>
      <trkpt lat="43.18678" lon="5.68023">
        <ele>62.799999237061</ele>
        <time>2017-07-15T17:04:44.000Z</time>
      </trkpt>
      <trkpt lat="43.18686" lon="5.68027">
        <ele>63</ele>
        <time>2017-07-15T17:04:47.000Z</time>
      </trkpt>
      <trkpt lat="43.18687" lon="5.68029">
        <ele>62.799999237061</ele>
        <time>2017-07-15T17:04:48.000Z</time>
      </trkpt>
      <trkpt lat="43.1869" lon="5.68033">
        <ele>62.799999237061</ele>
        <time>2017-07-15T17:04:50.000Z</time>
      </trkpt>
      <trkpt lat="43.187" lon="5.68046">
        <ele>62.400001525879</ele>
        <time>2017-07-15T17:04:55.000Z</time>
      </trkpt>
      <trkpt lat="43.18717" lon="5.6807">
        <ele>61.799999237061</ele>
        <time>2017-07-15T17:05:03.000Z</time>
      </trkpt>
      <trkpt lat="43.18738" lon="5.681">
        <ele>61</ele>
        <time>2017-07-15T17:05:10.000Z</time>
      </trkpt>
      <trkpt lat="43.18754" lon="5.68121">
        <ele>60.599998474121</ele>
        <time>2017-07-15T17:05:14.000Z</time>
      </trkpt>
      <trkpt lat="43.18763" lon="5.68134">
        <ele>60.400001525879</ele>
        <time>2017-07-15T17:05:16.000Z</time>
      </trkpt>
      <trkpt lat="43.18773" lon="5.68146">
        <ele>60.799999237061</ele>
        <time>2017-07-15T17:05:18.000Z</time>
      </trkpt>
      <trkpt lat="43.18794" lon="5.68174">
        <ele>61.799999237061</ele>
        <time>2017-07-15T17:05:23.000Z</time>
      </trkpt>
      <trkpt lat="43.1882" lon="5.68203">
        <ele>63</ele>
        <time>2017-07-15T17:05:31.000Z</time>
      </trkpt>
      <trkpt lat="43.18833" lon="5.68219">
        <ele>63.799999237061</ele>
        <time>2017-07-15T17:05:35.000Z</time>
      </trkpt>
      <trkpt lat="43.18843" lon="5.68231">
        <ele>63.799999237061</ele>
        <time>2017-07-15T17:05:38.000Z</time>
      </trkpt>
      <trkpt lat="43.18872" lon="5.68266">
        <ele>63.599998474121</ele>
        <time>2017-07-15T17:05:45.000Z</time>
      </trkpt>
      <trkpt lat="43.18881" lon="5.68277">
        <ele>63.400001525879</ele>
        <time>2017-07-15T17:05:47.000Z</time>
      </trkpt>
      <trkpt lat="43.18893" lon="5.68295">
        <ele>63</ele>
        <time>2017-07-15T17:05:51.000Z</time>
      </trkpt>
      <trkpt lat="43.18908" lon="5.68315">
        <ele>63</ele>
        <time>2017-07-15T17:05:57.000Z</time>
      </trkpt>
      <trkpt lat="43.18919" lon="5.6833">
        <ele>63.400001525879</ele>
        <time>2017-07-15T17:06:01.000Z</time>
      </trkpt>
      <trkpt lat="43.18921" lon="5.68334">
        <ele>63.400001525879</ele>
        <time>2017-07-15T17:06:02.000Z</time>
      </trkpt>
      <trkpt lat="43.18929" lon="5.68344">
        <ele>63.599998474121</ele>
        <time>2017-07-15T17:06:05.000Z</time>
      </trkpt>
      <trkpt lat="43.18931" lon="5.68347">
        <ele>63.799999237061</ele>
        <time>2017-07-15T17:06:06.000Z</time>
      </trkpt>
      <trkpt lat="43.18947" lon="5.68366">
        <ele>64.199996948242</ele>
        <time>2017-07-15T17:06:12.000Z</time>
      </trkpt>
      <trkpt lat="43.18949" lon="5.68369">
        <ele>64.400001525879</ele>
        <time>2017-07-15T17:06:13.000Z</time>
      </trkpt>
      <trkpt lat="43.18966" lon="5.68389">
        <ele>64.800003051758</ele>
        <time>2017-07-15T17:06:20.000Z</time>
      </trkpt>
      <trkpt lat="43.1897" lon="5.68396">
        <ele>64.599998474121</ele>
        <time>2017-07-15T17:06:22.000Z</time>
      </trkpt>
      <trkpt lat="43.18985" lon="5.68423">
        <ele>63.599998474121</ele>
        <time>2017-07-15T17:06:27.000Z</time>
      </trkpt>
      <trkpt lat="43.19" lon="5.68454">
        <ele>62.200000762939</ele>
        <time>2017-07-15T17:06:31.000Z</time>
      </trkpt>
      <trkpt lat="43.19007" lon="5.68468">
        <ele>61.599998474121</ele>
        <time>2017-07-15T17:06:33.000Z</time>
      </trkpt>
      <trkpt lat="43.19013" lon="5.68481">
        <ele>61.799999237061</ele>
        <time>2017-07-15T17:06:35.000Z</time>
      </trkpt>
      <trkpt lat="43.1902" lon="5.68492">
        <ele>61.599998474121</ele>
        <time>2017-07-15T17:06:38.000Z</time>
      </trkpt>
      <trkpt lat="43.19031" lon="5.68514">
        <ele>61.400001525879</ele>
        <time>2017-07-15T17:06:45.000Z</time>
      </trkpt>
      <trkpt lat="43.19044" lon="5.68536">
        <ele>61.200000762939</ele>
        <time>2017-07-15T17:06:53.000Z</time>
      </trkpt>
      <trkpt lat="43.19059" lon="5.68563">
        <ele>59.799999237061</ele>
        <time>2017-07-15T17:06:59.000Z</time>
      </trkpt>
      <trkpt lat="43.19064" lon="5.68569">
        <ele>59.200000762939</ele>
        <time>2017-07-15T17:07:00.000Z</time>
      </trkpt>
      <trkpt lat="43.19073" lon="5.68581">
        <ele>57.799999237061</ele>
        <time>2017-07-15T17:07:02.000Z</time>
      </trkpt>
      <trkpt lat="43.19082" lon="5.68592">
        <ele>56.599998474121</ele>
        <time>2017-07-15T17:07:04.000Z</time>
      </trkpt>
      <trkpt lat="43.19086" lon="5.68597">
        <ele>56</ele>
        <time>2017-07-15T17:07:05.000Z</time>
      </trkpt>
      <trkpt lat="43.1909" lon="5.68602">
        <ele>55.400001525879</ele>
        <time>2017-07-15T17:07:06.000Z</time>
      </trkpt>
      <trkpt lat="43.19098" lon="5.6861">
        <ele>54.799999237061</ele>
        <time>2017-07-15T17:07:08.000Z</time>
      </trkpt>
      <trkpt lat="43.19107" lon="5.68614">
        <ele>54.400001525879</ele>
        <time>2017-07-15T17:07:10.000Z</time>
      </trkpt>
      <trkpt lat="43.19119" lon="5.68616">
        <ele>55</ele>
        <time>2017-07-15T17:07:13.000Z</time>
      </trkpt>
      <trkpt lat="43.19123" lon="5.68616">
        <ele>55.200000762939</ele>
        <time>2017-07-15T17:07:14.000Z</time>
      </trkpt>
      <trkpt lat="43.1913" lon="5.68617">
        <ele>55.400001525879</ele>
        <time>2017-07-15T17:07:16.000Z</time>
      </trkpt>
      <trkpt lat="43.19142" lon="5.68624">
        <ele>54.799999237061</ele>
        <time>2017-07-15T17:07:20.000Z</time>
      </trkpt>
      <trkpt lat="43.19144" lon="5.68627">
        <ele>54.599998474121</ele>
        <time>2017-07-15T17:07:21.000Z</time>
      </trkpt>
      <trkpt lat="43.19153" lon="5.68644">
        <ele>53.400001525879</ele>
        <time>2017-07-15T17:07:26.000Z</time>
      </trkpt>
      <trkpt lat="43.19157" lon="5.68669">
        <ele>52.400001525879</ele>
        <time>2017-07-15T17:07:31.000Z</time>
      </trkpt>
      <trkpt lat="43.1916" lon="5.68685">
        <ele>51.799999237061</ele>
        <time>2017-07-15T17:07:35.000Z</time>
      </trkpt>
      <trkpt lat="43.1916" lon="5.68692">
        <ele>51.400001525879</ele>
        <time>2017-07-15T17:07:37.000Z</time>
      </trkpt>
      <trkpt lat="43.19156" lon="5.68709">
        <ele>50.400001525879</ele>
        <time>2017-07-15T17:07:43.000Z</time>
      </trkpt>
      <trkpt lat="43.19158" lon="5.68727">
        <ele>50.200000762939</ele>
        <time>2017-07-15T17:07:49.000Z</time>
      </trkpt>
      <trkpt lat="43.19166" lon="5.68739">
        <ele>50.799999237061</ele>
        <time>2017-07-15T17:07:53.000Z</time>
      </trkpt>
      <trkpt lat="43.1917" lon="5.68746">
        <ele>51.200000762939</ele>
        <time>2017-07-15T17:07:55.000Z</time>
      </trkpt>
      <trkpt lat="43.19177" lon="5.68761">
        <ele>52</ele>
        <time>2017-07-15T17:07:59.000Z</time>
      </trkpt>
      <trkpt lat="43.19182" lon="5.68774">
        <ele>52.400001525879</ele>
        <time>2017-07-15T17:08:02.000Z</time>
      </trkpt>
      <trkpt lat="43.19186" lon="5.68786">
        <ele>52.799999237061</ele>
        <time>2017-07-15T17:08:05.000Z</time>
      </trkpt>
      <trkpt lat="43.19189" lon="5.68795">
        <ele>53.200000762939</ele>
        <time>2017-07-15T17:08:07.000Z</time>
      </trkpt>
      <trkpt lat="43.1919" lon="5.688">
        <ele>53.400001525879</ele>
        <time>2017-07-15T17:08:08.000Z</time>
      </trkpt>
      <trkpt lat="43.19194" lon="5.68817">
        <ele>53.200000762939</ele>
        <time>2017-07-15T17:08:12.000Z</time>
      </trkpt>
      <trkpt lat="43.19197" lon="5.6883">
        <ele>53.400001525879</ele>
        <time>2017-07-15T17:08:15.000Z</time>
      </trkpt>
      <trkpt lat="43.19198" lon="5.68839">
        <ele>53.400001525879</ele>
        <time>2017-07-15T17:08:17.000Z</time>
      </trkpt>
      <trkpt lat="43.192" lon="5.68867">
        <ele>53.799999237061</ele>
        <time>2017-07-15T17:08:23.000Z</time>
      </trkpt>
      <trkpt lat="43.192" lon="5.68878">
        <ele>54</ele>
        <time>2017-07-15T17:08:25.000Z</time>
      </trkpt>
      <trkpt lat="43.19202" lon="5.68908">
        <ele>54</ele>
        <time>2017-07-15T17:08:31.000Z</time>
      </trkpt>
      <trkpt lat="43.192" lon="5.68925">
        <ele>54.400001525879</ele>
        <time>2017-07-15T17:08:34.000Z</time>
      </trkpt>
      <trkpt lat="43.19199" lon="5.68942">
        <ele>54.799999237061</ele>
        <time>2017-07-15T17:08:37.000Z</time>
      </trkpt>
      <trkpt lat="43.19197" lon="5.68966">
        <ele>55.400001525879</ele>
        <time>2017-07-15T17:08:41.000Z</time>
      </trkpt>
      <trkpt lat="43.19194" lon="5.68988">
        <ele>55.799999237061</ele>
        <time>2017-07-15T17:08:45.000Z</time>
      </trkpt>
      <trkpt lat="43.19195" lon="5.69027">
        <ele>55.400001525879</ele>
        <time>2017-07-15T17:08:52.000Z</time>
      </trkpt>
      <trkpt lat="43.19201" lon="5.6906">
        <ele>55.200000762939</ele>
        <time>2017-07-15T17:08:58.000Z</time>
      </trkpt>
      <trkpt lat="43.19202" lon="5.69066">
        <ele>55.400001525879</ele>
        <time>2017-07-15T17:08:59.000Z</time>
      </trkpt>
      <trkpt lat="43.19206" lon="5.69099">
        <ele>56.599998474121</ele>
        <time>2017-07-15T17:09:05.000Z</time>
      </trkpt>
      <trkpt lat="43.19202" lon="5.69123">
        <ele>57.799999237061</ele>
        <time>2017-07-15T17:09:10.000Z</time>
      </trkpt>
      <trkpt lat="43.19196" lon="5.69147">
        <ele>58.400001525879</ele>
        <time>2017-07-15T17:09:16.000Z</time>
      </trkpt>
      <trkpt lat="43.192" lon="5.69182">
        <ele>57</ele>
        <time>2017-07-15T17:09:24.000Z</time>
      </trkpt>
      <trkpt lat="43.19204" lon="5.69213">
        <ele>56</ele>
        <time>2017-07-15T17:09:30.000Z</time>
      </trkpt>
      <trkpt lat="43.19204" lon="5.69257">
        <ele>54.599998474121</ele>
        <time>2017-07-15T17:09:37.000Z</time>
      </trkpt>
      <trkpt lat="43.19202" lon="5.69298">
        <ele>51.599998474121</ele>
        <time>2017-07-15T17:09:43.000Z</time>
      </trkpt>
      <trkpt lat="43.19202" lon="5.69304">
        <ele>51.200000762939</ele>
        <time>2017-07-15T17:09:44.000Z</time>
      </trkpt>
      <trkpt lat="43.19202" lon="5.69355">
        <ele>50.200000762939</ele>
        <time>2017-07-15T17:09:52.000Z</time>
      </trkpt>
      <trkpt lat="43.19201" lon="5.69382">
        <ele>49.799999237061</ele>
        <time>2017-07-15T17:09:57.000Z</time>
      </trkpt>
      <trkpt lat="43.19201" lon="5.69401">
        <ele>49.799999237061</ele>
        <time>2017-07-15T17:10:00.000Z</time>
      </trkpt>
      <trkpt lat="43.19199" lon="5.69435">
        <ele>49.400001525879</ele>
        <time>2017-07-15T17:10:05.000Z</time>
      </trkpt>
      <trkpt lat="43.19198" lon="5.69455">
        <ele>49.200000762939</ele>
        <time>2017-07-15T17:10:08.000Z</time>
      </trkpt>
      <trkpt lat="43.19196" lon="5.69481">
        <ele>48.400001525879</ele>
        <time>2017-07-15T17:10:12.000Z</time>
      </trkpt>
      <trkpt lat="43.19195" lon="5.69487">
        <ele>48.200000762939</ele>
        <time>2017-07-15T17:10:13.000Z</time>
      </trkpt>
      <trkpt lat="43.19189" lon="5.69496">
        <ele>47.200000762939</ele>
        <time>2017-07-15T17:10:15.000Z</time>
      </trkpt>
      <trkpt lat="43.19174" lon="5.69503">
        <ele>45.799999237061</ele>
        <time>2017-07-15T17:10:18.000Z</time>
      </trkpt>
      <trkpt lat="43.19168" lon="5.69505">
        <ele>45.400001525879</ele>
        <time>2017-07-15T17:10:19.000Z</time>
      </trkpt>
      <trkpt lat="43.19133" lon="5.69516">
        <ele>43.799999237061</ele>
        <time>2017-07-15T17:10:25.000Z</time>
      </trkpt>
      <trkpt lat="43.19128" lon="5.69517">
        <ele>43.599998474121</ele>
        <time>2017-07-15T17:10:26.000Z</time>
      </trkpt>
      <trkpt lat="43.1912" lon="5.69521">
        <ele>43.200000762939</ele>
        <time>2017-07-15T17:10:28.000Z</time>
      </trkpt>
      <trkpt lat="43.19115" lon="5.69527">
        <ele>42.799999237061</ele>
        <time>2017-07-15T17:10:30.000Z</time>
      </trkpt>
      <trkpt lat="43.19114" lon="5.69532">
        <ele>42.400001525879</ele>
        <time>2017-07-15T17:10:31.000Z</time>
      </trkpt>
      <trkpt lat="43.19116" lon="5.69546">
        <ele>41.799999237061</ele>
        <time>2017-07-15T17:10:34.000Z</time>
      </trkpt>
      <trkpt lat="43.19114" lon="5.69562">
        <ele>41.599998474121</ele>
        <time>2017-07-15T17:10:37.000Z</time>
      </trkpt>
      <trkpt lat="43.19111" lon="5.69563">
        <ele>41.599998474121</ele>
        <time>2017-07-15T17:10:38.000Z</time>
      </trkpt>
      <trkpt lat="43.19104" lon="5.69557">
        <ele>41.400001525879</ele>
        <time>2017-07-15T17:10:40.000Z</time>
      </trkpt>
      <trkpt lat="43.191" lon="5.69552">
        <ele>41.200000762939</ele>
        <time>2017-07-15T17:10:41.000Z</time>
      </trkpt>
      <trkpt lat="43.19092" lon="5.69544">
        <ele>41.200000762939</ele>
        <time>2017-07-15T17:10:43.000Z</time>
      </trkpt>
      <trkpt lat="43.19087" lon="5.69541">
        <ele>41</ele>
        <time>2017-07-15T17:10:44.000Z</time>
      </trkpt>
      <trkpt lat="43.19076" lon="5.69535">
        <ele>40.400001525879</ele>
        <time>2017-07-15T17:10:46.000Z</time>
      </trkpt>
      <trkpt lat="43.19056" lon="5.69527">
        <ele>39.599998474121</ele>
        <time>2017-07-15T17:10:50.000Z</time>
      </trkpt>
      <trkpt lat="43.19053" lon="5.69528">
        <ele>39.400001525879</ele>
        <time>2017-07-15T17:10:51.000Z</time>
      </trkpt>
      <trkpt lat="43.19043" lon="5.69536">
        <ele>39.200000762939</ele>
        <time>2017-07-15T17:10:55.000Z</time>
      </trkpt>
      <trkpt lat="43.19042" lon="5.69544">
        <ele>39</ele>
        <time>2017-07-15T17:10:57.000Z</time>
      </trkpt>
      <trkpt lat="43.19036" lon="5.69564">
        <ele>38.799999237061</ele>
        <time>2017-07-15T17:11:02.000Z</time>
      </trkpt>
      <trkpt lat="43.19034" lon="5.69571">
        <ele>38.599998474121</ele>
        <time>2017-07-15T17:11:04.000Z</time>
      </trkpt>
      <trkpt lat="43.1903" lon="5.69589">
        <ele>38.200000762939</ele>
        <time>2017-07-15T17:11:09.000Z</time>
      </trkpt>
      <trkpt lat="43.1903" lon="5.69593">
        <ele>38.200000762939</ele>
        <time>2017-07-15T17:11:10.000Z</time>
      </trkpt>
      <trkpt lat="43.19031" lon="5.69597">
        <ele>38.200000762939</ele>
        <time>2017-07-15T17:11:11.000Z</time>
      </trkpt>
      <trkpt lat="43.19035" lon="5.69603">
        <ele>38.200000762939</ele>
        <time>2017-07-15T17:11:13.000Z</time>
      </trkpt>
      <trkpt lat="43.19046" lon="5.69627">
        <ele>38.400001525879</ele>
        <time>2017-07-15T17:11:21.000Z</time>
      </trkpt>
      <trkpt lat="43.19052" lon="5.69656">
        <ele>38.400001525879</ele>
        <time>2017-07-15T17:11:27.000Z</time>
      </trkpt>
      <trkpt lat="43.1905" lon="5.69687">
        <ele>38.200000762939</ele>
        <time>2017-07-15T17:11:33.000Z</time>
      </trkpt>
      <trkpt lat="43.19042" lon="5.69718">
        <ele>37.400001525879</ele>
        <time>2017-07-15T17:11:40.000Z</time>
      </trkpt>
      <trkpt lat="43.1903" lon="5.6977">
        <ele>38</ele>
        <time>2017-07-15T17:11:50.000Z</time>
      </trkpt>
      <trkpt lat="43.19018" lon="5.69811">
        <ele>38.599998474121</ele>
        <time>2017-07-15T17:11:58.000Z</time>
      </trkpt>
      <trkpt lat="43.19018" lon="5.69836">
        <ele>39.599998474121</ele>
        <time>2017-07-15T17:12:03.000Z</time>
      </trkpt>
      <trkpt lat="43.1903" lon="5.69878">
        <ele>41.799999237061</ele>
        <time>2017-07-15T17:12:12.000Z</time>
      </trkpt>
      <trkpt lat="43.19031" lon="5.69882">
        <ele>42</ele>
        <time>2017-07-15T17:12:13.000Z</time>
      </trkpt>
      <trkpt lat="43.19041" lon="5.69919">
        <ele>42.400001525879</ele>
        <time>2017-07-15T17:12:21.000Z</time>
      </trkpt>
      <trkpt lat="43.19043" lon="5.69928">
        <ele>42.599998474121</ele>
        <time>2017-07-15T17:12:23.000Z</time>
      </trkpt>
      <trkpt lat="43.19051" lon="5.69957">
        <ele>43.200000762939</ele>
        <time>2017-07-15T17:12:29.000Z</time>
      </trkpt>
      <trkpt lat="43.19052" lon="5.69962">
        <ele>43.400001525879</ele>
        <time>2017-07-15T17:12:30.000Z</time>
      </trkpt>
      <trkpt lat="43.1906" lon="5.7">
        <ele>43.799999237061</ele>
        <time>2017-07-15T17:12:37.000Z</time>
      </trkpt>
      <trkpt lat="43.19064" lon="5.70047">
        <ele>44.200000762939</ele>
        <time>2017-07-15T17:12:45.000Z</time>
      </trkpt>
      <trkpt lat="43.19073" lon="5.7009">
        <ele>45.400001525879</ele>
        <time>2017-07-15T17:12:53.000Z</time>
      </trkpt>
      <trkpt lat="43.19083" lon="5.70126">
        <ele>46.400001525879</ele>
        <time>2017-07-15T17:13:02.000Z</time>
      </trkpt>
      <trkpt lat="43.19084" lon="5.70141">
        <ele>46.400001525879</ele>
        <time>2017-07-15T17:13:06.000Z</time>
      </trkpt>
      <trkpt lat="43.19092" lon="5.70149">
        <ele>46.799999237061</ele>
        <time>2017-07-15T17:13:10.000Z</time>
      </trkpt>
      <trkpt lat="43.19095" lon="5.70154">
        <ele>46.799999237061</ele>
        <time>2017-07-15T17:13:12.000Z</time>
      </trkpt>
      <trkpt lat="43.191" lon="5.70167">
        <ele>46.599998474121</ele>
        <time>2017-07-15T17:13:16.000Z</time>
      </trkpt>
      <trkpt lat="43.19102" lon="5.70171">
        <ele>46.599998474121</ele>
        <time>2017-07-15T17:13:17.000Z</time>
      </trkpt>
      <trkpt lat="43.19111" lon="5.70197">
        <ele>46.400001525879</ele>
        <time>2017-07-15T17:13:23.000Z</time>
      </trkpt>
      <trkpt lat="43.19122" lon="5.70232">
        <ele>46.200000762939</ele>
        <time>2017-07-15T17:13:31.000Z</time>
      </trkpt>
      <trkpt lat="43.19132" lon="5.70276">
        <ele>45.599998474121</ele>
        <time>2017-07-15T17:13:40.000Z</time>
      </trkpt>
      <trkpt lat="43.19143" lon="5.70322">
        <ele>44.599998474121</ele>
        <time>2017-07-15T17:13:49.000Z</time>
      </trkpt>
      <trkpt lat="43.19145" lon="5.70339">
        <ele>44.400001525879</ele>
        <time>2017-07-15T17:13:53.000Z</time>
      </trkpt>
      <trkpt lat="43.19146" lon="5.70346">
        <ele>44.200000762939</ele>
        <time>2017-07-15T17:13:55.000Z</time>
      </trkpt>
      <trkpt lat="43.1915" lon="5.70378">
        <ele>43.400001525879</ele>
        <time>2017-07-15T17:14:01.000Z</time>
      </trkpt>
      <trkpt lat="43.19154" lon="5.70398">
        <ele>43</ele>
        <time>2017-07-15T17:14:05.000Z</time>
      </trkpt>
      <trkpt lat="43.19159" lon="5.70429">
        <ele>42.799999237061</ele>
        <time>2017-07-15T17:14:11.000Z</time>
      </trkpt>
      <trkpt lat="43.19165" lon="5.70455">
        <ele>42.599998474121</ele>
        <time>2017-07-15T17:14:17.000Z</time>
      </trkpt>
      <trkpt lat="43.19173" lon="5.70467">
        <ele>42.799999237061</ele>
        <time>2017-07-15T17:14:22.000Z</time>
      </trkpt>
      <trkpt lat="43.19186" lon="5.70465">
        <ele>43.400001525879</ele>
        <time>2017-07-15T17:14:26.000Z</time>
      </trkpt>
      <trkpt lat="43.19189" lon="5.70464">
        <ele>43.400001525879</ele>
        <time>2017-07-15T17:14:27.000Z</time>
      </trkpt>
      <trkpt lat="43.19215" lon="5.70453">
        <ele>44.599998474121</ele>
        <time>2017-07-15T17:14:35.000Z</time>
      </trkpt>
      <trkpt lat="43.19224" lon="5.7045">
        <ele>44.799999237061</ele>
        <time>2017-07-15T17:14:38.000Z</time>
      </trkpt>
      <trkpt lat="43.19234" lon="5.70435">
        <ele>45.599998474121</ele>
        <time>2017-07-15T17:14:43.000Z</time>
      </trkpt>
      <trkpt lat="43.19246" lon="5.70421">
        <ele>46.799999237061</ele>
        <time>2017-07-15T17:14:49.000Z</time>
      </trkpt>
      <trkpt lat="43.19265" lon="5.70417">
        <ele>48</ele>
        <time>2017-07-15T17:14:55.000Z</time>
      </trkpt>
      <trkpt lat="43.19281" lon="5.70422">
        <ele>48.799999237061</ele>
        <time>2017-07-15T17:15:00.000Z</time>
      </trkpt>
      <trkpt lat="43.19284" lon="5.70423">
        <ele>49</ele>
        <time>2017-07-15T17:15:01.000Z</time>
      </trkpt>
      <trkpt lat="43.19309" lon="5.70436">
        <ele>50</ele>
        <time>2017-07-15T17:15:09.000Z</time>
      </trkpt>
      <trkpt lat="43.1933" lon="5.70449">
        <ele>50.799999237061</ele>
        <time>2017-07-15T17:15:16.000Z</time>
      </trkpt>
      <trkpt lat="43.1935" lon="5.70458">
        <ele>51.599998474121</ele>
        <time>2017-07-15T17:15:22.000Z</time>
      </trkpt>
      <trkpt lat="43.19363" lon="5.70464">
        <ele>52.200000762939</ele>
        <time>2017-07-15T17:15:26.000Z</time>
      </trkpt>
      <trkpt lat="43.19366" lon="5.70465">
        <ele>52.400001525879</ele>
        <time>2017-07-15T17:15:27.000Z</time>
      </trkpt>
      <trkpt lat="43.19388" lon="5.70469">
        <ele>53.599998474121</ele>
        <time>2017-07-15T17:15:34.000Z</time>
      </trkpt>
      <trkpt lat="43.19402" lon="5.7048">
        <ele>54.400001525879</ele>
        <time>2017-07-15T17:15:40.000Z</time>
      </trkpt>
      <trkpt lat="43.19404" lon="5.70488">
        <ele>54.599998474121</ele>
        <time>2017-07-15T17:15:42.000Z</time>
      </trkpt>
      <trkpt lat="43.19409" lon="5.70506">
        <ele>54.799999237061</ele>
        <time>2017-07-15T17:15:46.000Z</time>
      </trkpt>
      <trkpt lat="43.1942" lon="5.7055">
        <ele>55.599998474121</ele>
        <time>2017-07-15T17:15:55.000Z</time>
      </trkpt>
      <trkpt lat="43.1943" lon="5.70596">
        <ele>56</ele>
        <time>2017-07-15T17:16:04.000Z</time>
      </trkpt>
      <trkpt lat="43.19433" lon="5.70605">
        <ele>56.200000762939</ele>
        <time>2017-07-15T17:16:06.000Z</time>
      </trkpt>
      <trkpt lat="43.19442" lon="5.70617">
        <ele>56.400001525879</ele>
        <time>2017-07-15T17:16:10.000Z</time>
      </trkpt>
      <trkpt lat="43.19456" lon="5.70612">
        <ele>56.599998474121</ele>
        <time>2017-07-15T17:16:14.000Z</time>
      </trkpt>
      <trkpt lat="43.19459" lon="5.70609">
        <ele>56.799999237061</ele>
        <time>2017-07-15T17:16:15.000Z</time>
      </trkpt>
      <trkpt lat="43.19484" lon="5.70589">
        <ele>57.400001525879</ele>
        <time>2017-07-15T17:16:23.000Z</time>
      </trkpt>
      <trkpt lat="43.19493" lon="5.70581">
        <ele>57.599998474121</ele>
        <time>2017-07-15T17:16:26.000Z</time>
      </trkpt>
      <trkpt lat="43.19509" lon="5.70569">
        <ele>58</ele>
        <time>2017-07-15T17:16:31.000Z</time>
      </trkpt>
      <trkpt lat="43.19515" lon="5.70565">
        <ele>58</ele>
        <time>2017-07-15T17:16:33.000Z</time>
      </trkpt>
      <trkpt lat="43.19529" lon="5.7056">
        <ele>58.599998474121</ele>
        <time>2017-07-15T17:16:38.000Z</time>
      </trkpt>
      <trkpt lat="43.19531" lon="5.70562">
        <ele>58.599998474121</ele>
        <time>2017-07-15T17:16:39.000Z</time>
      </trkpt>
      <trkpt lat="43.19541" lon="5.70576">
        <ele>58.400001525879</ele>
        <time>2017-07-15T17:16:44.000Z</time>
      </trkpt>
      <trkpt lat="43.19554" lon="5.70573">
        <ele>59</ele>
        <time>2017-07-15T17:16:48.000Z</time>
      </trkpt>
      <trkpt lat="43.19562" lon="5.70567">
        <ele>59.799999237061</ele>
        <time>2017-07-15T17:16:51.000Z</time>
      </trkpt>
      <trkpt lat="43.19565" lon="5.70565">
        <ele>60</ele>
        <time>2017-07-15T17:16:52.000Z</time>
      </trkpt>
      <trkpt lat="43.19572" lon="5.7056">
        <ele>60.599998474121</ele>
        <time>2017-07-15T17:16:55.000Z</time>
      </trkpt>
      <trkpt lat="43.19593" lon="5.7055">
        <ele>62</ele>
        <time>2017-07-15T17:17:02.000Z</time>
      </trkpt>
      <trkpt lat="43.19597" lon="5.70548">
        <ele>62.200000762939</ele>
        <time>2017-07-15T17:17:03.000Z</time>
      </trkpt>
      <trkpt lat="43.19626" lon="5.70535">
        <ele>63.200000762939</ele>
        <time>2017-07-15T17:17:12.000Z</time>
      </trkpt>
      <trkpt lat="43.19636" lon="5.7053">
        <ele>63.599998474121</ele>
        <time>2017-07-15T17:17:15.000Z</time>
      </trkpt>
      <trkpt lat="43.19648" lon="5.70524">
        <ele>64</ele>
        <time>2017-07-15T17:17:19.000Z</time>
      </trkpt>
      <trkpt lat="43.1965" lon="5.70525">
        <ele>64</ele>
        <time>2017-07-15T17:17:20.000Z</time>
      </trkpt>
      <trkpt lat="43.19653" lon="5.70531">
        <ele>64</ele>
        <time>2017-07-15T17:17:22.000Z</time>
      </trkpt>
      <trkpt lat="43.19655" lon="5.70552">
        <ele>63.400001525879</ele>
        <time>2017-07-15T17:17:25.000Z</time>
      </trkpt>
      <trkpt lat="43.19661" lon="5.70599">
        <ele>62.400001525879</ele>
        <time>2017-07-15T17:17:31.000Z</time>
      </trkpt>
      <trkpt lat="43.19667" lon="5.70642">
        <ele>61.400001525879</ele>
        <time>2017-07-15T17:17:36.000Z</time>
      </trkpt>
      <trkpt lat="43.19671" lon="5.7067">
        <ele>60.799999237061</ele>
        <time>2017-07-15T17:17:39.000Z</time>
      </trkpt>
      <trkpt lat="43.19677" lon="5.70715">
        <ele>60</ele>
        <time>2017-07-15T17:17:44.000Z</time>
      </trkpt>
      <trkpt lat="43.19681" lon="5.70741">
        <ele>59.400001525879</ele>
        <time>2017-07-15T17:17:47.000Z</time>
      </trkpt>
      <trkpt lat="43.19684" lon="5.70758">
        <ele>58.799999237061</ele>
        <time>2017-07-15T17:17:49.000Z</time>
      </trkpt>
      <trkpt lat="43.19692" lon="5.7081">
        <ele>57.400001525879</ele>
        <time>2017-07-15T17:17:55.000Z</time>
      </trkpt>
      <trkpt lat="43.19693" lon="5.70818">
        <ele>57.400001525879</ele>
        <time>2017-07-15T17:17:56.000Z</time>
      </trkpt>
      <trkpt lat="43.19701" lon="5.7087">
        <ele>56.599998474121</ele>
        <time>2017-07-15T17:18:03.000Z</time>
      </trkpt>
      <trkpt lat="43.1971" lon="5.7091">
        <ele>57.400001525879</ele>
        <time>2017-07-15T17:18:10.000Z</time>
      </trkpt>
      <trkpt lat="43.19716" lon="5.70941">
        <ele>58.599998474121</ele>
        <time>2017-07-15T17:18:17.000Z</time>
      </trkpt>
      <trkpt lat="43.19724" lon="5.70977">
        <ele>59.799999237061</ele>
        <time>2017-07-15T17:18:24.000Z</time>
      </trkpt>
      <trkpt lat="43.19727" lon="5.70997">
        <ele>60.599998474121</ele>
        <time>2017-07-15T17:18:28.000Z</time>
      </trkpt>
      <trkpt lat="43.1973" lon="5.71014">
        <ele>61.200000762939</ele>
        <time>2017-07-15T17:18:32.000Z</time>
      </trkpt>
      <trkpt lat="43.19731" lon="5.71026">
        <ele>61.599998474121</ele>
        <time>2017-07-15T17:18:37.000Z</time>
      </trkpt>
      <trkpt lat="43.19737" lon="5.7103">
        <ele>62</ele>
        <time>2017-07-15T17:18:40.000Z</time>
      </trkpt>
      <trkpt lat="43.19739" lon="5.71028">
        <ele>62</ele>
        <time>2017-07-15T17:18:41.000Z</time>
      </trkpt>
      <trkpt lat="43.19745" lon="5.71026">
        <ele>62.400001525879</ele>
        <time>2017-07-15T17:18:44.000Z</time>
      </trkpt>
      <trkpt lat="43.19749" lon="5.71024">
        <ele>62.599998474121</ele>
        <time>2017-07-15T17:18:46.000Z</time>
      </trkpt>
      <trkpt lat="43.19756" lon="5.71024">
        <ele>63</ele>
        <time>2017-07-15T17:18:48.000Z</time>
      </trkpt>
      <trkpt lat="43.19779" lon="5.71012">
        <ele>63.599998474121</ele>
        <time>2017-07-15T17:18:56.000Z</time>
      </trkpt>
      <trkpt lat="43.19809" lon="5.71013">
        <ele>64.599998474121</ele>
        <time>2017-07-15T17:19:03.000Z</time>
      </trkpt>
      <trkpt lat="43.19821" lon="5.71009">
        <ele>64.800003051758</ele>
        <time>2017-07-15T17:19:06.000Z</time>
      </trkpt>
      <trkpt lat="43.1984" lon="5.71005">
        <ele>65.199996948242</ele>
        <time>2017-07-15T17:19:11.000Z</time>
      </trkpt>
      <trkpt lat="43.19856" lon="5.71004">
        <ele>65.800003051758</ele>
        <time>2017-07-15T17:19:15.000Z</time>
      </trkpt>
      <trkpt lat="43.19864" lon="5.71005">
        <ele>66.199996948242</ele>
        <time>2017-07-15T17:19:17.000Z</time>
      </trkpt>
      <trkpt lat="43.19872" lon="5.71005">
        <ele>66.599998474121</ele>
        <time>2017-07-15T17:19:19.000Z</time>
      </trkpt>
      <trkpt lat="43.1988" lon="5.71006">
        <ele>67</ele>
        <time>2017-07-15T17:19:21.000Z</time>
      </trkpt>
      <trkpt lat="43.19892" lon="5.71006">
        <ele>67.800003051758</ele>
        <time>2017-07-15T17:19:24.000Z</time>
      </trkpt>
      <trkpt lat="43.19904" lon="5.71006">
        <ele>68.599998474121</ele>
        <time>2017-07-15T17:19:27.000Z</time>
      </trkpt>
      <trkpt lat="43.19908" lon="5.71006">
        <ele>69</ele>
        <time>2017-07-15T17:19:28.000Z</time>
      </trkpt>
      <trkpt lat="43.19926" lon="5.71007">
        <ele>70.199996948242</ele>
        <time>2017-07-15T17:19:32.000Z</time>
      </trkpt>
      <trkpt lat="43.19941" lon="5.7101">
        <ele>71</ele>
        <time>2017-07-15T17:19:36.000Z</time>
      </trkpt>
      <trkpt lat="43.19945" lon="5.7101">
        <ele>71.199996948242</ele>
        <time>2017-07-15T17:19:37.000Z</time>
      </trkpt>
      <trkpt lat="43.19961" lon="5.71016">
        <ele>72.199996948242</ele>
        <time>2017-07-15T17:19:42.000Z</time>
      </trkpt>
      <trkpt lat="43.19967" lon="5.71018">
        <ele>72.400001525879</ele>
        <time>2017-07-15T17:19:44.000Z</time>
      </trkpt>
      <trkpt lat="43.19981" lon="5.71023">
        <ele>73.199996948242</ele>
        <time>2017-07-15T17:19:49.000Z</time>
      </trkpt>
      <trkpt lat="43.20007" lon="5.71029">
        <ele>74</ele>
        <time>2017-07-15T17:19:55.000Z</time>
      </trkpt>
      <trkpt lat="43.20011" lon="5.7103">
        <ele>74.199996948242</ele>
        <time>2017-07-15T17:19:56.000Z</time>
      </trkpt>
      <trkpt lat="43.20025" lon="5.71033">
        <ele>74.400001525879</ele>
        <time>2017-07-15T17:19:59.000Z</time>
      </trkpt>
      <trkpt lat="43.20042" lon="5.71041">
        <ele>74.800003051758</ele>
        <time>2017-07-15T17:20:03.000Z</time>
      </trkpt>
      <trkpt lat="43.20059" lon="5.71049">
        <ele>75.400001525879</ele>
        <time>2017-07-15T17:20:07.000Z</time>
      </trkpt>
      <trkpt lat="43.20075" lon="5.7106">
        <ele>75.800003051758</ele>
        <time>2017-07-15T17:20:11.000Z</time>
      </trkpt>
      <trkpt lat="43.20083" lon="5.71067">
        <ele>75.800003051758</ele>
        <time>2017-07-15T17:20:13.000Z</time>
      </trkpt>
      <trkpt lat="43.20091" lon="5.71072">
        <ele>76</ele>
        <time>2017-07-15T17:20:15.000Z</time>
      </trkpt>
      <trkpt lat="43.20107" lon="5.71079">
        <ele>76.199996948242</ele>
        <time>2017-07-15T17:20:19.000Z</time>
      </trkpt>
      <trkpt lat="43.20134" lon="5.71084">
        <ele>77</ele>
        <time>2017-07-15T17:20:25.000Z</time>
      </trkpt>
      <trkpt lat="43.20166" lon="5.71088">
        <ele>77.599998474121</ele>
        <time>2017-07-15T17:20:32.000Z</time>
      </trkpt>
      <trkpt lat="43.20175" lon="5.71091">
        <ele>78</ele>
        <time>2017-07-15T17:20:34.000Z</time>
      </trkpt>
      <trkpt lat="43.20207" lon="5.71097">
        <ele>79.400001525879</ele>
        <time>2017-07-15T17:20:41.000Z</time>
      </trkpt>
      <trkpt lat="43.20217" lon="5.71098">
        <ele>79.800003051758</ele>
        <time>2017-07-15T17:20:43.000Z</time>
      </trkpt>
      <trkpt lat="43.20256" lon="5.71105">
        <ele>81.400001525879</ele>
        <time>2017-07-15T17:20:51.000Z</time>
      </trkpt>
      <trkpt lat="43.20275" lon="5.7111">
        <ele>82</ele>
        <time>2017-07-15T17:20:55.000Z</time>
      </trkpt>
      <trkpt lat="43.203" lon="5.71116">
        <ele>82.599998474121</ele>
        <time>2017-07-15T17:21:00.000Z</time>
      </trkpt>
      <trkpt lat="43.20318" lon="5.7112">
        <ele>83.199996948242</ele>
        <time>2017-07-15T17:21:04.000Z</time>
      </trkpt>
      <trkpt lat="43.2033" lon="5.71123">
        <ele>83.400001525879</ele>
        <time>2017-07-15T17:21:07.000Z</time>
      </trkpt>
      <trkpt lat="43.20342" lon="5.71125">
        <ele>83.599998474121</ele>
        <time>2017-07-15T17:21:10.000Z</time>
      </trkpt>
      <trkpt lat="43.20354" lon="5.71127">
        <ele>84</ele>
        <time>2017-07-15T17:21:13.000Z</time>
      </trkpt>
      <trkpt lat="43.20362" lon="5.71127">
        <ele>84.400001525879</ele>
        <time>2017-07-15T17:21:15.000Z</time>
      </trkpt>
      <trkpt lat="43.20376" lon="5.71128">
        <ele>85.199996948242</ele>
        <time>2017-07-15T17:21:19.000Z</time>
      </trkpt>
      <trkpt lat="43.2038" lon="5.71128">
        <ele>85.400001525879</ele>
        <time>2017-07-15T17:21:20.000Z</time>
      </trkpt>
      <trkpt lat="43.20397" lon="5.71126">
        <ele>86</ele>
        <time>2017-07-15T17:21:24.000Z</time>
      </trkpt>
      <trkpt lat="43.20416" lon="5.71123">
        <ele>87</ele>
        <time>2017-07-15T17:21:28.000Z</time>
      </trkpt>
      <trkpt lat="43.2043" lon="5.71121">
        <ele>87.599998474121</ele>
        <time>2017-07-15T17:21:31.000Z</time>
      </trkpt>
      <trkpt lat="43.20452" lon="5.71117">
        <ele>88</ele>
        <time>2017-07-15T17:21:36.000Z</time>
      </trkpt>
      <trkpt lat="43.2047" lon="5.71115">
        <ele>88.400001525879</ele>
        <time>2017-07-15T17:21:40.000Z</time>
      </trkpt>
      <trkpt lat="43.2049" lon="5.71111">
        <ele>89</ele>
        <time>2017-07-15T17:21:45.000Z</time>
      </trkpt>
      <trkpt lat="43.20493" lon="5.71109">
        <ele>89.199996948242</ele>
        <time>2017-07-15T17:21:46.000Z</time>
      </trkpt>
      <trkpt lat="43.20512" lon="5.71103">
        <ele>90</ele>
        <time>2017-07-15T17:21:51.000Z</time>
      </trkpt>
      <trkpt lat="43.20522" lon="5.711">
        <ele>90.400001525879</ele>
        <time>2017-07-15T17:21:53.000Z</time>
      </trkpt>
      <trkpt lat="43.20526" lon="5.71099">
        <ele>90.599998474121</ele>
        <time>2017-07-15T17:21:54.000Z</time>
      </trkpt>
      <trkpt lat="43.20535" lon="5.71097">
        <ele>91.199996948242</ele>
        <time>2017-07-15T17:21:56.000Z</time>
      </trkpt>
      <trkpt lat="43.20547" lon="5.71093">
        <ele>91.599998474121</ele>
        <time>2017-07-15T17:21:59.000Z</time>
      </trkpt>
      <trkpt lat="43.20563" lon="5.71088">
        <ele>92.800003051758</ele>
        <time>2017-07-15T17:22:03.000Z</time>
      </trkpt>
      <trkpt lat="43.2057" lon="5.71085">
        <ele>93.400001525879</ele>
        <time>2017-07-15T17:22:05.000Z</time>
      </trkpt>
      <trkpt lat="43.2058" lon="5.71081">
        <ele>94.199996948242</ele>
        <time>2017-07-15T17:22:08.000Z</time>
      </trkpt>
      <trkpt lat="43.20597" lon="5.71072">
        <ele>95.599998474121</ele>
        <time>2017-07-15T17:22:13.000Z</time>
      </trkpt>
      <trkpt lat="43.206" lon="5.71071">
        <ele>95.800003051758</ele>
        <time>2017-07-15T17:22:14.000Z</time>
      </trkpt>
      <trkpt lat="43.20616" lon="5.71063">
        <ele>97</ele>
        <time>2017-07-15T17:22:19.000Z</time>
      </trkpt>
      <trkpt lat="43.20626" lon="5.71059">
        <ele>97.800003051758</ele>
        <time>2017-07-15T17:22:22.000Z</time>
      </trkpt>
      <trkpt lat="43.20644" lon="5.71053">
        <ele>98.800003051758</ele>
        <time>2017-07-15T17:22:27.000Z</time>
      </trkpt>
      <trkpt lat="43.20654" lon="5.71048">
        <ele>99.400001525879</ele>
        <time>2017-07-15T17:22:30.000Z</time>
      </trkpt>
      <trkpt lat="43.20668" lon="5.71042">
        <ele>100</ele>
        <time>2017-07-15T17:22:34.000Z</time>
      </trkpt>
      <trkpt lat="43.20685" lon="5.71035">
        <ele>101</ele>
        <time>2017-07-15T17:22:39.000Z</time>
      </trkpt>
      <trkpt lat="43.20692" lon="5.71032">
        <ele>101.19999694824</ele>
        <time>2017-07-15T17:22:41.000Z</time>
      </trkpt>
      <trkpt lat="43.20702" lon="5.71027">
        <ele>101.59999847412</ele>
        <time>2017-07-15T17:22:44.000Z</time>
      </trkpt>
      <trkpt lat="43.2072" lon="5.71018">
        <ele>102</ele>
        <time>2017-07-15T17:22:49.000Z</time>
      </trkpt>
      <trkpt lat="43.20727" lon="5.71014">
        <ele>102.40000152588</ele>
        <time>2017-07-15T17:22:51.000Z</time>
      </trkpt>
      <trkpt lat="43.20738" lon="5.7101">
        <ele>103.59999847412</ele>
        <time>2017-07-15T17:22:54.000Z</time>
      </trkpt>
      <trkpt lat="43.20753" lon="5.71005">
        <ele>105</ele>
        <time>2017-07-15T17:22:58.000Z</time>
      </trkpt>
      <trkpt lat="43.2076" lon="5.71002">
        <ele>105.59999847412</ele>
        <time>2017-07-15T17:23:00.000Z</time>
      </trkpt>
      <trkpt lat="43.20779" lon="5.70996">
        <ele>107</ele>
        <time>2017-07-15T17:23:05.000Z</time>
      </trkpt>
      <trkpt lat="43.20795" lon="5.70992">
        <ele>108.19999694824</ele>
        <time>2017-07-15T17:23:09.000Z</time>
      </trkpt>
      <trkpt lat="43.20799" lon="5.70991">
        <ele>108.40000152588</ele>
        <time>2017-07-15T17:23:10.000Z</time>
      </trkpt>
      <trkpt lat="43.20814" lon="5.70988">
        <ele>109.59999847412</ele>
        <time>2017-07-15T17:23:14.000Z</time>
      </trkpt>
      <trkpt lat="43.20827" lon="5.70986">
        <ele>110.40000152588</ele>
        <time>2017-07-15T17:23:17.000Z</time>
      </trkpt>
      <trkpt lat="43.20849" lon="5.70983">
        <ele>111.80000305176</ele>
        <time>2017-07-15T17:23:22.000Z</time>
      </trkpt>
      <trkpt lat="43.20862" lon="5.70981">
        <ele>112.40000152588</ele>
        <time>2017-07-15T17:23:25.000Z</time>
      </trkpt>
      <trkpt lat="43.20867" lon="5.70981">
        <ele>112.59999847412</ele>
        <time>2017-07-15T17:23:26.000Z</time>
      </trkpt>
      <trkpt lat="43.20875" lon="5.7098">
        <ele>113</ele>
        <time>2017-07-15T17:23:28.000Z</time>
      </trkpt>
      <trkpt lat="43.20889" lon="5.7098">
        <ele>113.80000305176</ele>
        <time>2017-07-15T17:23:31.000Z</time>
      </trkpt>
      <trkpt lat="43.20893" lon="5.70981">
        <ele>114</ele>
        <time>2017-07-15T17:23:32.000Z</time>
      </trkpt>
      <trkpt lat="43.20905" lon="5.70984">
        <ele>114.40000152588</ele>
        <time>2017-07-15T17:23:35.000Z</time>
      </trkpt>
      <trkpt lat="43.20924" lon="5.70991">
        <ele>115</ele>
        <time>2017-07-15T17:23:40.000Z</time>
      </trkpt>
      <trkpt lat="43.20952" lon="5.70998">
        <ele>115</ele>
        <time>2017-07-15T17:23:47.000Z</time>
      </trkpt>
      <trkpt lat="43.20964" lon="5.71">
        <ele>115.19999694824</ele>
        <time>2017-07-15T17:23:50.000Z</time>
      </trkpt>
      <trkpt lat="43.20995" lon="5.70996">
        <ele>117</ele>
        <time>2017-07-15T17:23:58.000Z</time>
      </trkpt>
      <trkpt lat="43.21028" lon="5.70995">
        <ele>119</ele>
        <time>2017-07-15T17:24:06.000Z</time>
      </trkpt>
      <trkpt lat="43.21032" lon="5.70995">
        <ele>119.40000152588</ele>
        <time>2017-07-15T17:24:07.000Z</time>
      </trkpt>
      <trkpt lat="43.21069" lon="5.71002">
        <ele>121.19999694824</ele>
        <time>2017-07-15T17:24:16.000Z</time>
      </trkpt>
      <trkpt lat="43.21081" lon="5.71003">
        <ele>121.80000305176</ele>
        <time>2017-07-15T17:24:19.000Z</time>
      </trkpt>
      <trkpt lat="43.21094" lon="5.71">
        <ele>122.80000305176</ele>
        <time>2017-07-15T17:24:22.000Z</time>
      </trkpt>
      <trkpt lat="43.21097" lon="5.70998">
        <ele>123.19999694824</ele>
        <time>2017-07-15T17:24:23.000Z</time>
      </trkpt>
      <trkpt lat="43.21101" lon="5.70996">
        <ele>123.59999847412</ele>
        <time>2017-07-15T17:24:24.000Z</time>
      </trkpt>
      <trkpt lat="43.21105" lon="5.70995">
        <ele>124</ele>
        <time>2017-07-15T17:24:25.000Z</time>
      </trkpt>
      <trkpt lat="43.21118" lon="5.70993">
        <ele>125</ele>
        <time>2017-07-15T17:24:28.000Z</time>
      </trkpt>
      <trkpt lat="43.21122" lon="5.70993">
        <ele>125.19999694824</ele>
        <time>2017-07-15T17:24:29.000Z</time>
      </trkpt>
      <trkpt lat="43.21138" lon="5.70993">
        <ele>126</ele>
        <time>2017-07-15T17:24:33.000Z</time>
      </trkpt>
      <trkpt lat="43.21153" lon="5.70996">
        <ele>126.59999847412</ele>
        <time>2017-07-15T17:24:37.000Z</time>
      </trkpt>
      <trkpt lat="43.21157" lon="5.70997">
        <ele>126.59999847412</ele>
        <time>2017-07-15T17:24:38.000Z</time>
      </trkpt>
      <trkpt lat="43.21175" lon="5.71005">
        <ele>127.19999694824</ele>
        <time>2017-07-15T17:24:43.000Z</time>
      </trkpt>
      <trkpt lat="43.21179" lon="5.71008">
        <ele>127.19999694824</ele>
        <time>2017-07-15T17:24:44.000Z</time>
      </trkpt>
      <trkpt lat="43.21201" lon="5.7102">
        <ele>128.80000305176</ele>
        <time>2017-07-15T17:24:50.000Z</time>
      </trkpt>
      <trkpt lat="43.21205" lon="5.71022">
        <ele>129</ele>
        <time>2017-07-15T17:24:51.000Z</time>
      </trkpt>
      <trkpt lat="43.21209" lon="5.71023">
        <ele>129.39999389648</ele>
        <time>2017-07-15T17:24:52.000Z</time>
      </trkpt>
      <trkpt lat="43.21235" lon="5.71038">
        <ele>131.19999694824</ele>
        <time>2017-07-15T17:24:59.000Z</time>
      </trkpt>
      <trkpt lat="43.21239" lon="5.71041">
        <ele>131.39999389648</ele>
        <time>2017-07-15T17:25:00.000Z</time>
      </trkpt>
      <trkpt lat="43.21249" lon="5.71049">
        <ele>132</ele>
        <time>2017-07-15T17:25:03.000Z</time>
      </trkpt>
      <trkpt lat="43.21264" lon="5.71061">
        <ele>133</ele>
        <time>2017-07-15T17:25:07.000Z</time>
      </trkpt>
      <trkpt lat="43.21268" lon="5.71065">
        <ele>133.39999389648</ele>
        <time>2017-07-15T17:25:08.000Z</time>
      </trkpt>
      <trkpt lat="43.21287" lon="5.71081">
        <ele>134.80000305176</ele>
        <time>2017-07-15T17:25:13.000Z</time>
      </trkpt>
      <trkpt lat="43.21292" lon="5.71085">
        <ele>135.19999694824</ele>
        <time>2017-07-15T17:25:14.000Z</time>
      </trkpt>
      <trkpt lat="43.21309" lon="5.711">
        <ele>136.39999389648</ele>
        <time>2017-07-15T17:25:18.000Z</time>
      </trkpt>
      <trkpt lat="43.21316" lon="5.71106">
        <ele>137</ele>
        <time>2017-07-15T17:25:20.000Z</time>
      </trkpt>
      <trkpt lat="43.2132" lon="5.71109">
        <ele>137.19999694824</ele>
        <time>2017-07-15T17:25:21.000Z</time>
      </trkpt>
      <trkpt lat="43.21329" lon="5.71114">
        <ele>137.80000305176</ele>
        <time>2017-07-15T17:25:23.000Z</time>
      </trkpt>
      <trkpt lat="43.21337" lon="5.71119">
        <ele>138.60000610352</ele>
        <time>2017-07-15T17:25:25.000Z</time>
      </trkpt>
      <trkpt lat="43.21345" lon="5.71125">
        <ele>139.19999694824</ele>
        <time>2017-07-15T17:25:27.000Z</time>
      </trkpt>
      <trkpt lat="43.21353" lon="5.71131">
        <ele>139.60000610352</ele>
        <time>2017-07-15T17:25:29.000Z</time>
      </trkpt>
      <trkpt lat="43.21364" lon="5.71143">
        <ele>140</ele>
        <time>2017-07-15T17:25:32.000Z</time>
      </trkpt>
      <trkpt lat="43.21367" lon="5.71147">
        <ele>140.19999694824</ele>
        <time>2017-07-15T17:25:33.000Z</time>
      </trkpt>
      <trkpt lat="43.21387" lon="5.71162">
        <ele>141.19999694824</ele>
        <time>2017-07-15T17:25:38.000Z</time>
      </trkpt>
      <trkpt lat="43.21398" lon="5.7117">
        <ele>141.80000305176</ele>
        <time>2017-07-15T17:25:41.000Z</time>
      </trkpt>
      <trkpt lat="43.21408" lon="5.71179">
        <ele>142.19999694824</ele>
        <time>2017-07-15T17:25:44.000Z</time>
      </trkpt>
      <trkpt lat="43.21415" lon="5.71185">
        <ele>142.60000610352</ele>
        <time>2017-07-15T17:25:46.000Z</time>
      </trkpt>
      <trkpt lat="43.21419" lon="5.71188">
        <ele>142.80000305176</ele>
        <time>2017-07-15T17:25:47.000Z</time>
      </trkpt>
      <trkpt lat="43.21433" lon="5.71199">
        <ele>143.80000305176</ele>
        <time>2017-07-15T17:25:51.000Z</time>
      </trkpt>
      <trkpt lat="43.21437" lon="5.71201">
        <ele>144.19999694824</ele>
        <time>2017-07-15T17:25:52.000Z</time>
      </trkpt>
      <trkpt lat="43.2144" lon="5.71204">
        <ele>144.60000610352</ele>
        <time>2017-07-15T17:25:53.000Z</time>
      </trkpt>
      <trkpt lat="43.21448" lon="5.71209">
        <ele>145.39999389648</ele>
        <time>2017-07-15T17:25:55.000Z</time>
      </trkpt>
      <trkpt lat="43.21463" lon="5.71218">
        <ele>147.19999694824</ele>
        <time>2017-07-15T17:25:59.000Z</time>
      </trkpt>
      <trkpt lat="43.21474" lon="5.71225">
        <ele>148.19999694824</ele>
        <time>2017-07-15T17:26:02.000Z</time>
      </trkpt>
      <trkpt lat="43.21478" lon="5.71228">
        <ele>148.60000610352</ele>
        <time>2017-07-15T17:26:03.000Z</time>
      </trkpt>
      <trkpt lat="43.21489" lon="5.71236">
        <ele>149.80000305176</ele>
        <time>2017-07-15T17:26:06.000Z</time>
      </trkpt>
      <trkpt lat="43.21503" lon="5.71249">
        <ele>150.80000305176</ele>
        <time>2017-07-15T17:26:10.000Z</time>
      </trkpt>
      <trkpt lat="43.21509" lon="5.71257">
        <ele>151.39999389648</ele>
        <time>2017-07-15T17:26:12.000Z</time>
      </trkpt>
      <trkpt lat="43.21528" lon="5.71284">
        <ele>152.19999694824</ele>
        <time>2017-07-15T17:26:18.000Z</time>
      </trkpt>
      <trkpt lat="43.21537" lon="5.71296">
        <ele>152.60000610352</ele>
        <time>2017-07-15T17:26:21.000Z</time>
      </trkpt>
      <trkpt lat="43.21548" lon="5.71311">
        <ele>153.39999389648</ele>
        <time>2017-07-15T17:26:25.000Z</time>
      </trkpt>
      <trkpt lat="43.21555" lon="5.71324">
        <ele>154.19999694824</ele>
        <time>2017-07-15T17:26:28.000Z</time>
      </trkpt>
      <trkpt lat="43.21565" lon="5.71344">
        <ele>155.19999694824</ele>
        <time>2017-07-15T17:26:33.000Z</time>
      </trkpt>
      <trkpt lat="43.21572" lon="5.71358">
        <ele>155.80000305176</ele>
        <time>2017-07-15T17:26:37.000Z</time>
      </trkpt>
      <trkpt lat="43.21575" lon="5.71366">
        <ele>156</ele>
        <time>2017-07-15T17:26:40.000Z</time>
      </trkpt>
      <trkpt lat="43.21576" lon="5.71369">
        <ele>156</ele>
        <time>2017-07-15T17:26:42.000Z</time>
      </trkpt>
      <trkpt lat="43.21575" lon="5.71371">
        <ele>156</ele>
        <time>2017-07-15T17:26:45.000Z</time>
      </trkpt>
      <trkpt lat="43.21576" lon="5.71373">
        <ele>156</ele>
        <time>2017-07-15T17:30:03.000Z</time>
      </trkpt>
      <trkpt lat="43.21577" lon="5.71376">
        <ele>156</ele>
        <time>2017-07-15T17:30:05.000Z</time>
      </trkpt>
      <trkpt lat="43.21585" lon="5.71398">
        <ele>156.60000610352</ele>
        <time>2017-07-15T17:30:13.000Z</time>
      </trkpt>
      <trkpt lat="43.21588" lon="5.71404">
        <ele>156.80000305176</ele>
        <time>2017-07-15T17:30:15.000Z</time>
      </trkpt>
      <trkpt lat="43.21597" lon="5.71423">
        <ele>157.80000305176</ele>
        <time>2017-07-15T17:30:21.000Z</time>
      </trkpt>
      <trkpt lat="43.21606" lon="5.71445">
        <ele>158.19999694824</ele>
        <time>2017-07-15T17:30:27.000Z</time>
      </trkpt>
      <trkpt lat="43.21609" lon="5.71452">
        <ele>158.39999389648</ele>
        <time>2017-07-15T17:30:29.000Z</time>
      </trkpt>
      <trkpt lat="43.2162" lon="5.71478">
        <ele>159.39999389648</ele>
        <time>2017-07-15T17:30:36.000Z</time>
      </trkpt>
      <trkpt lat="43.21621" lon="5.71482">
        <ele>159.80000305176</ele>
        <time>2017-07-15T17:30:37.000Z</time>
      </trkpt>
      <trkpt lat="43.21629" lon="5.71502">
        <ele>161.39999389648</ele>
        <time>2017-07-15T17:30:42.000Z</time>
      </trkpt>
      <trkpt lat="43.21633" lon="5.7151">
        <ele>162</ele>
        <time>2017-07-15T17:30:44.000Z</time>
      </trkpt>
      <trkpt lat="43.21638" lon="5.71522">
        <ele>162.60000610352</ele>
        <time>2017-07-15T17:30:47.000Z</time>
      </trkpt>
      <trkpt lat="43.21646" lon="5.71543">
        <ele>163.80000305176</ele>
        <time>2017-07-15T17:30:52.000Z</time>
      </trkpt>
      <trkpt lat="43.2165" lon="5.71549">
        <ele>164.19999694824</ele>
        <time>2017-07-15T17:30:54.000Z</time>
      </trkpt>
      <trkpt lat="43.21654" lon="5.71554">
        <ele>164.80000305176</ele>
        <time>2017-07-15T17:30:56.000Z</time>
      </trkpt>
      <trkpt lat="43.21661" lon="5.71562">
        <ele>165.60000610352</ele>
        <time>2017-07-15T17:31:00.000Z</time>
      </trkpt>
      <trkpt lat="43.21662" lon="5.71563">
        <ele>165.60000610352</ele>
        <time>2017-07-15T17:31:01.000Z</time>
      </trkpt>
      <trkpt lat="43.21661" lon="5.71575">
        <ele>165.39999389648</ele>
        <time>2017-07-15T17:31:05.000Z</time>
      </trkpt>
      <trkpt lat="43.21652" lon="5.71598">
        <ele>163.80000305176</ele>
        <time>2017-07-15T17:31:10.000Z</time>
      </trkpt>
      <trkpt lat="43.21632" lon="5.71628">
        <ele>159.60000610352</ele>
        <time>2017-07-15T17:31:16.000Z</time>
      </trkpt>
      <trkpt lat="43.21628" lon="5.71632">
        <ele>158.80000305176</ele>
        <time>2017-07-15T17:31:17.000Z</time>
      </trkpt>
      <trkpt lat="43.21626" lon="5.71637">
        <ele>158</ele>
        <time>2017-07-15T17:31:18.000Z</time>
      </trkpt>
      <trkpt lat="43.21618" lon="5.71652">
        <ele>156.60000610352</ele>
        <time>2017-07-15T17:31:21.000Z</time>
      </trkpt>
      <trkpt lat="43.21616" lon="5.71657">
        <ele>156.19999694824</ele>
        <time>2017-07-15T17:31:22.000Z</time>
      </trkpt>
      <trkpt lat="43.21612" lon="5.71667">
        <ele>155.60000610352</ele>
        <time>2017-07-15T17:31:24.000Z</time>
      </trkpt>
      <trkpt lat="43.21609" lon="5.71673">
        <ele>155.19999694824</ele>
        <time>2017-07-15T17:31:25.000Z</time>
      </trkpt>
      <trkpt lat="43.21605" lon="5.71685">
        <ele>154.39999389648</ele>
        <time>2017-07-15T17:31:27.000Z</time>
      </trkpt>
      <trkpt lat="43.21599" lon="5.71709">
        <ele>153.60000610352</ele>
        <time>2017-07-15T17:31:31.000Z</time>
      </trkpt>
      <trkpt lat="43.21598" lon="5.71715">
        <ele>153.39999389648</ele>
        <time>2017-07-15T17:31:32.000Z</time>
      </trkpt>
      <trkpt lat="43.21595" lon="5.71733">
        <ele>153</ele>
        <time>2017-07-15T17:31:35.000Z</time>
      </trkpt>
      <trkpt lat="43.21592" lon="5.71747">
        <ele>152.60000610352</ele>
        <time>2017-07-15T17:31:38.000Z</time>
      </trkpt>
      <trkpt lat="43.2159" lon="5.71751">
        <ele>152.60000610352</ele>
        <time>2017-07-15T17:31:39.000Z</time>
      </trkpt>
      <trkpt lat="43.21585" lon="5.71773">
        <ele>151.60000610352</ele>
        <time>2017-07-15T17:31:44.000Z</time>
      </trkpt>
      <trkpt lat="43.21576" lon="5.71794">
        <ele>150.39999389648</ele>
        <time>2017-07-15T17:31:48.000Z</time>
      </trkpt>
      <trkpt lat="43.21571" lon="5.71807">
        <ele>149.19999694824</ele>
        <time>2017-07-15T17:31:50.000Z</time>
      </trkpt>
      <trkpt lat="43.21563" lon="5.71834">
        <ele>146.19999694824</ele>
        <time>2017-07-15T17:31:54.000Z</time>
      </trkpt>
      <trkpt lat="43.21561" lon="5.71841">
        <ele>145.60000610352</ele>
        <time>2017-07-15T17:31:55.000Z</time>
      </trkpt>
      <trkpt lat="43.21556" lon="5.7186">
        <ele>144.19999694824</ele>
        <time>2017-07-15T17:31:58.000Z</time>
      </trkpt>
      <trkpt lat="43.21553" lon="5.7188">
        <ele>143.60000610352</ele>
        <time>2017-07-15T17:32:01.000Z</time>
      </trkpt>
      <trkpt lat="43.21553" lon="5.719">
        <ele>142.60000610352</ele>
        <time>2017-07-15T17:32:04.000Z</time>
      </trkpt>
      <trkpt lat="43.21554" lon="5.71907">
        <ele>142.19999694824</ele>
        <time>2017-07-15T17:32:05.000Z</time>
      </trkpt>
      <trkpt lat="43.21556" lon="5.71915">
        <ele>141.80000305176</ele>
        <time>2017-07-15T17:32:06.000Z</time>
      </trkpt>
      <trkpt lat="43.21557" lon="5.71922">
        <ele>141.39999389648</ele>
        <time>2017-07-15T17:32:07.000Z</time>
      </trkpt>
      <trkpt lat="43.2156" lon="5.71946">
        <ele>140.60000610352</ele>
        <time>2017-07-15T17:32:10.000Z</time>
      </trkpt>
      <trkpt lat="43.21561" lon="5.71961">
        <ele>140.19999694824</ele>
        <time>2017-07-15T17:32:12.000Z</time>
      </trkpt>
      <trkpt lat="43.21561" lon="5.71968">
        <ele>140</ele>
        <time>2017-07-15T17:32:13.000Z</time>
      </trkpt>
      <trkpt lat="43.21559" lon="5.71985">
        <ele>139.80000305176</ele>
        <time>2017-07-15T17:32:16.000Z</time>
      </trkpt>
      <trkpt lat="43.21558" lon="5.7199">
        <ele>139.80000305176</ele>
        <time>2017-07-15T17:32:17.000Z</time>
      </trkpt>
      <trkpt lat="43.21546" lon="5.72011">
        <ele>138.39999389648</ele>
        <time>2017-07-15T17:32:21.000Z</time>
      </trkpt>
      <trkpt lat="43.21542" lon="5.72016">
        <ele>137.60000610352</ele>
        <time>2017-07-15T17:32:22.000Z</time>
      </trkpt>
      <trkpt lat="43.21533" lon="5.72032">
        <ele>135.80000305176</ele>
        <time>2017-07-15T17:32:25.000Z</time>
      </trkpt>
      <trkpt lat="43.21524" lon="5.7205">
        <ele>134</ele>
        <time>2017-07-15T17:32:28.000Z</time>
      </trkpt>
      <trkpt lat="43.21518" lon="5.72062">
        <ele>132.80000305176</ele>
        <time>2017-07-15T17:32:30.000Z</time>
      </trkpt>
      <trkpt lat="43.21508" lon="5.72082">
        <ele>131.19999694824</ele>
        <time>2017-07-15T17:32:33.000Z</time>
      </trkpt>
      <trkpt lat="43.21504" lon="5.72088">
        <ele>130.80000305176</ele>
        <time>2017-07-15T17:32:34.000Z</time>
      </trkpt>
      <trkpt lat="43.21498" lon="5.721">
        <ele>129.80000305176</ele>
        <time>2017-07-15T17:32:36.000Z</time>
      </trkpt>
      <trkpt lat="43.2149" lon="5.72111">
        <ele>129</ele>
        <time>2017-07-15T17:32:38.000Z</time>
      </trkpt>
      <trkpt lat="43.21483" lon="5.72123">
        <ele>128</ele>
        <time>2017-07-15T17:32:40.000Z</time>
      </trkpt>
      <trkpt lat="43.21476" lon="5.72134">
        <ele>127.19999694824</ele>
        <time>2017-07-15T17:32:42.000Z</time>
      </trkpt>
      <trkpt lat="43.21469" lon="5.72144">
        <ele>126.40000152588</ele>
        <time>2017-07-15T17:32:44.000Z</time>
      </trkpt>
      <trkpt lat="43.21466" lon="5.72149">
        <ele>126</ele>
        <time>2017-07-15T17:32:45.000Z</time>
      </trkpt>
      <trkpt lat="43.21463" lon="5.72155">
        <ele>125.59999847412</ele>
        <time>2017-07-15T17:32:46.000Z</time>
      </trkpt>
      <trkpt lat="43.21456" lon="5.72165">
        <ele>125</ele>
        <time>2017-07-15T17:32:48.000Z</time>
      </trkpt>
      <trkpt lat="43.21453" lon="5.7217">
        <ele>124.19999694824</ele>
        <time>2017-07-15T17:32:49.000Z</time>
      </trkpt>
      <trkpt lat="43.21446" lon="5.72181">
        <ele>122.59999847412</ele>
        <time>2017-07-15T17:32:51.000Z</time>
      </trkpt>
      <trkpt lat="43.21444" lon="5.72187">
        <ele>122</ele>
        <time>2017-07-15T17:32:52.000Z</time>
      </trkpt>
      <trkpt lat="43.21438" lon="5.72198">
        <ele>120.59999847412</ele>
        <time>2017-07-15T17:32:54.000Z</time>
      </trkpt>
      <trkpt lat="43.21428" lon="5.72221">
        <ele>118</ele>
        <time>2017-07-15T17:32:58.000Z</time>
      </trkpt>
      <trkpt lat="43.21424" lon="5.72231">
        <ele>117</ele>
        <time>2017-07-15T17:33:00.000Z</time>
      </trkpt>
      <trkpt lat="43.21421" lon="5.72236">
        <ele>116.59999847412</ele>
        <time>2017-07-15T17:33:01.000Z</time>
      </trkpt>
      <trkpt lat="43.21414" lon="5.72251">
        <ele>115.19999694824</ele>
        <time>2017-07-15T17:33:04.000Z</time>
      </trkpt>
      <trkpt lat="43.21408" lon="5.72265">
        <ele>113.80000305176</ele>
        <time>2017-07-15T17:33:07.000Z</time>
      </trkpt>
      <trkpt lat="43.21401" lon="5.72279">
        <ele>112.59999847412</ele>
        <time>2017-07-15T17:33:10.000Z</time>
      </trkpt>
      <trkpt lat="43.21395" lon="5.7229">
        <ele>111.40000152588</ele>
        <time>2017-07-15T17:33:13.000Z</time>
      </trkpt>
      <trkpt lat="43.21393" lon="5.72294">
        <ele>111</ele>
        <time>2017-07-15T17:33:14.000Z</time>
      </trkpt>
      <trkpt lat="43.21388" lon="5.72301">
        <ele>110.19999694824</ele>
        <time>2017-07-15T17:33:16.000Z</time>
      </trkpt>
      <trkpt lat="43.21383" lon="5.72313">
        <ele>109.40000152588</ele>
        <time>2017-07-15T17:33:19.000Z</time>
      </trkpt>
      <trkpt lat="43.21378" lon="5.7232">
        <ele>109</ele>
        <time>2017-07-15T17:33:21.000Z</time>
      </trkpt>
      <trkpt lat="43.21373" lon="5.72331">
        <ele>108.19999694824</ele>
        <time>2017-07-15T17:33:24.000Z</time>
      </trkpt>
      <trkpt lat="43.21366" lon="5.72343">
        <ele>107.80000305176</ele>
        <time>2017-07-15T17:33:27.000Z</time>
      </trkpt>
      <trkpt lat="43.21362" lon="5.72351">
        <ele>107.40000152588</ele>
        <time>2017-07-15T17:33:29.000Z</time>
      </trkpt>
      <trkpt lat="43.21348" lon="5.72376">
        <ele>106.19999694824</ele>
        <time>2017-07-15T17:33:35.000Z</time>
      </trkpt>
      <trkpt lat="43.21346" lon="5.72381">
        <ele>106</ele>
        <time>2017-07-15T17:33:36.000Z</time>
      </trkpt>
      <trkpt lat="43.2133" lon="5.7241">
        <ele>105.40000152588</ele>
        <time>2017-07-15T17:33:42.000Z</time>
      </trkpt>
      <trkpt lat="43.21327" lon="5.72415">
        <ele>105.40000152588</ele>
        <time>2017-07-15T17:33:43.000Z</time>
      </trkpt>
      <trkpt lat="43.21316" lon="5.72437">
        <ele>105</ele>
        <time>2017-07-15T17:33:48.000Z</time>
      </trkpt>
      <trkpt lat="43.21311" lon="5.72446">
        <ele>104.40000152588</ele>
        <time>2017-07-15T17:33:50.000Z</time>
      </trkpt>
      <trkpt lat="43.21299" lon="5.72467">
        <ele>102.40000152588</ele>
        <time>2017-07-15T17:33:56.000Z</time>
      </trkpt>
      <trkpt lat="43.21285" lon="5.72487">
        <ele>100.59999847412</ele>
        <time>2017-07-15T17:34:02.000Z</time>
      </trkpt>
      <trkpt lat="43.21279" lon="5.72497">
        <ele>100</ele>
        <time>2017-07-15T17:34:05.000Z</time>
      </trkpt>
      <trkpt lat="43.21271" lon="5.72507">
        <ele>99.199996948242</ele>
        <time>2017-07-15T17:34:08.000Z</time>
      </trkpt>
      <trkpt lat="43.21265" lon="5.72513">
        <ele>98.800003051758</ele>
        <time>2017-07-15T17:34:10.000Z</time>
      </trkpt>
      <trkpt lat="43.2126" lon="5.7252">
        <ele>98.400001525879</ele>
        <time>2017-07-15T17:34:12.000Z</time>
      </trkpt>
      <trkpt lat="43.21252" lon="5.72534">
        <ele>98</ele>
        <time>2017-07-15T17:34:16.000Z</time>
      </trkpt>
      <trkpt lat="43.21241" lon="5.72549">
        <ele>96.800003051758</ele>
        <time>2017-07-15T17:34:20.000Z</time>
      </trkpt>
      <trkpt lat="43.21238" lon="5.72553">
        <ele>96.400001525879</ele>
        <time>2017-07-15T17:34:21.000Z</time>
      </trkpt>
      <trkpt lat="43.21223" lon="5.72575">
        <ele>94.599998474121</ele>
        <time>2017-07-15T17:34:25.000Z</time>
      </trkpt>
      <trkpt lat="43.21219" lon="5.7258">
        <ele>94</ele>
        <time>2017-07-15T17:34:26.000Z</time>
      </trkpt>
      <trkpt lat="43.21207" lon="5.72597">
        <ele>93</ele>
        <time>2017-07-15T17:34:29.000Z</time>
      </trkpt>
      <trkpt lat="43.21196" lon="5.72614">
        <ele>92.599998474121</ele>
        <time>2017-07-15T17:34:32.000Z</time>
      </trkpt>
      <trkpt lat="43.21191" lon="5.72627">
        <ele>92.599998474121</ele>
        <time>2017-07-15T17:34:34.000Z</time>
      </trkpt>
      <trkpt lat="43.21188" lon="5.72633">
        <ele>92.599998474121</ele>
        <time>2017-07-15T17:34:35.000Z</time>
      </trkpt>
      <trkpt lat="43.21177" lon="5.7266">
        <ele>91.400001525879</ele>
        <time>2017-07-15T17:34:39.000Z</time>
      </trkpt>
      <trkpt lat="43.21175" lon="5.72666">
        <ele>91</ele>
        <time>2017-07-15T17:34:40.000Z</time>
      </trkpt>
      <trkpt lat="43.21158" lon="5.72699">
        <ele>88.800003051758</ele>
        <time>2017-07-15T17:34:47.000Z</time>
      </trkpt>
      <trkpt lat="43.21142" lon="5.72733">
        <ele>88.400001525879</ele>
        <time>2017-07-15T17:34:53.000Z</time>
      </trkpt>
      <trkpt lat="43.21138" lon="5.7274">
        <ele>88.400001525879</ele>
        <time>2017-07-15T17:34:54.000Z</time>
      </trkpt>
      <trkpt lat="43.21124" lon="5.72766">
        <ele>87.400001525879</ele>
        <time>2017-07-15T17:34:58.000Z</time>
      </trkpt>
      <trkpt lat="43.21112" lon="5.72786">
        <ele>86.400001525879</ele>
        <time>2017-07-15T17:35:01.000Z</time>
      </trkpt>
      <trkpt lat="43.21102" lon="5.72806">
        <ele>85.400001525879</ele>
        <time>2017-07-15T17:35:04.000Z</time>
      </trkpt>
      <trkpt lat="43.2109" lon="5.72828">
        <ele>85.599998474121</ele>
        <time>2017-07-15T17:35:08.000Z</time>
      </trkpt>
      <trkpt lat="43.21087" lon="5.72834">
        <ele>85.800003051758</ele>
        <time>2017-07-15T17:35:09.000Z</time>
      </trkpt>
      <trkpt lat="43.21083" lon="5.72854">
        <ele>86.400001525879</ele>
        <time>2017-07-15T17:35:13.000Z</time>
      </trkpt>
      <trkpt lat="43.21082" lon="5.72904">
        <ele>87.800003051758</ele>
        <time>2017-07-15T17:35:23.000Z</time>
      </trkpt>
      <trkpt lat="43.21088" lon="5.72944">
        <ele>89</ele>
        <time>2017-07-15T17:35:31.000Z</time>
      </trkpt>
      <trkpt lat="43.21082" lon="5.72966">
        <ele>89.400001525879</ele>
        <time>2017-07-15T17:35:36.000Z</time>
      </trkpt>
      <trkpt lat="43.21067" lon="5.72993">
        <ele>90.599998474121</ele>
        <time>2017-07-15T17:35:43.000Z</time>
      </trkpt>
      <trkpt lat="43.21056" lon="5.73007">
        <ele>91.199996948242</ele>
        <time>2017-07-15T17:35:47.000Z</time>
      </trkpt>
      <trkpt lat="43.2105" lon="5.73013">
        <ele>92</ele>
        <time>2017-07-15T17:35:49.000Z</time>
      </trkpt>
      <trkpt lat="43.21037" lon="5.73029">
        <ele>96</ele>
        <time>2017-07-15T17:35:54.000Z</time>
      </trkpt>
      <trkpt lat="43.21023" lon="5.73044">
        <ele>100</ele>
        <time>2017-07-15T17:35:59.000Z</time>
      </trkpt>
      <trkpt lat="43.21013" lon="5.73051">
        <ele>102.19999694824</ele>
        <time>2017-07-15T17:36:02.000Z</time>
      </trkpt>
      <trkpt lat="43.21" lon="5.73058">
        <ele>102.59999847412</ele>
        <time>2017-07-15T17:36:06.000Z</time>
      </trkpt>
      <trkpt lat="43.20997" lon="5.73061">
        <ele>102.80000305176</ele>
        <time>2017-07-15T17:36:07.000Z</time>
      </trkpt>
      <trkpt lat="43.20984" lon="5.73069">
        <ele>102.80000305176</ele>
        <time>2017-07-15T17:36:11.000Z</time>
      </trkpt>
      <trkpt lat="43.20971" lon="5.73076">
        <ele>102.80000305176</ele>
        <time>2017-07-15T17:36:15.000Z</time>
      </trkpt>
      <trkpt lat="43.20959" lon="5.73086">
        <ele>103.19999694824</ele>
        <time>2017-07-15T17:36:19.000Z</time>
      </trkpt>
      <trkpt lat="43.20942" lon="5.73103">
        <ele>104.59999847412</ele>
        <time>2017-07-15T17:36:25.000Z</time>
      </trkpt>
      <trkpt lat="43.20933" lon="5.7311">
        <ele>105</ele>
        <time>2017-07-15T17:36:28.000Z</time>
      </trkpt>
      <trkpt lat="43.20927" lon="5.73112">
        <ele>105</ele>
        <time>2017-07-15T17:36:30.000Z</time>
      </trkpt>
      <trkpt lat="43.20905" lon="5.73119">
        <ele>104</ele>
        <time>2017-07-15T17:36:36.000Z</time>
      </trkpt>
      <trkpt lat="43.20898" lon="5.73122">
        <ele>103</ele>
        <time>2017-07-15T17:36:38.000Z</time>
      </trkpt>
      <trkpt lat="43.2088" lon="5.73133">
        <ele>101.19999694824</ele>
        <time>2017-07-15T17:36:43.000Z</time>
      </trkpt>
      <trkpt lat="43.20875" lon="5.73138">
        <ele>100.59999847412</ele>
        <time>2017-07-15T17:36:45.000Z</time>
      </trkpt>
      <trkpt lat="43.20864" lon="5.73159">
        <ele>100.80000305176</ele>
        <time>2017-07-15T17:36:51.000Z</time>
      </trkpt>
      <trkpt lat="43.20864" lon="5.73166">
        <ele>101.40000152588</ele>
        <time>2017-07-15T17:36:52.000Z</time>
      </trkpt>
      <trkpt lat="43.20864" lon="5.73179">
        <ele>102.80000305176</ele>
        <time>2017-07-15T17:36:54.000Z</time>
      </trkpt>
      <trkpt lat="43.20864" lon="5.73193">
        <ele>104.19999694824</ele>
        <time>2017-07-15T17:36:56.000Z</time>
      </trkpt>
      <trkpt lat="43.20863" lon="5.73199">
        <ele>104.80000305176</ele>
        <time>2017-07-15T17:36:57.000Z</time>
      </trkpt>
      <trkpt lat="43.20858" lon="5.73215">
        <ele>105.80000305176</ele>
        <time>2017-07-15T17:37:00.000Z</time>
      </trkpt>
      <trkpt lat="43.20843" lon="5.73226">
        <ele>104.80000305176</ele>
        <time>2017-07-15T17:37:04.000Z</time>
      </trkpt>
      <trkpt lat="43.20827" lon="5.73235">
        <ele>102.59999847412</ele>
        <time>2017-07-15T17:37:08.000Z</time>
      </trkpt>
      <trkpt lat="43.20808" lon="5.73246">
        <ele>100.19999694824</ele>
        <time>2017-07-15T17:37:12.000Z</time>
      </trkpt>
      <trkpt lat="43.20793" lon="5.73258">
        <ele>98.199996948242</ele>
        <time>2017-07-15T17:37:15.000Z</time>
      </trkpt>
      <trkpt lat="43.20778" lon="5.73272">
        <ele>96.599998474121</ele>
        <time>2017-07-15T17:37:18.000Z</time>
      </trkpt>
      <trkpt lat="43.20768" lon="5.73282">
        <ele>95.400001525879</ele>
        <time>2017-07-15T17:37:20.000Z</time>
      </trkpt>
      <trkpt lat="43.20752" lon="5.73303">
        <ele>94</ele>
        <time>2017-07-15T17:37:24.000Z</time>
      </trkpt>
      <trkpt lat="43.20744" lon="5.7333">
        <ele>93.400001525879</ele>
        <time>2017-07-15T17:37:28.000Z</time>
      </trkpt>
      <trkpt lat="43.20743" lon="5.73344">
        <ele>93.199996948242</ele>
        <time>2017-07-15T17:37:30.000Z</time>
      </trkpt>
      <trkpt lat="43.20742" lon="5.73357">
        <ele>93.199996948242</ele>
        <time>2017-07-15T17:37:32.000Z</time>
      </trkpt>
      <trkpt lat="43.2074" lon="5.73382">
        <ele>93.199996948242</ele>
        <time>2017-07-15T17:37:36.000Z</time>
      </trkpt>
      <trkpt lat="43.20733" lon="5.73427">
        <ele>95</ele>
        <time>2017-07-15T17:37:44.000Z</time>
      </trkpt>
      <trkpt lat="43.20724" lon="5.73465">
        <ele>96.199996948242</ele>
        <time>2017-07-15T17:37:51.000Z</time>
      </trkpt>
      <trkpt lat="43.20718" lon="5.73491">
        <ele>96</ele>
        <time>2017-07-15T17:37:56.000Z</time>
      </trkpt>
      <trkpt lat="43.20716" lon="5.73501">
        <ele>96</ele>
        <time>2017-07-15T17:37:58.000Z</time>
      </trkpt>
      <trkpt lat="43.2071" lon="5.73528">
        <ele>96</ele>
        <time>2017-07-15T17:38:04.000Z</time>
      </trkpt>
      <trkpt lat="43.20709" lon="5.73566">
        <ele>97</ele>
        <time>2017-07-15T17:38:11.000Z</time>
      </trkpt>
      <trkpt lat="43.20704" lon="5.73609">
        <ele>97.400001525879</ele>
        <time>2017-07-15T17:38:19.000Z</time>
      </trkpt>
      <trkpt lat="43.20686" lon="5.73639">
        <ele>95.800003051758</ele>
        <time>2017-07-15T17:38:26.000Z</time>
      </trkpt>
      <trkpt lat="43.2066" lon="5.73661">
        <ele>94.599998474121</ele>
        <time>2017-07-15T17:38:33.000Z</time>
      </trkpt>
      <trkpt lat="43.20646" lon="5.73671">
        <ele>93.800003051758</ele>
        <time>2017-07-15T17:38:36.000Z</time>
      </trkpt>
      <trkpt lat="43.20638" lon="5.73682">
        <ele>93.599998474121</ele>
        <time>2017-07-15T17:38:38.000Z</time>
      </trkpt>
      <trkpt lat="43.20619" lon="5.73725">
        <ele>93.199996948242</ele>
        <time>2017-07-15T17:38:44.000Z</time>
      </trkpt>
      <trkpt lat="43.20609" lon="5.7376">
        <ele>93.599998474121</ele>
        <time>2017-07-15T17:38:49.000Z</time>
      </trkpt>
      <trkpt lat="43.20606" lon="5.73773">
        <ele>93.800003051758</ele>
        <time>2017-07-15T17:38:51.000Z</time>
      </trkpt>
      <trkpt lat="43.20605" lon="5.73779">
        <ele>94</ele>
        <time>2017-07-15T17:38:52.000Z</time>
      </trkpt>
      <trkpt lat="43.20605" lon="5.73798">
        <ele>94.599998474121</ele>
        <time>2017-07-15T17:38:55.000Z</time>
      </trkpt>
      <trkpt lat="43.20604" lon="5.73815">
        <ele>95</ele>
        <time>2017-07-15T17:38:58.000Z</time>
      </trkpt>
      <trkpt lat="43.20596" lon="5.73846">
        <ele>94.599998474121</ele>
        <time>2017-07-15T17:39:04.000Z</time>
      </trkpt>
      <trkpt lat="43.20593" lon="5.7385">
        <ele>94.599998474121</ele>
        <time>2017-07-15T17:39:05.000Z</time>
      </trkpt>
      <trkpt lat="43.20582" lon="5.73867">
        <ele>94.400001525879</ele>
        <time>2017-07-15T17:39:09.000Z</time>
      </trkpt>
      <trkpt lat="43.20578" lon="5.7387">
        <ele>94.400001525879</ele>
        <time>2017-07-15T17:39:10.000Z</time>
      </trkpt>
      <trkpt lat="43.20548" lon="5.7389">
        <ele>93.400001525879</ele>
        <time>2017-07-15T17:39:17.000Z</time>
      </trkpt>
      <trkpt lat="43.20544" lon="5.73893">
        <ele>93.400001525879</ele>
        <time>2017-07-15T17:39:18.000Z</time>
      </trkpt>
      <trkpt lat="43.20522" lon="5.73916">
        <ele>93</ele>
        <time>2017-07-15T17:39:24.000Z</time>
      </trkpt>
      <trkpt lat="43.20498" lon="5.73943">
        <ele>92.400001525879</ele>
        <time>2017-07-15T17:39:32.000Z</time>
      </trkpt>
      <trkpt lat="43.20485" lon="5.7395">
        <ele>92</ele>
        <time>2017-07-15T17:39:36.000Z</time>
      </trkpt>
      <trkpt lat="43.20468" lon="5.73952">
        <ele>91.400001525879</ele>
        <time>2017-07-15T17:39:41.000Z</time>
      </trkpt>
      <trkpt lat="43.20445" lon="5.73956">
        <ele>90.599998474121</ele>
        <time>2017-07-15T17:39:47.000Z</time>
      </trkpt>
      <trkpt lat="43.20414" lon="5.73963">
        <ele>90.400001525879</ele>
        <time>2017-07-15T17:39:54.000Z</time>
      </trkpt>
      <trkpt lat="43.20383" lon="5.73969">
        <ele>91.199996948242</ele>
        <time>2017-07-15T17:40:01.000Z</time>
      </trkpt>
      <trkpt lat="43.20346" lon="5.73974">
        <ele>92</ele>
        <time>2017-07-15T17:40:10.000Z</time>
      </trkpt>
      <trkpt lat="43.20333" lon="5.73979">
        <ele>92.800003051758</ele>
        <time>2017-07-15T17:40:15.000Z</time>
      </trkpt>
      <trkpt lat="43.20324" lon="5.7398">
        <ele>93.400001525879</ele>
        <time>2017-07-15T17:40:20.000Z</time>
      </trkpt>
      <trkpt lat="43.20322" lon="5.73978">
        <ele>93.599998474121</ele>
        <time>2017-07-15T17:40:21.000Z</time>
      </trkpt>
      <trkpt lat="43.20308" lon="5.73977">
        <ele>94.599998474121</ele>
        <time>2017-07-15T17:40:26.000Z</time>
      </trkpt>
      <trkpt lat="43.20292" lon="5.73979">
        <ele>95.800003051758</ele>
        <time>2017-07-15T17:40:32.000Z</time>
      </trkpt>
      <trkpt lat="43.2028" lon="5.73979">
        <ele>96.599998474121</ele>
        <time>2017-07-15T17:40:36.000Z</time>
      </trkpt>
      <trkpt lat="43.20256" lon="5.73981">
        <ele>98.400001525879</ele>
        <time>2017-07-15T17:40:43.000Z</time>
      </trkpt>
      <trkpt lat="43.2024" lon="5.7398">
        <ele>99.599998474121</ele>
        <time>2017-07-15T17:40:49.000Z</time>
      </trkpt>
      <trkpt lat="43.20238" lon="5.73994">
        <ele>99.800003051758</ele>
        <time>2017-07-15T17:40:52.000Z</time>
      </trkpt>
      <trkpt lat="43.2024" lon="5.7401">
        <ele>99.400001525879</ele>
        <time>2017-07-15T17:40:55.000Z</time>
      </trkpt>
      <trkpt lat="43.2024" lon="5.74021">
        <ele>99.199996948242</ele>
        <time>2017-07-15T17:40:57.000Z</time>
      </trkpt>
      <trkpt lat="43.2024" lon="5.74074">
        <ele>98.400001525879</ele>
        <time>2017-07-15T17:41:05.000Z</time>
      </trkpt>
      <trkpt lat="43.20235" lon="5.74137">
        <ele>97.599998474121</ele>
        <time>2017-07-15T17:41:14.000Z</time>
      </trkpt>
      <trkpt lat="43.20228" lon="5.74175">
        <ele>97.400001525879</ele>
        <time>2017-07-15T17:41:20.000Z</time>
      </trkpt>
      <trkpt lat="43.20219" lon="5.74205">
        <ele>96.800003051758</ele>
        <time>2017-07-15T17:41:25.000Z</time>
      </trkpt>
      <trkpt lat="43.20214" lon="5.74222">
        <ele>96.400001525879</ele>
        <time>2017-07-15T17:41:28.000Z</time>
      </trkpt>
      <trkpt lat="43.20202" lon="5.74261">
        <ele>96.599998474121</ele>
        <time>2017-07-15T17:41:34.000Z</time>
      </trkpt>
      <trkpt lat="43.20188" lon="5.74313">
        <ele>96.400001525879</ele>
        <time>2017-07-15T17:41:41.000Z</time>
      </trkpt>
      <trkpt lat="43.20169" lon="5.74367">
        <ele>95.400001525879</ele>
        <time>2017-07-15T17:41:49.000Z</time>
      </trkpt>
      <trkpt lat="43.20146" lon="5.74421">
        <ele>95</ele>
        <time>2017-07-15T17:41:58.000Z</time>
      </trkpt>
      <trkpt lat="43.2013" lon="5.74465">
        <ele>95.800003051758</ele>
        <time>2017-07-15T17:42:06.000Z</time>
      </trkpt>
      <trkpt lat="43.20109" lon="5.74504">
        <ele>96.400001525879</ele>
        <time>2017-07-15T17:42:14.000Z</time>
      </trkpt>
      <trkpt lat="43.20103" lon="5.74513">
        <ele>96.800003051758</ele>
        <time>2017-07-15T17:42:16.000Z</time>
      </trkpt>
      <trkpt lat="43.20082" lon="5.74541">
        <ele>98.199996948242</ele>
        <time>2017-07-15T17:42:23.000Z</time>
      </trkpt>
      <trkpt lat="43.20079" lon="5.74545">
        <ele>98.599998474121</ele>
        <time>2017-07-15T17:42:24.000Z</time>
      </trkpt>
      <trkpt lat="43.20055" lon="5.74577">
        <ele>101.19999694824</ele>
        <time>2017-07-15T17:42:32.000Z</time>
      </trkpt>
      <trkpt lat="43.20039" lon="5.74596">
        <ele>102.40000152588</ele>
        <time>2017-07-15T17:42:37.000Z</time>
      </trkpt>
      <trkpt lat="43.20024" lon="5.74616">
        <ele>103</ele>
        <time>2017-07-15T17:42:42.000Z</time>
      </trkpt>
      <trkpt lat="43.20012" lon="5.74631">
        <ele>103.40000152588</ele>
        <time>2017-07-15T17:42:46.000Z</time>
      </trkpt>
      <trkpt lat="43.2" lon="5.74647">
        <ele>105.19999694824</ele>
        <time>2017-07-15T17:42:50.000Z</time>
      </trkpt>
      <trkpt lat="43.19992" lon="5.74659">
        <ele>106.59999847412</ele>
        <time>2017-07-15T17:42:53.000Z</time>
      </trkpt>
      <trkpt lat="43.19981" lon="5.74675">
        <ele>108.19999694824</ele>
        <time>2017-07-15T17:42:57.000Z</time>
      </trkpt>
      <trkpt lat="43.19974" lon="5.74688">
        <ele>109.19999694824</ele>
        <time>2017-07-15T17:43:00.000Z</time>
      </trkpt>
      <trkpt lat="43.19969" lon="5.74703">
        <ele>109.59999847412</ele>
        <time>2017-07-15T17:43:03.000Z</time>
      </trkpt>
      <trkpt lat="43.19956" lon="5.74731">
        <ele>110.59999847412</ele>
        <time>2017-07-15T17:43:09.000Z</time>
      </trkpt>
      <trkpt lat="43.19951" lon="5.7474">
        <ele>111.19999694824</ele>
        <time>2017-07-15T17:43:11.000Z</time>
      </trkpt>
      <trkpt lat="43.1994" lon="5.74765">
        <ele>111.80000305176</ele>
        <time>2017-07-15T17:43:16.000Z</time>
      </trkpt>
      <trkpt lat="43.19931" lon="5.74786">
        <ele>112.40000152588</ele>
        <time>2017-07-15T17:43:20.000Z</time>
      </trkpt>
      <trkpt lat="43.19927" lon="5.74796">
        <ele>112.80000305176</ele>
        <time>2017-07-15T17:43:22.000Z</time>
      </trkpt>
      <trkpt lat="43.1992" lon="5.74811">
        <ele>114.59999847412</ele>
        <time>2017-07-15T17:43:25.000Z</time>
      </trkpt>
      <trkpt lat="43.19906" lon="5.7484">
        <ele>118.59999847412</ele>
        <time>2017-07-15T17:43:31.000Z</time>
      </trkpt>
      <trkpt lat="43.19902" lon="5.7485">
        <ele>120</ele>
        <time>2017-07-15T17:43:33.000Z</time>
      </trkpt>
      <trkpt lat="43.19898" lon="5.7486">
        <ele>121.19999694824</ele>
        <time>2017-07-15T17:43:35.000Z</time>
      </trkpt>
      <trkpt lat="43.19885" lon="5.74889">
        <ele>124.80000305176</ele>
        <time>2017-07-15T17:43:41.000Z</time>
      </trkpt>
      <trkpt lat="43.19881" lon="5.74905">
        <ele>126.40000152588</ele>
        <time>2017-07-15T17:43:44.000Z</time>
      </trkpt>
      <trkpt lat="43.19879" lon="5.74911">
        <ele>126.80000305176</ele>
        <time>2017-07-15T17:43:45.000Z</time>
      </trkpt>
      <trkpt lat="43.19876" lon="5.74939">
        <ele>128.60000610352</ele>
        <time>2017-07-15T17:43:50.000Z</time>
      </trkpt>
      <trkpt lat="43.19876" lon="5.74945">
        <ele>129</ele>
        <time>2017-07-15T17:43:51.000Z</time>
      </trkpt>
      <trkpt lat="43.19875" lon="5.74975">
        <ele>130</ele>
        <time>2017-07-15T17:43:56.000Z</time>
      </trkpt>
      <trkpt lat="43.19876" lon="5.75003">
        <ele>129.80000305176</ele>
        <time>2017-07-15T17:44:01.000Z</time>
      </trkpt>
      <trkpt lat="43.19875" lon="5.75015">
        <ele>130.60000610352</ele>
        <time>2017-07-15T17:44:03.000Z</time>
      </trkpt>
      <trkpt lat="43.19875" lon="5.75039">
        <ele>132.60000610352</ele>
        <time>2017-07-15T17:44:07.000Z</time>
      </trkpt>
      <trkpt lat="43.19874" lon="5.75069">
        <ele>134.60000610352</ele>
        <time>2017-07-15T17:44:12.000Z</time>
      </trkpt>
      <trkpt lat="43.19873" lon="5.75075">
        <ele>135</ele>
        <time>2017-07-15T17:44:13.000Z</time>
      </trkpt>
      <trkpt lat="43.19873" lon="5.75099">
        <ele>135.80000305176</ele>
        <time>2017-07-15T17:44:17.000Z</time>
      </trkpt>
      <trkpt lat="43.19871" lon="5.75129">
        <ele>137.39999389648</ele>
        <time>2017-07-15T17:44:22.000Z</time>
      </trkpt>
      <trkpt lat="43.1987" lon="5.75135">
        <ele>137.80000305176</ele>
        <time>2017-07-15T17:44:23.000Z</time>
      </trkpt>
      <trkpt lat="43.19868" lon="5.75152">
        <ele>138.60000610352</ele>
        <time>2017-07-15T17:44:26.000Z</time>
      </trkpt>
      <trkpt lat="43.19865" lon="5.75176">
        <ele>138.39999389648</ele>
        <time>2017-07-15T17:44:30.000Z</time>
      </trkpt>
      <trkpt lat="43.19863" lon="5.75199">
        <ele>138</ele>
        <time>2017-07-15T17:44:34.000Z</time>
      </trkpt>
      <trkpt lat="43.19862" lon="5.75204">
        <ele>138</ele>
        <time>2017-07-15T17:44:35.000Z</time>
      </trkpt>
      <trkpt lat="43.19856" lon="5.75233">
        <ele>138.80000305176</ele>
        <time>2017-07-15T17:44:40.000Z</time>
      </trkpt>
      <trkpt lat="43.19854" lon="5.75239">
        <ele>139.19999694824</ele>
        <time>2017-07-15T17:44:41.000Z</time>
      </trkpt>
      <trkpt lat="43.19848" lon="5.75255">
        <ele>140.39999389648</ele>
        <time>2017-07-15T17:44:44.000Z</time>
      </trkpt>
      <trkpt lat="43.19839" lon="5.75282">
        <ele>142.39999389648</ele>
        <time>2017-07-15T17:44:49.000Z</time>
      </trkpt>
      <trkpt lat="43.19835" lon="5.75292">
        <ele>143</ele>
        <time>2017-07-15T17:44:51.000Z</time>
      </trkpt>
      <trkpt lat="43.1983" lon="5.75308">
        <ele>144.19999694824</ele>
        <time>2017-07-15T17:44:54.000Z</time>
      </trkpt>
      <trkpt lat="43.19822" lon="5.75335">
        <ele>144.19999694824</ele>
        <time>2017-07-15T17:44:59.000Z</time>
      </trkpt>
      <trkpt lat="43.19819" lon="5.75346">
        <ele>144.19999694824</ele>
        <time>2017-07-15T17:45:01.000Z</time>
      </trkpt>
      <trkpt lat="43.19813" lon="5.75367">
        <ele>144</ele>
        <time>2017-07-15T17:45:05.000Z</time>
      </trkpt>
      <trkpt lat="43.19809" lon="5.75381">
        <ele>144.19999694824</ele>
        <time>2017-07-15T17:45:08.000Z</time>
      </trkpt>
      <trkpt lat="43.19805" lon="5.75395">
        <ele>144.19999694824</ele>
        <time>2017-07-15T17:45:11.000Z</time>
      </trkpt>
      <trkpt lat="43.19799" lon="5.75416">
        <ele>144.39999389648</ele>
        <time>2017-07-15T17:45:15.000Z</time>
      </trkpt>
      <trkpt lat="43.19795" lon="5.75426">
        <ele>144.80000305176</ele>
        <time>2017-07-15T17:45:17.000Z</time>
      </trkpt>
      <trkpt lat="43.19786" lon="5.75449">
        <ele>145.60000610352</ele>
        <time>2017-07-15T17:45:22.000Z</time>
      </trkpt>
      <trkpt lat="43.19784" lon="5.75458">
        <ele>145.80000305176</ele>
        <time>2017-07-15T17:45:24.000Z</time>
      </trkpt>
      <trkpt lat="43.19778" lon="5.75476">
        <ele>146.39999389648</ele>
        <time>2017-07-15T17:45:28.000Z</time>
      </trkpt>
      <trkpt lat="43.19773" lon="5.75489">
        <ele>146.80000305176</ele>
        <time>2017-07-15T17:45:31.000Z</time>
      </trkpt>
      <trkpt lat="43.19769" lon="5.75503">
        <ele>146.60000610352</ele>
        <time>2017-07-15T17:45:34.000Z</time>
      </trkpt>
      <trkpt lat="43.19758" lon="5.7553">
        <ele>146.19999694824</ele>
        <time>2017-07-15T17:45:40.000Z</time>
      </trkpt>
      <trkpt lat="43.19756" lon="5.75534">
        <ele>145.80000305176</ele>
        <time>2017-07-15T17:45:41.000Z</time>
      </trkpt>
      <trkpt lat="43.19744" lon="5.75567">
        <ele>145.80000305176</ele>
        <time>2017-07-15T17:45:48.000Z</time>
      </trkpt>
      <trkpt lat="43.19741" lon="5.75576">
        <ele>145.39999389648</ele>
        <time>2017-07-15T17:45:50.000Z</time>
      </trkpt>
      <trkpt lat="43.19732" lon="5.75606">
        <ele>144.39999389648</ele>
        <time>2017-07-15T17:45:56.000Z</time>
      </trkpt>
      <trkpt lat="43.19723" lon="5.75641">
        <ele>144.39999389648</ele>
        <time>2017-07-15T17:46:03.000Z</time>
      </trkpt>
      <trkpt lat="43.19721" lon="5.75645">
        <ele>144.60000610352</ele>
        <time>2017-07-15T17:46:04.000Z</time>
      </trkpt>
      <trkpt lat="43.19716" lon="5.75666">
        <ele>145.19999694824</ele>
        <time>2017-07-15T17:46:08.000Z</time>
      </trkpt>
      <trkpt lat="43.19708" lon="5.75692">
        <ele>144.80000305176</ele>
        <time>2017-07-15T17:46:13.000Z</time>
      </trkpt>
      <trkpt lat="43.19702" lon="5.75714">
        <ele>144.39999389648</ele>
        <time>2017-07-15T17:46:18.000Z</time>
      </trkpt>
      <trkpt lat="43.19695" lon="5.75723">
        <ele>145</ele>
        <time>2017-07-15T17:46:21.000Z</time>
      </trkpt>
      <trkpt lat="43.19691" lon="5.75728">
        <ele>145.80000305176</ele>
        <time>2017-07-15T17:46:24.000Z</time>
      </trkpt>
      <trkpt lat="43.19691" lon="5.75737">
        <ele>144.60000610352</ele>
        <time>2017-07-15T17:47:18.000Z</time>
      </trkpt>
      <trkpt lat="43.19692" lon="5.75744">
        <ele>143.39999389648</ele>
        <time>2017-07-15T17:47:20.000Z</time>
      </trkpt>
      <trkpt lat="43.19681" lon="5.75764">
        <ele>142.60000610352</ele>
        <time>2017-07-15T17:47:25.000Z</time>
      </trkpt>
      <trkpt lat="43.19672" lon="5.75778">
        <ele>140.39999389648</ele>
        <time>2017-07-15T17:47:28.000Z</time>
      </trkpt>
      <trkpt lat="43.19666" lon="5.75789">
        <ele>138.19999694824</ele>
        <time>2017-07-15T17:47:30.000Z</time>
      </trkpt>
      <trkpt lat="43.19662" lon="5.75801">
        <ele>136.60000610352</ele>
        <time>2017-07-15T17:47:32.000Z</time>
      </trkpt>
      <trkpt lat="43.19657" lon="5.75808">
        <ele>135.80000305176</ele>
        <time>2017-07-15T17:47:34.000Z</time>
      </trkpt>
      <trkpt lat="43.19656" lon="5.75809">
        <ele>135.60000610352</ele>
        <time>2017-07-15T17:47:35.000Z</time>
      </trkpt>
      <trkpt lat="43.19654" lon="5.75808">
        <ele>135.60000610352</ele>
        <time>2017-07-15T17:47:36.000Z</time>
      </trkpt>
      <trkpt lat="43.19652" lon="5.75806">
        <ele>135.60000610352</ele>
        <time>2017-07-15T17:47:38.000Z</time>
      </trkpt>
      <trkpt lat="43.19651" lon="5.75804">
        <ele>135.80000305176</ele>
        <time>2017-07-15T17:47:39.000Z</time>
      </trkpt>
      <trkpt lat="43.1965" lon="5.75802">
        <ele>135.80000305176</ele>
        <time>2017-07-15T17:47:40.000Z</time>
      </trkpt>
      <trkpt lat="43.19649" lon="5.75799">
        <ele>136</ele>
        <time>2017-07-15T17:47:41.000Z</time>
      </trkpt>
      <trkpt lat="43.19646" lon="5.75791">
        <ele>136.80000305176</ele>
        <time>2017-07-15T17:47:44.000Z</time>
      </trkpt>
      <trkpt lat="43.19631" lon="5.7577">
        <ele>138</ele>
        <time>2017-07-15T17:47:53.000Z</time>
      </trkpt>
      <trkpt lat="43.19619" lon="5.75751">
        <ele>139.39999389648</ele>
        <time>2017-07-15T17:48:00.000Z</time>
      </trkpt>
      <trkpt lat="43.19616" lon="5.75738">
        <ele>140.60000610352</ele>
        <time>2017-07-15T17:48:03.000Z</time>
      </trkpt>
      <trkpt lat="43.19616" lon="5.75729">
        <ele>142</ele>
        <time>2017-07-15T17:48:05.000Z</time>
      </trkpt>
      <trkpt lat="43.19612" lon="5.75725">
        <ele>142.19999694824</ele>
        <time>2017-07-15T17:48:09.000Z</time>
      </trkpt>
      <trkpt lat="43.19608" lon="5.75727">
        <ele>141.39999389648</ele>
        <time>2017-07-15T17:48:11.000Z</time>
      </trkpt>
      <trkpt lat="43.19597" lon="5.75735">
        <ele>139.80000305176</ele>
        <time>2017-07-15T17:48:15.000Z</time>
      </trkpt>
      <trkpt lat="43.19592" lon="5.75739">
        <ele>138.60000610352</ele>
        <time>2017-07-15T17:48:17.000Z</time>
      </trkpt>
      <trkpt lat="43.19587" lon="5.75744">
        <ele>137.19999694824</ele>
        <time>2017-07-15T17:48:20.000Z</time>
      </trkpt>
      <trkpt lat="43.19586" lon="5.75746">
        <ele>137</ele>
        <time>2017-07-15T17:48:21.000Z</time>
      </trkpt>
    </trkseg>
  </trk>
</gpx>